LO417 / SP-LDI 7700 Squawk Report (18th of September, 2021)

Aircraft E170 Reg No. SP-LDI Age N/A
Model Emb-170 Jet engines 2 First flight 04-05
Registered 19-04-05 Rollout 03-05 Delivered 19-04-05
Construction No. 17000073 Line No. N/A Series 100LR
ADSHEX 489789 Airline name LOT Polish Airlines Owner N/A
Airfield based Warsaw-Okecie~Mazowieckie~SP First tracked N/A
Time Lat Lon Altitude Heading Speed Vertical Rate
2021-09-18 08:22:43 GMT 46.234531 6.108482 0 135 0 0
2021-09-18 08:22:32 GMT 46.234531 6.108484 0 135 0 0
2021-09-18 08:22:22 GMT 46.234612 6.108364 0 135 5 0
2021-09-18 08:22:12 GMT 46.234818 6.108080 0 137 7 0
2021-09-18 08:22:02 GMT 46.235088 6.107935 0 219 7 0
2021-09-18 08:21:51 GMT 46.235428 6.108433 0 225 17 0
2021-09-18 08:21:41 GMT 46.235973 6.109222 0 225 17 0
2021-09-18 08:20:39 GMT 46.239441 6.111078 0 222 11 0
2021-09-18 08:20:30 GMT 46.239693 6.111430 0 225 7 0
2021-09-18 08:20:19 GMT 46.239838 6.111626 0 225 0 0
2021-09-18 08:20:08 GMT 46.239841 6.111631 0 225 0 0
2021-09-18 08:19:59 GMT 46.239941 6.111780 0 225 8 0
2021-09-18 08:19:48 GMT 46.240791 6.113033 1,275 225 44 0
2021-09-18 08:19:39 GMT 46.242432 6.115402 1,275 226 78 64
2021-09-18 08:19:29 GMT 46.245926 6.120552 1,250 226 136 -192
2021-09-18 08:19:19 GMT 46.250580 6.127350 1,325 226 147 -768
2021-09-18 08:19:08 GMT 46.255875 6.135261 1,450 227 151 -1024
2021-09-18 08:19:02 GMT 46.258575 6.139281 1,550 227 152 -1024
2021-09-18 08:18:58 GMT 46.260544 6.142228 1,600 225 151 -896
2021-09-18 08:18:52 GMT 46.263748 6.146717 1,675 225 152 -832
2021-09-18 08:18:48 GMT 46.265579 6.149329 1,725 226 152 -768
2021-09-18 08:18:45 GMT 46.267059 6.151520 1,775 226 153 -832
2021-09-18 08:18:41 GMT 46.269245 6.154747 1,850 226 153 -1024
2021-09-18 08:18:38 GMT 46.270752 6.156966 1,875 226 154 -832
2021-09-18 08:18:31 GMT 46.274323 6.162258 2,100 226 155 -896
2021-09-18 08:18:28 GMT 46.275856 6.164497 2,025 226 155 -896
2021-09-18 08:18:25 GMT 46.277020 6.166214 2,050 226 155 -768
2021-09-18 08:18:20 GMT 46.280281 6.171021 2,175 226 155 -704
2021-09-18 08:18:16 GMT 46.281784 6.173245 2,175 226 156 -768
2021-09-18 08:18:09 GMT 46.285034 6.178001 2,250 226 155 -896
2021-09-18 08:18:05 GMT 46.287048 6.180948 2,300 226 156 -768
2021-09-18 08:18:00 GMT 46.289978 6.185303 2,375 226 155 -768
2021-09-18 08:17:57 GMT 46.291359 6.187363 2,750 226 157 -896
2021-09-18 08:17:52 GMT 46.294098 6.191332 2,550 226 157 -896
2021-09-18 08:17:47 GMT 46.296432 6.194847 2,575 226 157 -896
2021-09-18 08:17:40 GMT 46.300598 6.200978 2,700 226 158 -896
2021-09-18 08:17:37 GMT 46.301556 6.202332 2,725 226 158 -832
2021-09-18 08:17:34 GMT 46.302841 6.204261 2,750 226 157 -832
2021-09-18 08:17:30 GMT 46.305313 6.207878 2,825 226 157 -832
2021-09-18 08:17:27 GMT 46.306629 6.209885 2,850 226 157 -832
2021-09-18 08:17:21 GMT 46.309700 6.214417 2,975 226 159 -896
2021-09-18 08:17:17 GMT 46.311905 6.217592 3,000 226 159 -896
2021-09-18 08:17:10 GMT 46.315201 6.222415 3,100 226 158 -832
2021-09-18 08:17:07 GMT 46.316803 6.224827 3,150 226 157 -832
2021-09-18 08:17:04 GMT 46.318966 6.228012 3,200 226 156 -832
2021-09-18 08:17:00 GMT 46.320782 6.230690 3,250 226 156 -832
2021-09-18 08:16:56 GMT 46.322296 6.232932 3,300 226 156 -832
2021-09-18 08:16:50 GMT 46.325623 6.237900 3,400 226 155 -896
2021-09-18 08:16:46 GMT 46.327484 6.240578 3,425 226 155 -896
2021-09-18 08:16:41 GMT 46.330170 6.244589 3,500 226 156 -896
2021-09-18 08:16:36 GMT 46.332596 6.248139 3,575 226 155 -896
2021-09-18 08:16:32 GMT 46.334564 6.251087 3,625 226 155 -832
2021-09-18 08:16:28 GMT 46.336700 6.254242 3,700 226 154 -832
2021-09-18 08:16:24 GMT 46.338821 6.257317 3,750 226 154 -832
2021-09-18 08:16:19 GMT 46.341496 6.261314 3,825 226 154 -832
2021-09-18 08:16:14 GMT 46.343918 6.264885 3,900 226 155 -832
2021-09-18 08:16:09 GMT 46.345917 6.267838 3,950 226 155 -832
2021-09-18 08:16:06 GMT 46.347656 6.270380 4,000 226 155 -896
2021-09-18 08:16:03 GMT 46.349178 6.272575 4,050 226 156 -896
2021-09-18 08:15:58 GMT 46.351639 6.276275 4,125 226 156 -896
2021-09-18 08:15:55 GMT 46.352875 6.278151 4,150 226 156 -896
2021-09-18 08:15:51 GMT 46.355118 6.281433 4,225 226 156 -896
2021-09-18 08:15:48 GMT 46.356720 6.283778 4,275 226 156 -896
2021-09-18 08:15:45 GMT 46.358067 6.285759 4,300 226 156 -896
2021-09-18 08:15:40 GMT 46.360794 6.289807 4,375 226 156 -896
2021-09-18 08:15:35 GMT 46.364586 6.295372 4,475 226 157 -896
2021-09-18 08:15:32 GMT 46.364586 6.295372 4,500 226 157 -832
2021-09-18 08:15:28 GMT 46.367004 6.299011 4,525 226 157 -832
2021-09-18 08:15:25 GMT 46.368530 6.301262 4,600 226 158 -832
2021-09-18 08:15:22 GMT 46.370266 6.303818 4,650 226 158 -832
2021-09-18 08:15:19 GMT 46.371521 6.305672 4,675 226 158 -832
2021-09-18 08:15:15 GMT 46.373569 6.308693 4,725 226 157 -832
2021-09-18 08:15:11 GMT 46.375526 6.311577 4,775 226 157 -832
2021-09-18 08:15:08 GMT 46.377502 6.314526 4,850 226 157 -832
2021-09-18 08:15:05 GMT 46.378784 6.316383 4,875 226 157 -832
2021-09-18 08:15:02 GMT 46.380039 6.318306 4,900 226 157 -896
2021-09-18 08:14:57 GMT 46.382584 6.322096 5,000 226 157 -896
2021-09-18 08:14:54 GMT 46.383904 6.324005 5,025 226 157 -896
2021-09-18 08:14:51 GMT 46.385422 6.326316 5,075 226 157 -896
2021-09-18 08:14:47 GMT 46.387768 6.329773 5,125 226 157 -896
2021-09-18 08:14:44 GMT 46.389027 6.331558 5,200 226 157 -896
2021-09-18 08:14:40 GMT 46.391678 6.335541 5,250 226 159 -832
2021-09-18 08:14:37 GMT 46.393204 6.337772 5,275 226 159 -832
2021-09-18 08:14:32 GMT 46.395962 6.341927 5,350 226 159 -832
2021-09-18 08:14:29 GMT 46.397221 6.343712 5,400 226 159 -832
2021-09-18 08:14:26 GMT 46.399872 6.347694 5,450 226 159 -832
2021-09-18 08:14:23 GMT 46.399872 6.347694 5,450 226 159 -832
2021-09-18 08:14:18 GMT 46.404945 6.355179 5,575 226 157 -832
2021-09-18 08:14:13 GMT 46.404945 6.355179 5,600 226 157 -768
2021-09-18 08:14:06 GMT 46.408440 6.360397 5,675 226 157 -832
2021-09-18 08:14:03 GMT 46.410004 6.362692 5,725 226 159 -832
2021-09-18 08:13:57 GMT 46.415234 6.370422 5,900 226 159 -896
2021-09-18 08:13:53 GMT 46.415234 6.370422 5,875 227 159 -896
2021-09-18 08:13:49 GMT 46.417702 6.374130 5,950 226 160 -960
2021-09-18 08:13:46 GMT 46.419285 6.376534 5,975 227 161 -960
2021-09-18 08:13:42 GMT 46.420773 6.378731 6,025 227 161 -960
2021-09-18 08:13:36 GMT 46.424126 6.383743 6,125 226 163 -960
2021-09-18 08:13:33 GMT 46.425800 6.386215 6,175 226 164 -896
2021-09-18 08:13:26 GMT 46.429504 6.391698 6,300 226 165 -896
2021-09-18 08:13:22 GMT 46.431656 6.394981 6,350 226 165 -832
2021-09-18 08:13:19 GMT 46.433018 6.396996 6,400 226 165 -832
2021-09-18 08:13:16 GMT 46.434860 6.399737 6,500 226 165 -832
2021-09-18 08:13:12 GMT 46.436649 6.402420 6,475 226 164 -832
2021-09-18 08:13:08 GMT 46.438744 6.405579 6,525 226 164 -768
2021-09-18 08:13:05 GMT 46.440353 6.407910 6,575 227 164 -768
2021-09-18 08:13:02 GMT 46.442375 6.410934 6,600 227 164 -768
2021-09-18 08:12:58 GMT 46.444283 6.413818 6,675 227 164 -768
2021-09-18 08:12:54 GMT 46.446194 6.416702 6,700 226 165 -704
2021-09-18 08:12:50 GMT 46.449169 6.421165 6,750 227 164 -704
2021-09-18 08:12:45 GMT 46.451450 6.424667 6,800 227 165 -576
2021-09-18 08:12:42 GMT 46.452755 6.426590 6,825 227 165 -512
2021-09-18 08:12:38 GMT 46.454849 6.429817 6,850 227 166 -448
2021-09-18 08:12:35 GMT 46.457176 6.433388 6,875 227 166 -448
2021-09-18 08:12:32 GMT 46.458202 6.434967 6,900 227 169 -320
2021-09-18 08:12:28 GMT 46.460205 6.437988 6,900 227 173 -192
2021-09-18 08:12:25 GMT 46.461739 6.440323 6,925 227 178 -128
2021-09-18 08:12:19 GMT 46.465324 6.445885 6,975 227 179 -512
2021-09-18 08:12:16 GMT 46.466721 6.447945 6,975 227 179 -448
2021-09-18 08:12:13 GMT 46.469002 6.451378 7,000 227 178 -64
2021-09-18 08:12:09 GMT 46.471161 6.454669 7,000 226 178 0
2021-09-18 08:12:04 GMT 46.473564 6.458176 7,000 225 178 0
2021-09-18 08:12:01 GMT 46.475704 6.461266 7,000 225 177 0
2021-09-18 08:11:58 GMT 46.477661 6.464047 7,000 224 177 0
2021-09-18 08:11:54 GMT 46.479431 6.466484 7,000 224 177 0
2021-09-18 08:11:50 GMT 46.482082 6.470123 7,000 224 177 0
2021-09-18 08:11:47 GMT 46.484299 6.473292 7,000 227 175 128
2021-09-18 08:11:43 GMT 46.486275 6.476166 6,975 230 174 64
2021-09-18 08:11:39 GMT 46.488281 6.479522 6,975 232 175 64
2021-09-18 08:11:35 GMT 46.490509 6.483925 6,975 240 183 -64
2021-09-18 08:11:31 GMT 46.491760 6.487092 7,000 245 189 -320
2021-09-18 08:11:27 GMT 46.493397 6.492508 7,025 248 194 -576
2021-09-18 08:11:24 GMT 46.494419 6.496490 7,075 251 200 -1024
2021-09-18 08:11:21 GMT 46.496048 6.503220 7,175 251 205 -1472
2021-09-18 08:11:18 GMT 46.496048 6.503220 7,175 251 205 -1472
2021-09-18 08:11:15 GMT 46.497166 6.507889 7,275 251 206 -1472
2021-09-18 08:11:12 GMT 46.497910 6.510979 7,400 251 206 -1472
2021-09-18 08:11:09 GMT 46.499130 6.515964 7,425 251 206 -1472
2021-09-18 08:11:05 GMT 46.500145 6.519836 7,500 250 206 -1536
2021-09-18 08:11:01 GMT 46.501591 6.525467 7,800 248 206 -1408
2021-09-18 08:10:56 GMT 46.503708 6.532310 7,750 241 207 -1408
2021-09-18 08:10:52 GMT 46.505501 6.536316 7,875 231 207 -1408
2021-09-18 08:10:48 GMT 46.508106 6.540436 7,900 222 208 -1408
2021-09-18 08:10:42 GMT 46.513046 6.545239 8,050 205 208 -1280
2021-09-18 08:10:39 GMT 46.516811 6.547234 8,150 195 207 -1408
2021-09-18 08:10:36 GMT 46.518814 6.547919 8,200 191 207 -1472
2021-09-18 08:10:32 GMT 46.523438 6.548454 8,325 178 207 -1536
2021-09-18 08:10:29 GMT 46.525406 6.548454 8,375 179 207 -1472
2021-09-18 08:10:26 GMT 46.529617 6.548387 8,475 178 207 -1536
2021-09-18 08:10:22 GMT 46.531708 6.548332 8,650 176 206 -1472
2021-09-18 08:10:19 GMT 46.534561 6.548053 8,600 174 206 -1344
2021-09-18 08:10:16 GMT 46.538460 6.547371 8,700 169 206 -1344
2021-09-18 08:10:12 GMT 46.541531 6.546204 8,800 156 207 -1408
2021-09-18 08:10:09 GMT 46.544174 6.544569 8,875 150 208 -1408
2021-09-18 08:10:06 GMT 46.546326 6.542770 9,000 140 208 -1408
2021-09-18 08:10:01 GMT 46.550377 6.537621 9,050 128 210 -1344
2021-09-18 08:09:58 GMT 46.552185 6.534320 9,100 122 210 -1344
2021-09-18 08:09:52 GMT 46.554749 6.526683 9,225 107 210 -1344
2021-09-18 08:09:48 GMT 46.555592 6.521484 9,325 98 211 -1152
2021-09-18 08:09:45 GMT 46.555893 6.516701 9,375 90 211 -1024
2021-09-18 08:09:41 GMT 46.555592 6.511322 9,450 80 211 -960
2021-09-18 08:09:37 GMT 46.554749 6.506586 9,500 70 212 -896
2021-09-18 08:09:34 GMT 46.553635 6.502670 9,525 61 213 -896
2021-09-18 08:09:31 GMT 46.551865 6.498276 9,750 51 214 -896
2021-09-18 08:09:26 GMT 46.548569 6.492853 9,650 40 214 -832
2021-09-18 08:09:22 GMT 46.544769 6.488767 9,725 30 214 -960
2021-09-18 08:09:18 GMT 46.541718 6.486671 10,000 17 214 0
2021-09-18 08:09:14 GMT 46.538544 6.485015 9,850 17 214 -1024
2021-09-18 08:09:11 GMT 46.535202 6.483474 9,900 17 214 -960
2021-09-18 08:09:08 GMT 46.532135 6.482068 10,000 17 214 0
2021-09-18 08:09:05 GMT 46.525269 6.479053 10,000 17 214 64
2021-09-18 08:09:00 GMT 46.525269 6.479053 10,000 17 214 64
2021-09-18 08:08:56 GMT 46.520004 6.476708 10,000 17 214 0
2021-09-18 08:08:52 GMT 46.517715 6.475637 10,000 17 214 0
2021-09-18 08:08:48 GMT 46.513229 6.473627 10,000 17 214 0
2021-09-18 08:08:43 GMT 46.508430 6.471428 10,000 17 214 0
2021-09-18 08:08:40 GMT 46.503124 6.469025 10,000 17 214 0
2021-09-18 08:08:37 GMT 46.503124 6.469025 10,000 37 217 0
2021-09-18 08:08:34 GMT 46.500473 6.467857 10,000 17 214 0
2021-09-18 08:08:30 GMT 46.497074 6.466347 10,000 17 214 0
2021-09-18 08:08:25 GMT 46.491898 6.464114 10,000 16 214 -64
2021-09-18 08:08:22 GMT 46.489243 6.462975 10,000 16 214 -128
2021-09-18 08:08:16 GMT 46.483154 6.460229 10,000 18 214 0
2021-09-18 08:08:13 GMT 46.480911 6.459023 10,000 21 215 64
2021-09-18 08:08:10 GMT 46.477848 6.457008 10,000 29 214 64
2021-09-18 08:08:07 GMT 46.475147 6.454811 10,000 31 215 64
2021-09-18 08:08:03 GMT 46.472122 6.451790 10,000 36 216 0
2021-09-18 08:08:00 GMT 46.469563 6.448975 10,000 37 216 0
2021-09-18 08:07:57 GMT 46.466858 6.446027 10,000 37 216 0
2021-09-18 08:07:53 GMT 46.464161 6.443001 10,000 37 216 0
2021-09-18 08:07:50 GMT 46.461323 6.439911 10,000 37 216 0
2021-09-18 08:07:47 GMT 46.459213 6.437519 10,000 37 216 0
2021-09-18 08:07:44 GMT 46.457130 6.435242 10,000 37 216 0
2021-09-18 08:07:41 GMT 46.454945 6.432770 10,000 37 216 0
2021-09-18 08:07:37 GMT 46.450974 6.428409 10,000 37 216 0
2021-09-18 08:07:33 GMT 46.448238 6.425354 10,000 37 216 -64
2021-09-18 08:07:29 GMT 46.444378 6.421097 10,000 37 216 -64
2021-09-18 08:07:26 GMT 46.442467 6.418968 10,000 37 216 -64
2021-09-18 08:07:23 GMT 46.440079 6.416351 10,000 37 217 0
2021-09-18 08:07:20 GMT 46.436787 6.412720 10,000 37 216 0
2021-09-18 08:07:17 GMT 46.435112 6.410866 10,000 37 216 64
2021-09-18 08:07:14 GMT 46.432877 6.408394 10,000 37 216 0
2021-09-18 08:07:11 GMT 46.430878 6.406168 10,000 37 216 0
2021-09-18 08:07:07 GMT 46.427719 6.402618 10,000 37 216 0
2021-09-18 08:07:02 GMT 46.423782 6.398330 10,000 37 216 0
2021-09-18 08:06:59 GMT 46.421101 6.395348 10,000 37 216 0
2021-09-18 08:06:56 GMT 46.418541 6.392532 10,000 37 217 0
2021-09-18 08:06:51 GMT 46.414581 6.388148 10,000 37 216 0
2021-09-18 08:06:47 GMT 46.411743 6.385066 10,000 37 216 0
2021-09-18 08:06:42 GMT 46.407898 6.380779 10,000 37 216 0
2021-09-18 08:06:39 GMT 46.405014 6.377563 10,000 37 216 0
2021-09-18 08:06:35 GMT 46.401901 6.374147 10,000 37 216 0
2021-09-18 08:06:31 GMT 46.398567 6.370422 10,000 37 216 0
2021-09-18 08:06:28 GMT 46.396500 6.368185 10,000 37 217 0
2021-09-18 08:06:24 GMT 46.392563 6.363831 10,000 37 217 0
2021-09-18 08:06:20 GMT 46.390190 6.361221 10,000 37 217 64
2021-09-18 08:06:17 GMT 46.387756 6.358538 10,000 37 217 64
2021-09-18 08:06:14 GMT 46.385559 6.356060 10,000 37 217 64
2021-09-18 08:06:11 GMT 46.382835 6.353050 10,000 37 217 0
2021-09-18 08:06:08 GMT 46.379948 6.349892 10,000 37 217 0
2021-09-18 08:06:05 GMT 46.377869 6.347619 10,000 37 217 0
2021-09-18 08:06:01 GMT 46.374176 6.343506 10,000 37 217 0
2021-09-18 08:05:57 GMT 46.371780 6.340853 10,000 37 217 -64
2021-09-18 08:05:53 GMT 46.368076 6.336845 10,000 37 217 0
2021-09-18 08:05:50 GMT 46.365692 6.334154 10,000 37 217 64
2021-09-18 08:05:47 GMT 46.363449 6.331675 10,000 37 217 64
2021-09-18 08:05:43 GMT 46.360245 6.328125 10,000 37 217 0
2021-09-18 08:05:40 GMT 46.358208 6.325928 10,000 37 217 0
2021-09-18 08:05:37 GMT 46.355602 6.323044 10,000 37 217 0
2021-09-18 08:05:34 GMT 46.353195 6.320354 10,000 37 217 0
2021-09-18 08:05:30 GMT 46.350155 6.317001 10,000 37 217 -64
2021-09-18 08:05:27 GMT 46.347427 6.313990 10,000 37 217 0
2021-09-18 08:05:24 GMT 46.344986 6.311371 10,000 37 217 64
2021-09-18 08:05:20 GMT 46.341774 6.307800 10,000 37 217 0
2021-09-18 08:05:17 GMT 46.339371 6.305214 10,000 37 217 0
2021-09-18 08:05:14 GMT 46.337128 6.302736 10,000 37 217 0
2021-09-18 08:05:10 GMT 46.333767 6.299011 10,000 37 217 0
2021-09-18 08:05:07 GMT 46.331207 6.296196 10,000 37 217 -64
2021-09-18 08:05:04 GMT 46.328972 6.293724 10,000 37 217 -64
2021-09-18 08:05:00 GMT 46.325760 6.290154 10,000 37 217 64
2021-09-18 08:04:56 GMT 46.322598 6.286652 10,000 37 218 64
2021-09-18 08:04:53 GMT 46.319504 6.283309 10,000 37 218 64
2021-09-18 08:04:50 GMT 46.317581 6.281165 10,000 37 217 0
2021-09-18 08:04:47 GMT 46.315292 6.278687 10,000 37 217 0
2021-09-18 08:04:42 GMT 46.311172 6.274131 10,000 37 217 0
2021-09-18 08:04:39 GMT 46.309250 6.272055 10,000 37 217 64
2021-09-18 08:04:34 GMT 46.304764 6.267030 10,000 37 217 0
2021-09-18 08:04:30 GMT 46.301086 6.263031 10,000 37 217 0
2021-09-18 08:04:25 GMT 46.298203 6.259872 10,000 37 217 0
2021-09-18 08:04:22 GMT 46.295315 6.256714 10,000 37 217 0
2021-09-18 08:04:19 GMT 46.292999 6.254168 10,000 37 217 0
2021-09-18 08:04:13 GMT 46.288658 6.249367 10,000 37 217 0
2021-09-18 08:04:10 GMT 46.286098 6.246552 10,000 37 217 0
2021-09-18 08:04:07 GMT 46.282841 6.242981 10,000 37 217 0
2021-09-18 08:04:02 GMT 46.279175 6.238962 10,000 37 217 0
2021-09-18 08:03:59 GMT 46.276787 6.236320 10,000 37 217 0
2021-09-18 08:03:54 GMT 46.269608 6.228444 10,000 37 217 0
2021-09-18 08:03:51 GMT 46.269608 6.228444 10,000 37 218 0
2021-09-18 08:03:48 GMT 46.268280 6.226970 10,000 37 217 0
2021-09-18 08:03:42 GMT 46.263939 6.222244 10,000 37 218 0
2021-09-18 08:03:38 GMT 46.260448 6.218399 10,000 37 218 0
2021-09-18 08:03:33 GMT 46.255932 6.213455 10,000 37 217 0
2021-09-18 08:03:29 GMT 46.251743 6.208855 10,000 37 217 0
2021-09-18 08:03:25 GMT 46.250114 6.207069 10,000 37 217 0
2021-09-18 08:03:22 GMT 46.247272 6.203911 10,000 37 217 0
2021-09-18 08:03:18 GMT 46.244522 6.200978 10,000 37 217 0
2021-09-18 08:03:15 GMT 46.239265 6.195190 10,000 37 217 0
2021-09-18 08:03:12 GMT 46.239265 6.195190 10,000 37 217 0
2021-09-18 08:03:07 GMT 46.235596 6.191131 10,000 37 218 0
2021-09-18 08:03:02 GMT 46.231384 6.186509 10,000 37 218 0
2021-09-18 08:02:58 GMT 46.228134 6.182958 10,000 37 218 0
2021-09-18 08:02:55 GMT 46.225719 6.180359 10,000 37 218 0
2021-09-18 08:02:51 GMT 46.222687 6.176996 10,000 37 218 64
2021-09-18 08:02:48 GMT 46.219757 6.173780 10,000 37 218 0
2021-09-18 08:02:44 GMT 46.216736 6.170471 10,000 37 218 0
2021-09-18 08:02:41 GMT 46.214176 6.167656 10,000 37 218 0
2021-09-18 08:02:38 GMT 46.211746 6.165005 10,000 37 218 0
2021-09-18 08:02:35 GMT 46.209335 6.162369 10,000 37 218 0
2021-09-18 08:02:30 GMT 46.204926 6.157569 10,000 37 218 0
2021-09-18 08:02:25 GMT 46.201233 6.153511 10,000 37 218 -64
2021-09-18 08:02:21 GMT 46.195679 6.147453 10,000 37 218 -64
2021-09-18 08:02:18 GMT 46.195679 6.147453 10,000 37 218 192
2021-09-18 08:02:13 GMT 46.191597 6.143005 10,000 37 217 320
2021-09-18 08:02:10 GMT 46.189362 6.140533 9,975 37 217 512
2021-09-18 08:02:07 GMT 46.187408 6.138474 9,875 37 215 960
2021-09-18 08:02:04 GMT 46.184566 6.135315 9,900 37 215 960
2021-09-18 08:02:00 GMT 46.181534 6.132046 9,800 37 214 1024
2021-09-18 08:01:57 GMT 46.179169 6.129478 9,725 37 213 1024
2021-09-18 08:01:54 GMT 46.176819 6.126888 9,725 37 213 1024
2021-09-18 08:01:51 GMT 46.173660 6.123471 9,650 37 212 960
2021-09-18 08:01:48 GMT 46.171627 6.121239 9,625 37 212 960
2021-09-18 08:01:43 GMT 46.167389 6.116638 9,525 36 211 960
2021-09-18 08:01:40 GMT 46.165878 6.115030 9,475 36 210 960
2021-09-18 08:01:37 GMT 46.163528 6.112450 9,400 36 210 960
2021-09-18 08:01:30 GMT 46.158173 6.106750 9,325 35 211 1024
2021-09-18 08:01:27 GMT 46.155807 6.104245 9,250 35 211 960
2021-09-18 08:01:23 GMT 46.152283 6.100628 9,225 35 210 896
2021-09-18 08:01:20 GMT 46.149933 6.098167 9,175 36 211 896
2021-09-18 08:01:16 GMT 46.146812 6.094803 9,100 39 211 1152
2021-09-18 08:01:13 GMT 46.144547 6.092120 9,025 46 208 1728
2021-09-18 08:01:10 GMT 46.142487 6.089241 8,925 50 208 1664
2021-09-18 08:01:07 GMT 46.140656 6.086091 8,875 54 207 1600
2021-09-18 08:01:03 GMT 46.138504 6.080866 8,775 64 207 1472
2021-09-18 08:01:00 GMT 46.137543 6.077717 8,700 68 206 1536
2021-09-18 08:00:57 GMT 46.136341 6.073448 8,625 68 206 1536
2021-09-18 08:00:52 GMT 46.134663 6.067268 8,500 68 205 1536
2021-09-18 08:00:49 GMT 46.133827 6.064247 8,450 68 204 1536
2021-09-18 08:00:46 GMT 46.132828 6.060434 8,375 68 203 1536
2021-09-18 08:00:42 GMT 46.131268 6.054565 8,275 69 202 1472
2021-09-18 08:00:38 GMT 46.129990 6.049849 8,175 69 202 1472
2021-09-18 08:00:34 GMT 46.128708 6.045021 8,075 69 202 1472
2021-09-18 08:00:31 GMT 46.127636 6.041039 8,000 69 202 1408
2021-09-18 08:00:27 GMT 46.126373 6.036183 7,900 69 206 960
2021-09-18 08:00:24 GMT 46.125542 6.032867 7,875 70 208 832
2021-09-18 08:00:21 GMT 46.124516 6.028679 7,850 71 211 832
2021-09-18 08:00:18 GMT 46.123352 6.023522 7,775 74 213 1088
2021-09-18 08:00:14 GMT 46.122482 6.018029 7,700 80 212 1024
2021-09-18 08:00:09 GMT 46.122208 6.011799 7,600 97 212 1088
2021-09-18 08:00:06 GMT 46.122528 6.007311 7,575 100 212 1088
2021-09-18 08:00:02 GMT 46.123772 6.001144 7,500 112 210 1024
2021-09-18 07:59:59 GMT 46.124863 5.997798 7,425 123 210 1024
2021-09-18 07:59:56 GMT 46.126423 5.994278 7,375 131 210 1024
2021-09-18 07:59:53 GMT 46.128708 5.990501 7,350 137 210 1024
2021-09-18 07:59:49 GMT 46.131271 5.987482 7,300 145 210 1024
2021-09-18 07:59:46 GMT 46.133732 5.985283 7,250 154 210 1024
2021-09-18 07:59:41 GMT 46.138107 5.982811 7,150 165 210 1024
2021-09-18 07:59:38 GMT 46.140388 5.982124 7,125 171 210 1024
2021-09-18 07:59:35 GMT 46.143677 5.981788 7,075 179 210 1088
2021-09-18 07:59:31 GMT 46.147373 5.982193 6,975 191 209 1152
2021-09-18 07:59:28 GMT 46.150223 5.983194 6,950 201 209 768
2021-09-18 07:59:25 GMT 46.153240 5.985008 6,925 208 209 320
2021-09-18 07:59:21 GMT 46.156265 5.987817 6,925 220 211 -64
2021-09-18 07:59:18 GMT 46.158691 5.990831 6,925 226 210 0
2021-09-18 07:59:15 GMT 46.160385 5.993176 6,925 226 210 0
2021-09-18 07:59:11 GMT 46.163757 5.998260 6,925 227 210 -64
2021-09-18 07:59:06 GMT 46.167484 6.003822 6,925 227 210 -64
2021-09-18 07:59:01 GMT 46.170593 6.008517 6,925 227 210 -64
2021-09-18 07:58:55 GMT 46.174164 6.013809 6,925 227 210 0
2021-09-18 07:58:51 GMT 46.177540 6.018929 6,925 227 210 128
2021-09-18 07:58:46 GMT 46.180286 6.022980 6,900 227 210 576
2021-09-18 07:58:43 GMT 46.182495 6.026336 6,875 227 210 832
2021-09-18 07:58:40 GMT 46.184647 6.029551 6,825 227 210 960
2021-09-18 07:58:35 GMT 46.187778 6.034241 6,750 227 210 1024
2021-09-18 07:58:31 GMT 46.190369 6.038126 6,650 227 210 960
2021-09-18 07:58:28 GMT 46.192669 6.041588 6,625 227 210 960
2021-09-18 07:58:25 GMT 46.194717 6.044691 6,575 227 210 1024
2021-09-18 07:58:20 GMT 46.197647 6.049112 6,500 227 208 1088
2021-09-18 07:58:15 GMT 46.201263 6.054673 6,400 228 202 1088
2021-09-18 07:58:11 GMT 46.204212 6.059303 6,325 227 198 1024
2021-09-18 07:58:05 GMT 46.207752 6.064659 6,225 226 198 960
2021-09-18 07:58:00 GMT 46.210823 6.069054 6,150 225 198 1216
2021-09-18 07:57:57 GMT 46.212799 6.071956 6,050 226 197 1664
2021-09-18 07:57:54 GMT 46.214222 6.073997 6,025 226 197 1664
2021-09-18 07:57:50 GMT 46.217422 6.078655 5,875 226 197 1664
2021-09-18 07:57:45 GMT 46.220600 6.083336 5,725 226 196 1664
2021-09-18 07:57:40 GMT 46.223557 6.087632 5,600 226 195 1664
2021-09-18 07:57:34 GMT 46.227356 6.093192 5,450 226 195 1664
2021-09-18 07:57:30 GMT 46.230057 6.097144 5,325 226 194 1664
2021-09-18 07:57:24 GMT 46.233540 6.102287 5,175 226 194 1664
2021-09-18 07:57:19 GMT 46.236649 6.106925 5,025 226 193 1728
2021-09-18 07:57:16 GMT 46.238159 6.109135 4,950 226 190 1728
2021-09-18 07:57:13 GMT 46.240433 6.112518 4,850 226 189 1728
2021-09-18 07:57:09 GMT 46.242783 6.115968 4,725 226 185 1792
2021-09-18 07:57:04 GMT 46.246017 6.120689 4,525 226 181 2688
2021-09-18 07:56:59 GMT 46.248577 6.124535 4,300 226 180 3136
2021-09-18 07:56:54 GMT 46.251884 6.129341 4,025 226 179 3072
2021-09-18 07:56:50 GMT 46.254211 6.132774 3,800 226 185 3008
2021-09-18 07:56:44 GMT 46.257980 6.138276 3,500 226 187 3264
2021-09-18 07:56:39 GMT 46.260956 6.142563 3,250 226 188 3328
2021-09-18 07:56:36 GMT 46.262775 6.145271 3,075 226 188 3264
2021-09-18 07:56:32 GMT 46.265121 6.148659 2,900 226 188 3008
2021-09-18 07:56:29 GMT 46.266815 6.151205 2,750 226 189 2560
2021-09-18 07:56:23 GMT 46.270477 6.156497 2,600 226 183 1216
2021-09-18 07:56:20 GMT 46.272629 6.159646 2,525 226 181 1088
2021-09-18 07:56:14 GMT 46.276508 6.165390 2,425 226 181 640
2021-09-18 07:56:03 GMT 46.282288 6.173914 2,400 226 181 384
2021-09-18 07:55:58 GMT 46.285309 6.178403 2,350 226 179 576
2021-09-18 07:55:53 GMT 46.288193 6.182625 2,350 226 176 -448
2021-09-18 07:55:49 GMT 46.290661 6.186264 2,400 226 174 -896
2021-09-18 07:55:45 GMT 46.294235 6.191533 2,500 226 177 -1088
2021-09-18 07:55:39 GMT 46.296154 6.194366 2,575 226 181 -1088
2021-09-18 07:55:35 GMT 46.298481 6.197868 2,650 226 184 -1088
2021-09-18 07:55:32 GMT 46.299973 6.199997 2,700 226 186 -1024
2021-09-18 07:55:29 GMT 46.302391 6.203568 2,750 226 188 -1024
2021-09-18 07:55:26 GMT 46.304214 6.206338 2,825 226 190 -896
2021-09-18 07:55:23 GMT 46.305836 6.208649 2,850 226 191 -1024
2021-09-18 07:55:17 GMT 46.309326 6.213799 2,950 226 192 -1088
2021-09-18 07:55:12 GMT 46.312588 6.218536 3,025 226 194 -960
2021-09-18 07:55:08 GMT 46.315704 6.223219 3,125 226 194 -1088
2021-09-18 07:55:05 GMT 46.316872 6.224854 3,150 226 194 -1024
2021-09-18 07:55:02 GMT 46.319103 6.228149 3,225 226 196 -1088
2021-09-18 07:54:57 GMT 46.322178 6.232750 3,300 226 197 -1088
2021-09-18 07:54:53 GMT 46.325527 6.237625 3,400 226 199 -1024
2021-09-18 07:54:46 GMT 46.329624 6.243805 3,500 226 202 -1024
2021-09-18 07:54:42 GMT 46.331589 6.246665 3,550 226 202 -960
2021-09-18 07:54:38 GMT 46.334518 6.250953 3,625 226 207 -1152
2021-09-18 07:54:34 GMT 46.337029 6.254723 3,700 226 208 -1152
2021-09-18 07:54:31 GMT 46.339050 6.257719 3,750 226 210 -1216
2021-09-18 07:54:27 GMT 46.341476 6.261269 4,025 226 219 -1280
2021-09-18 07:54:24 GMT 46.344105 6.265160 3,900 226 216 -1344
2021-09-18 07:54:21 GMT 46.345871 6.267769 3,950 226 217 -1280
2021-09-18 07:54:18 GMT 46.348160 6.271184 4,050 226 219 -1280
2021-09-18 07:54:15 GMT 46.350342 6.274361 4,100 226 220 -1280
2021-09-18 07:54:11 GMT 46.352783 6.278017 4,150 226 220 -1216
2021-09-18 07:54:05 GMT 46.357788 6.285416 4,300 226 223 -1216
2021-09-18 07:54:02 GMT 46.359695 6.288199 4,350 226 224 -1280
2021-09-18 07:53:57 GMT 46.363331 6.293587 4,450 226 224 -1280
2021-09-18 07:53:54 GMT 46.365005 6.296059 4,500 226 225 -1280
2021-09-18 07:53:51 GMT 46.367249 6.299386 4,575 226 226 -1216
2021-09-18 07:53:45 GMT 46.372238 6.306755 4,700 226 226 -1216
2021-09-18 07:53:41 GMT 46.374687 6.310478 4,775 226 227 -1216
2021-09-18 07:53:35 GMT 46.379471 6.317541 4,900 226 227 -1216
2021-09-18 07:53:31 GMT 46.382126 6.321426 4,975 226 227 -1216
2021-09-18 07:53:27 GMT 46.385742 6.326785 5,075 226 227 -1280
2021-09-18 07:53:23 GMT 46.391281 6.335025 5,225 226 228 -1216
2021-09-18 07:53:16 GMT 46.393021 6.337638 5,275 226 228 -1216
2021-09-18 07:53:13 GMT 46.396042 6.342126 5,350 226 229 -1216
2021-09-18 07:53:10 GMT 46.397781 6.344738 5,400 226 229 -1216
2021-09-18 07:53:07 GMT 46.400162 6.348289 5,475 226 229 -1152
2021-09-18 07:53:04 GMT 46.402107 6.351128 5,525 226 229 -1152
2021-09-18 07:53:01 GMT 46.404556 6.354720 5,575 226 229 -1152
2021-09-18 07:52:56 GMT 46.408173 6.360146 5,675 226 229 -1216
2021-09-18 07:52:52 GMT 46.411148 6.364567 5,800 226 229 -1216
2021-09-18 07:52:49 GMT 46.412933 6.367180 5,800 226 229 -1216
2021-09-18 07:52:44 GMT 46.417053 6.373410 5,925 227 230 -1280
2021-09-18 07:52:41 GMT 46.419434 6.376961 6,000 227 230 -1280
2021-09-18 07:52:34 GMT 46.424469 6.384463 6,125 227 230 -1216
2021-09-18 07:52:30 GMT 46.427124 6.388550 6,200 227 230 -1216
2021-09-18 07:52:27 GMT 46.431793 6.395718 6,300 227 232 -1024
2021-09-18 07:52:24 GMT 46.431793 6.395718 6,325 227 231 -1152
2021-09-18 07:52:20 GMT 46.434723 6.400273 6,400 227 232 -1024
2021-09-18 07:52:14 GMT 46.439209 6.407039 6,500 226 234 -960
2021-09-18 07:52:10 GMT 46.441769 6.410866 6,550 225 235 -1024
2021-09-18 07:52:04 GMT 46.446842 6.417801 6,650 223 237 -960
2021-09-18 07:52:01 GMT 46.449921 6.421777 6,725 222 238 -832
2021-09-18 07:51:55 GMT 46.454525 6.427483 6,800 223 242 -768
2021-09-18 07:51:51 GMT 46.460358 6.435041 6,875 223 243 -640
2021-09-18 07:51:48 GMT 46.460358 6.435041 6,875 225 246 -384
2021-09-18 07:51:42 GMT 46.464626 6.441422 6,900 228 249 -256
2021-09-18 07:51:39 GMT 46.467140 6.445404 6,900 229 255 -64
2021-09-18 07:51:35 GMT 46.471069 6.451721 6,900 229 259 -64
2021-09-18 07:51:31 GMT 46.475800 6.459412 6,925 229 264 -256
2021-09-18 07:51:25 GMT 46.478405 6.463600 7,000 229 268 -1024
2021-09-18 07:51:21 GMT 46.482239 6.469808 7,050 229 268 -1024
2021-09-18 07:51:13 GMT 46.488693 6.480217 7,425 229 269 -1024
2021-09-18 07:51:09 GMT 46.491673 6.485092 7,225 229 269 -1024
2021-09-18 07:51:06 GMT 46.494698 6.489899 7,300 229 269 -1024
2021-09-18 07:51:03 GMT 46.497028 6.493675 7,425 229 276 -1216
2021-09-18 07:51:00 GMT 46.499542 6.497743 7,400 229 271 -1024
2021-09-18 07:50:57 GMT 46.502056 6.501778 7,450 229 271 -1024
2021-09-18 07:50:54 GMT 46.504532 6.505849 7,500 229 272 -1024
2021-09-18 07:50:50 GMT 46.507828 6.511141 7,575 229 272 -1024
2021-09-18 07:50:46 GMT 46.511261 6.516701 7,625 229 272 -1024
2021-09-18 07:50:43 GMT 46.513916 6.520989 7,675 229 274 -1024
2021-09-18 07:50:40 GMT 46.517136 6.526222 7,725 229 274 -1024
2021-09-18 07:50:37 GMT 46.518906 6.528969 7,775 229 275 -1024
2021-09-18 07:50:33 GMT 46.522797 6.535324 7,850 229 276 -1152
2021-09-18 07:50:30 GMT 46.524536 6.538138 7,925 229 276 -1216
2021-09-18 07:50:27 GMT 46.527603 6.543095 7,975 229 276 -1216
2021-09-18 07:50:24 GMT 46.529984 6.546981 8,025 229 276 -1216
2021-09-18 07:50:20 GMT 46.533417 6.552474 8,125 229 276 -1216
2021-09-18 07:50:17 GMT 46.535946 6.556641 8,150 229 276 -1216
2021-09-18 07:50:13 GMT 46.539551 6.562455 8,250 229 275 -1216
2021-09-18 07:50:10 GMT 46.542088 6.566528 8,300 229 274 -1216
2021-09-18 07:50:07 GMT 46.544369 6.570305 8,350 229 274 -1216
2021-09-18 07:50:03 GMT 46.547398 6.575180 8,450 229 273 -1216
2021-09-18 07:50:00 GMT 46.550354 6.580007 8,525 229 273 -1216
2021-09-18 07:49:56 GMT 46.553261 6.584656 8,575 229 273 -1216
2021-09-18 07:49:52 GMT 46.557129 6.590926 8,700 229 274 -1216
2021-09-18 07:49:48 GMT 46.560104 6.595749 8,725 229 274 -1216
2021-09-18 07:49:45 GMT 46.563217 6.600774 8,800 228 274 -1216
2021-09-18 07:49:42 GMT 46.565411 6.604362 8,850 228 274 -1216
2021-09-18 07:49:39 GMT 46.567612 6.607941 9,000 228 274 -1216
2021-09-18 07:49:36 GMT 46.570358 6.612296 8,975 229 275 -1216
2021-09-18 07:49:31 GMT 46.575394 6.620469 9,100 229 276 -1216
2021-09-18 07:49:26 GMT 46.578678 6.625786 9,175 229 276 -1216
2021-09-18 07:49:23 GMT 46.581753 6.630798 9,250 229 276 -1216
2021-09-18 07:49:20 GMT 46.583954 6.634402 9,325 229 276 -1216
2021-09-18 07:49:17 GMT 46.587341 6.639896 9,375 229 276 -1216
2021-09-18 07:49:12 GMT 46.591095 6.645992 9,475 229 276 -1280
2021-09-18 07:49:09 GMT 46.594528 6.651552 9,550 229 276 -1408
2021-09-18 07:49:06 GMT 46.595997 6.653938 9,600 229 276 -1408
2021-09-18 07:49:02 GMT 46.599976 6.660394 9,700 229 276 -1408
2021-09-18 07:48:59 GMT 46.601814 6.663414 9,775 229 277 -1408
2021-09-18 07:48:56 GMT 46.604736 6.668165 9,825 229 277 -1408
2021-09-18 07:48:53 GMT 46.607635 6.672890 9,925 229 277 -1408
2021-09-18 07:48:49 GMT 46.613205 6.681898 10,025 229 277 -1408
2021-09-18 07:48:46 GMT 46.613205 6.681898 10,075 229 278 -1408
2021-09-18 07:48:43 GMT 46.615456 6.685524 10,175 229 278 -1408
2021-09-18 07:48:40 GMT 46.618423 6.690406 10,200 229 278 -1408
2021-09-18 07:48:36 GMT 46.621857 6.695966 10,300 229 277 -1408
2021-09-18 07:48:32 GMT 46.624878 6.700856 10,375 229 277 -1472
2021-09-18 07:48:28 GMT 46.628723 6.707086 10,500 229 276 -1408
2021-09-18 07:48:25 GMT 46.630737 6.710436 10,550 229 276 -1408
2021-09-18 07:48:22 GMT 46.633659 6.715187 10,700 229 276 -1472
2021-09-18 07:48:19 GMT 46.638885 6.723767 10,750 229 276 -1472
2021-09-18 07:48:16 GMT 46.638885 6.723767 10,775 229 276 -1472
2021-09-18 07:48:11 GMT 46.643154 6.730705 10,900 228 277 -1408
2021-09-18 07:48:07 GMT 46.646229 6.735512 11,025 225 277 -1408
2021-09-18 07:48:03 GMT 46.649902 6.740868 11,125 223 278 -1408
2021-09-18 07:47:59 GMT 46.654312 6.746677 11,200 220 280 -1408
2021-09-18 07:47:55 GMT 46.658146 6.751236 11,275 218 281 -1408
2021-09-18 07:47:52 GMT 46.660858 6.754180 11,325 216 282 -1408
2021-09-18 07:47:49 GMT 46.664570 6.757828 11,400 213 283 -1408
2021-09-18 07:47:45 GMT 46.668365 6.761147 11,475 210 285 -1408
2021-09-18 07:47:42 GMT 46.673035 6.764765 11,575 207 285 -1472
2021-09-18 07:47:37 GMT 46.678253 6.768516 11,675 207 287 -1408
2021-09-18 07:47:34 GMT 46.681595 6.770928 11,750 207 287 -1408
2021-09-18 07:47:31 GMT 46.685192 6.773415 11,900 207 287 -1536
2021-09-18 07:47:28 GMT 46.690357 6.777122 11,950 207 287 -1472
2021-09-18 07:47:25 GMT 46.692780 6.778839 11,975 207 287 -1408
2021-09-18 07:47:21 GMT 46.697479 6.782204 12,075 207 286 -1408
2021-09-18 07:47:18 GMT 46.700459 6.784264 12,125 207 285 -1408
2021-09-18 07:47:15 GMT 46.704601 6.787285 12,200 207 284 -1472
2021-09-18 07:47:11 GMT 46.709198 6.790489 12,450 207 287 -1408
2021-09-18 07:47:08 GMT 46.712036 6.792498 12,400 206 285 -1408
2021-09-18 07:47:05 GMT 46.716339 6.795513 12,450 206 285 -1408
2021-09-18 07:47:01 GMT 46.721100 6.798862 12,525 207 287 -1408
2021-09-18 07:46:57 GMT 46.725597 6.802116 12,625 207 287 -1472
2021-09-18 07:46:54 GMT 46.728745 6.804289 12,675 207 288 -1472
2021-09-18 07:46:51 GMT 46.733185 6.807472 12,775 207 289 -1408
2021-09-18 07:46:47 GMT 46.737854 6.810787 12,850 207 290 -1408
2021-09-18 07:46:44 GMT 46.741009 6.813034 12,925 207 291 -1408
2021-09-18 07:46:41 GMT 46.744358 6.815437 13,025 206 292 -1472
2021-09-18 07:46:38 GMT 46.749481 6.819026 13,100 206 293 -1408
2021-09-18 07:46:35 GMT 46.751953 6.820768 13,100 206 293 -1408
2021-09-18 07:46:32 GMT 46.756348 6.823917 13,300 206 294 -1344
2021-09-18 07:46:27 GMT 46.762466 6.828209 13,375 206 294 -1408
2021-09-18 07:46:24 GMT 46.766144 6.830817 13,400 206 294 -1408
2021-09-18 07:46:19 GMT 46.772755 6.835556 13,550 207 295 -1408
2021-09-18 07:46:16 GMT 46.776443 6.838118 13,600 207 296 -1408
2021-09-18 07:46:13 GMT 46.779133 6.840088 13,650 207 296 -1344
2021-09-18 07:46:10 GMT 46.782852 6.842674 13,725 206 296 -1408
2021-09-18 07:46:07 GMT 46.787003 6.845650 13,800 207 297 -1728
2021-09-18 07:46:04 GMT 46.790726 6.848301 13,900 207 298 -1792
2021-09-18 07:46:00 GMT 46.795624 6.851784 14,000 206 299 -1344
2021-09-18 07:45:57 GMT 46.799335 6.854439 14,050 207 301 -960
2021-09-18 07:45:54 GMT 46.803177 6.857210 14,100 207 302 -1024
2021-09-18 07:45:49 GMT 46.808762 6.861163 14,175 207 305 -1536
2021-09-18 07:45:46 GMT 46.813068 6.864189 14,275 207 306 -1792
2021-09-18 07:45:42 GMT 46.818657 6.868240 14,400 206 308 -1792
2021-09-18 07:45:39 GMT 46.821487 6.870207 14,550 207 308 -1792
2021-09-18 07:45:36 GMT 46.826244 6.873596 14,575 207 309 -1792
2021-09-18 07:45:33 GMT 46.828945 6.875519 14,650 207 309 -1792
2021-09-18 07:45:30 GMT 46.841328 6.884377 14,800 207 310 -1792
2021-09-18 07:45:25 GMT 46.841328 6.884377 14,925 207 313 -1792
2021-09-18 07:45:19 GMT 46.847763 6.889031 15,150 207 313 -1792
2021-09-18 07:45:16 GMT 46.851974 6.892045 15,150 207 313 -1792
2021-09-18 07:45:13 GMT 46.861206 6.898590 15,325 207 316 -1792
2021-09-18 07:45:09 GMT 46.861206 6.898590 15,400 206 317 -1792
2021-09-18 07:45:06 GMT 46.864655 6.901022 15,525 207 317 -1856
2021-09-18 07:45:03 GMT 46.868866 6.904015 15,575 207 319 -1856
2021-09-18 07:44:59 GMT 46.874130 6.907791 15,725 207 326 -1856
2021-09-18 07:44:56 GMT 46.878151 6.910682 15,775 207 320 -1856
2021-09-18 07:44:53 GMT 46.881454 6.913010 16,550 208 327 -1920
2021-09-18 07:44:50 GMT 46.885849 6.916168 15,950 207 322 -1856
2021-09-18 07:44:47 GMT 46.889881 6.919063 16,075 207 323 -1856
2021-09-18 07:44:44 GMT 46.895004 6.922691 16,175 207 325 -1856
2021-09-18 07:44:40 GMT 46.899563 6.925964 16,300 207 326 -1856
2021-09-18 07:44:36 GMT 46.904964 6.929838 16,400 207 326 -1856
2021-09-18 07:44:33 GMT 46.908222 6.932232 16,550 208 327 -1920
2021-09-18 07:44:30 GMT 46.914696 6.937232 16,575 210 330 -1856
2021-09-18 07:44:26 GMT 46.918369 6.940331 16,725 212 330 -1920
2021-09-18 07:44:23 GMT 46.921646 6.943153 16,850 213 331 -1920
2021-09-18 07:44:20 GMT 46.926052 6.947374 16,975 216 333 -1920
2021-09-18 07:44:16 GMT 46.931686 6.953148 17,075 218 335 -1984
2021-09-18 07:44:13 GMT 46.935131 6.957022 17,125 220 336 -1920
2021-09-18 07:44:09 GMT 46.939590 6.962311 17,325 225 340 -1920
2021-09-18 07:44:05 GMT 46.943939 6.967941 17,350 223 338 -1920
2021-09-18 07:44:01 GMT 46.948837 6.974945 17,500 226 340 -1920
2021-09-18 07:43:59 GMT 46.951145 6.978502 17,600 229 342 -1920
2021-09-18 07:43:56 GMT 46.954590 6.984206 17,675 231 343 -1984
2021-09-18 07:43:53 GMT 46.957336 6.988995 17,750 232 344 -1984
2021-09-18 07:43:50 GMT 46.960373 6.994514 17,850 232 344 -1984
2021-09-18 07:43:48 GMT 46.962223 6.997868 17,925 232 346 -1984
2021-09-18 07:43:44 GMT 46.966274 7.005193 18,225 232 348 -1984
2021-09-18 07:43:41 GMT 46.969666 7.011406 18,175 232 348 -1984
2021-09-18 07:43:36 GMT 46.974106 7.019508 18,300 232 350 -1984
2021-09-18 07:43:33 GMT 46.978378 7.027306 18,450 232 352 -2048
2021-09-18 07:43:30 GMT 46.980007 7.030264 18,500 232 352 -2048
2021-09-18 07:43:27 GMT 46.983032 7.035851 18,600 232 353 -2048
2021-09-18 07:43:24 GMT 46.990154 7.048856 18,725 232 354 -2048
2021-09-18 07:43:21 GMT 46.990154 7.048856 18,825 232 355 -2048
2021-09-18 07:43:18 GMT 46.993877 7.055617 19,125 232 357 -1984
2021-09-18 07:43:15 GMT 46.995975 7.059490 19,050 232 359 -2048
2021-09-18 07:43:12 GMT 46.999100 7.065170 19,125 232 359 -2048
2021-09-18 07:43:09 GMT 47.001526 7.069702 19,200 232 360 -2048
2021-09-18 07:43:06 GMT 47.005280 7.076500 19,350 232 362 -2112
2021-09-18 07:43:03 GMT 47.009289 7.083928 19,525 232 364 -2112
2021-09-18 07:43:00 GMT 47.010918 7.086886 19,500 232 365 -2112
2021-09-18 07:42:56 GMT 47.015526 7.095337 19,725 232 367 -2112
2021-09-18 07:42:53 GMT 47.018551 7.100901 19,825 232 369 -2112
2021-09-18 07:42:50 GMT 47.021759 7.106712 19,875 232 369 -2112
2021-09-18 07:42:46 GMT 47.026886 7.116119 20,025 232 371 -2112
2021-09-18 07:42:42 GMT 47.030468 7.122662 20,175 232 372 -2112
2021-09-18 07:42:39 GMT 47.033798 7.128685 20,250 232 373 -2176
2021-09-18 07:42:35 GMT 47.037453 7.135409 20,425 232 374 -2112
2021-09-18 07:42:32 GMT 47.041534 7.142967 20,500 232 375 -2176
2021-09-18 07:42:29 GMT 47.044144 7.147705 20,600 232 376 -2176
2021-09-18 07:42:26 GMT 47.047119 7.153130 20,950 232 377 -2112
2021-09-18 07:42:23 GMT 47.051323 7.160832 20,900 232 377 -2176
2021-09-18 07:42:20 GMT 47.054581 7.166794 20,950 232 377 -2112
2021-09-18 07:42:15 GMT 47.059341 7.175583 21,075 232 377 -2176
2021-09-18 07:42:12 GMT 47.066128 7.188016 21,325 232 378 -2112
2021-09-18 07:42:09 GMT 47.066128 7.188016 21,325 232 378 -2112
2021-09-18 07:42:07 GMT 47.068405 7.192268 21,400 232 378 -2112
2021-09-18 07:42:04 GMT 47.072227 7.199214 21,525 232 379 -2176
2021-09-18 07:42:00 GMT 47.076370 7.206894 21,675 232 379 -2176
2021-09-18 07:41:57 GMT 47.079628 7.212877 21,800 232 379 -2112
2021-09-18 07:41:54 GMT 47.083282 7.219597 21,900 232 379 -2112
2021-09-18 07:41:50 GMT 47.087723 7.227768 22,025 232 380 -2176
2021-09-18 07:41:45 GMT 47.092339 7.236258 22,300 232 382 -2176
2021-09-18 07:41:42 GMT 47.096054 7.243149 22,375 232 382 -2176
2021-09-18 07:41:39 GMT 47.103695 7.257174 22,525 232 383 -2176
2021-09-18 07:41:35 GMT 47.103695 7.257174 22,550 232 384 -2176
2021-09-18 07:41:32 GMT 47.106861 7.263019 22,675 232 384 -2240
2021-09-18 07:41:28 GMT 47.110657 7.269928 22,875 232 386 -2240
2021-09-18 07:41:25 GMT 47.114449 7.276963 22,975 232 389 -2240
2021-09-18 07:41:22 GMT 47.119385 7.286048 23,075 232 389 -2240
2021-09-18 07:41:18 GMT 47.123108 7.292931 23,200 232 392 -2240
2021-09-18 07:41:15 GMT 47.125946 7.298149 23,300 232 393 -2240
2021-09-18 07:41:12 GMT 47.129425 7.304604 23,400 232 394 -2304
2021-09-18 07:41:09 GMT 47.132721 7.310715 23,675 232 397 -2240
2021-09-18 07:41:06 GMT 47.140869 7.325615 23,700 232 398 -2304
2021-09-18 07:41:03 GMT 47.144211 7.331795 23,825 232 399 -2304
2021-09-18 07:40:59 GMT 47.144211 7.331795 23,925 232 399 -1984
2021-09-18 07:40:57 GMT 47.147175 7.337318 23,975 232 399 -1856
2021-09-18 07:40:54 GMT 47.149612 7.341820 24,100 232 400 -1792
2021-09-18 07:40:51 GMT 47.153133 7.348375 24,225 232 400 -1792
2021-09-18 07:40:47 GMT 47.157990 7.357269 24,250 232 400 -1792
2021-09-18 07:40:44 GMT 47.161560 7.363861 24,450 232 400 -1792
2021-09-18 07:40:41 GMT 47.166031 7.372178 24,475 232 401 -1792
2021-09-18 07:40:38 GMT 47.168308 7.376474 24,525 232 401 -1792
2021-09-18 07:40:35 GMT 47.171570 7.382390 24,625 232 402 -1792
2021-09-18 07:40:32 GMT 47.174561 7.387962 24,700 232 402 -1792
2021-09-18 07:40:29 GMT 47.178726 7.395653 24,800 232 403 -1792
2021-09-18 07:40:27 GMT 47.181252 7.400348 24,875 232 403 -1792
2021-09-18 07:40:24 GMT 47.184044 7.405560 25,000 232 405 -1856
2021-09-18 07:40:21 GMT 47.188232 7.413236 25,050 232 405 -1792
2021-09-18 07:40:18 GMT 47.191635 7.419548 25,100 232 405 -1792
2021-09-18 07:40:15 GMT 47.195683 7.427040 25,275 232 408 -1792
2021-09-18 07:40:12 GMT 47.199097 7.433418 25,350 232 407 -1792
2021-09-18 07:40:09 GMT 47.202667 7.439927 25,450 232 409 -1792
2021-09-18 07:40:05 GMT 47.207657 7.449211 25,575 232 412 -1856
2021-09-18 07:40:02 GMT 47.210255 7.454012 25,675 232 412 -1856
2021-09-18 07:39:59 GMT 47.214489 7.461830 25,700 232 412 -1856
2021-09-18 07:39:56 GMT 47.216724 7.466055 25,825 232 413 -1856
2021-09-18 07:39:53 GMT 47.220886 7.473724 25,900 232 413 -1856
2021-09-18 07:39:50 GMT 47.223942 7.479436 26,000 232 414 -1856
2021-09-18 07:39:47 GMT 47.229198 7.489155 26,250 232 416 -1856
2021-09-18 07:39:44 GMT 47.231781 7.493980 26,225 232 416 -1856
2021-09-18 07:39:41 GMT 47.235123 7.500229 26,350 232 417 -1856
2021-09-18 07:39:38 GMT 47.239426 7.508194 26,350 232 417 -1856
2021-09-18 07:39:32 GMT 47.246109 7.520622 26,550 232 417 -1536
2021-09-18 07:39:29 GMT 47.249638 7.527114 26,625 232 417 -1472
2021-09-18 07:39:26 GMT 47.253799 7.534836 26,675 232 417 -1472
2021-09-18 07:39:23 GMT 47.256180 7.539299 26,775 232 418 -1472
2021-09-18 07:39:20 GMT 47.259785 7.545988 26,825 232 418 -1472
2021-09-18 07:39:17 GMT 47.264328 7.554474 26,900 232 419 -1472
2021-09-18 07:39:14 GMT 47.271748 7.568383 27,000 232 420 -1536
2021-09-18 07:39:11 GMT 47.271748 7.568383 27,075 232 420 -1536
2021-09-18 07:39:08 GMT 47.274719 7.574043 27,100 232 420 -1472
2021-09-18 07:39:06 GMT 47.277012 7.578313 27,200 232 421 -1472
2021-09-18 07:39:03 GMT 47.280212 7.584137 27,275 231 422 -1536
2021-09-18 07:39:00 GMT 47.284653 7.592171 27,325 231 422 -1472
2021-09-18 07:38:57 GMT 47.287762 7.597680 27,425 230 422 -1472
2021-09-18 07:38:54 GMT 47.291904 7.604863 27,500 230 422 -1536
2021-09-18 07:38:51 GMT 47.295776 7.611397 27,575 229 423 -1472
2021-09-18 07:38:48 GMT 47.303558 7.624168 28,550 223 425 -1728
2021-09-18 07:38:45 GMT 47.303558 7.624168 27,750 227 423 -1536
2021-09-18 07:38:41 GMT 47.307816 7.630966 27,825 227 423 -1536
2021-09-18 07:38:38 GMT 47.313507 7.639724 27,875 226 424 -1536
2021-09-18 07:38:36 GMT 47.315697 7.643034 28,100 224 425 -1664
2021-09-18 07:38:33 GMT 47.319809 7.649231 28,025 225 425 -1664
2021-09-18 07:38:30 GMT 47.324585 7.656062 28,100 224 425 -1664
2021-09-18 07:38:27 GMT 47.327591 7.660355 28,275 223 426 -1792
2021-09-18 07:38:25 GMT 47.331116 7.665298 28,275 223 426 -1792
2021-09-18 07:38:22 GMT 47.335434 7.671204 28,325 223 427 -1920
2021-09-18 07:38:19 GMT 47.338924 7.675922 28,900 223 427 -1856
2021-09-18 07:38:16 GMT 47.344986 7.684181 28,525 223 428 -1920
2021-09-18 07:38:13 GMT 47.348793 7.689373 29,150 223 438 -2304
2021-09-18 07:38:10 GMT 47.354324 7.696884 28,700 223 430 -1920
2021-09-18 07:38:07 GMT 47.357803 7.701622 28,775 223 430 -1920
2021-09-18 07:38:04 GMT 47.362202 7.707543 28,950 223 431 -1920
2021-09-18 07:38:01 GMT 47.366592 7.713570 28,975 223 431 -1920
2021-09-18 07:37:57 GMT 47.371510 7.720220 29,075 223 433 -1984
2021-09-18 07:37:55 GMT 47.374489 7.724304 29,275 223 434 -2112
2021-09-18 07:37:52 GMT 47.379192 7.730642 29,300 223 435 -2240
2021-09-18 07:37:49 GMT 47.383846 7.737051 29,425 223 437 -2240
2021-09-18 07:37:46 GMT 47.389572 7.744812 29,425 223 437 -2240
2021-09-18 07:37:43 GMT 47.392456 7.748726 30,150 223 444 -2304
2021-09-18 07:37:39 GMT 47.398788 7.757404 29,750 223 440 -2304
2021-09-18 07:37:36 GMT 47.404701 7.765433 29,875 223 441 -2304
2021-09-18 07:37:33 GMT 47.407471 7.769188 30,000 223 442 -2304
2021-09-18 07:37:30 GMT 47.412010 7.775362 30,125 223 443 -2304
2021-09-18 07:37:27 GMT 47.416489 7.781479 30,275 223 444 -2304
2021-09-18 07:37:25 GMT 47.419418 7.785461 30,375 223 444 -2304
2021-09-18 07:37:22 GMT 47.425186 7.793321 30,825 223 444 -2304
2021-09-18 07:37:19 GMT 47.429718 7.799538 30,525 223 444 -2304
2021-09-18 07:37:16 GMT 47.433098 7.804166 30,625 223 444 -2304
2021-09-18 07:37:13 GMT 47.439152 7.812406 30,800 223 444 -2304
2021-09-18 07:37:10 GMT 47.441895 7.816154 31,050 223 444 -2304
2021-09-18 07:37:07 GMT 47.447342 7.823570 30,975 223 444 -2304
2021-09-18 07:37:03 GMT 47.452744 7.830986 31,125 223 444 -2304
2021-09-18 07:37:00 GMT 47.457458 7.837372 31,250 223 444 -2240
2021-09-18 07:36:57 GMT 47.462101 7.843745 31,325 223 444 -2240
2021-09-18 07:36:55 GMT 47.466614 7.849937 31,450 223 444 -2240
2021-09-18 07:36:52 GMT 47.470387 7.855084 31,550 223 443 -2304
2021-09-18 07:36:49 GMT 47.474899 7.861198 31,650 223 442 -2368
2021-09-18 07:36:46 GMT 47.477741 7.865155 31,725 223 442 -2304
2021-09-18 07:36:44 GMT 47.481033 7.869644 31,875 223 441 -2240
2021-09-18 07:36:41 GMT 47.484695 7.874657 31,900 223 440 -2240
2021-09-18 07:36:39 GMT 47.487984 7.879099 32,000 223 440 -2240
2021-09-18 07:36:36 GMT 47.493530 7.886742 32,125 223 439 -2240
2021-09-18 07:36:34 GMT 47.496319 7.890508 32,250 223 438 -2240
2021-09-18 07:36:31 GMT 47.501671 7.897832 32,425 223 437 -2240
2021-09-18 07:36:28 GMT 47.505981 7.903770 32,525 223 438 -2240
2021-09-18 07:36:24 GMT 47.511120 7.910790 32,600 223 436 -2240
2021-09-18 07:36:20 GMT 47.517078 7.918959 32,750 223 436 -2240
2021-09-18 07:36:18 GMT 47.519966 7.922903 32,925 223 436 -2240
2021-09-18 07:36:15 GMT 47.524670 7.929312 33,000 223 435 -2240
2021-09-18 07:36:12 GMT 47.529739 7.936317 33,050 223 435 -2112
2021-09-18 07:36:09 GMT 47.538483 7.948265 33,550 223 434 -2112
2021-09-18 07:36:06 GMT 47.538483 7.948265 33,250 223 433 -2112
2021-09-18 07:36:02 GMT 47.543568 7.955299 33,500 223 432 -2112
2021-09-18 07:35:59 GMT 47.549149 7.962891 33,550 223 431 -2112
2021-09-18 07:35:56 GMT 47.552078 7.966942 33,600 223 430 -2112
2021-09-18 07:35:54 GMT 47.556507 7.972976 33,850 223 430 -2112
2021-09-18 07:35:51 GMT 47.559677 7.977379 33,775 223 429 -2112
2021-09-18 07:35:49 GMT 47.562607 7.981361 33,825 223 429 -2112
2021-09-18 07:35:46 GMT 47.568420 7.989326 33,975 223 428 -2112
2021-09-18 07:35:43 GMT 47.571033 7.992906 34,075 223 428 -2112
2021-09-18 07:35:40 GMT 47.575642 7.999315 34,200 223 428 -2176
2021-09-18 07:35:37 GMT 47.583790 8.010442 34,325 223 428 -2048
2021-09-18 07:35:34 GMT 47.583790 8.010442 34,500 223 428 -1856
2021-09-18 07:35:31 GMT 47.588699 8.017204 34,500 223 428 -1728
2021-09-18 07:35:29 GMT 47.595940 8.027203 34,550 223 428 -1600
2021-09-18 07:35:26 GMT 47.595940 8.027203 34,600 223 428 -1600
2021-09-18 07:35:24 GMT 47.599895 8.032626 34,650 224 429 -1600
2021-09-18 07:35:21 GMT 47.602921 8.036781 34,725 223 430 -1472
2021-09-18 07:35:19 GMT 47.604950 8.039589 34,775 223 430 -1472
2021-09-18 07:35:17 GMT 47.609344 8.045584 34,850 223 431 -1344
2021-09-18 07:35:14 GMT 47.612839 8.050443 34,925 223 431 -1024
2021-09-18 07:35:11 GMT 47.622147 8.063261 34,925 224 432 -832
2021-09-18 07:35:08 GMT 47.622147 8.063261 34,975 223 433 -640
2021-09-18 07:35:05 GMT 47.626709 8.069528 35,000 223 434 -320
2021-09-18 07:35:01 GMT 47.632324 8.077286 35,000 224 435 128
2021-09-18 07:34:58 GMT 47.635849 8.082161 35,000 223 434 -64
2021-09-18 07:34:56 GMT 47.640350 8.088332 35,000 224 435 128
2021-09-18 07:34:53 GMT 47.642853 8.091843 35,000 224 435 64
2021-09-18 07:34:50 GMT 47.649490 8.100906 35,000 224 435 -64
2021-09-18 07:34:47 GMT 47.653610 8.106606 35,000 224 435 -64
2021-09-18 07:34:44 GMT 47.657387 8.111854 35,000 224 435 0
2021-09-18 07:34:41 GMT 47.661804 8.117935 35,000 224 435 0
2021-09-18 07:34:39 GMT 47.666092 8.123826 35,000 224 435 64
2021-09-18 07:34:36 GMT 47.668560 8.127277 35,000 224 435 0
2021-09-18 07:34:33 GMT 47.672379 8.132561 35,000 224 435 64
2021-09-18 07:34:29 GMT 47.679428 8.142311 35,000 224 435 -64
2021-09-18 07:34:27 GMT 47.682358 8.146362 35,000 224 435 -64
2021-09-18 07:34:24 GMT 47.686764 8.152489 35,000 224 435 0
2021-09-18 07:34:21 GMT 47.690907 8.158194 35,000 224 435 0
2021-09-18 07:34:18 GMT 47.695312 8.164284 35,000 224 435 0
2021-09-18 07:34:15 GMT 47.699982 8.170807 35,000 224 435 64
2021-09-18 07:34:11 GMT 47.705570 8.178547 35,000 224 435 0
2021-09-18 07:34:08 GMT 47.710876 8.185871 35,000 224 435 -64
2021-09-18 07:34:05 GMT 47.715576 8.192350 35,000 224 435 -64
2021-09-18 07:34:02 GMT 47.719673 8.198054 35,000 224 435 64
2021-09-18 07:33:59 GMT 47.728378 8.210097 35,000 224 436 0
2021-09-18 07:33:56 GMT 47.728378 8.210097 35,000 224 435 -64
2021-09-18 07:33:53 GMT 47.732758 8.216194 35,000 224 435 64
2021-09-18 07:33:50 GMT 47.736420 8.221275 35,000 224 435 64
2021-09-18 07:33:47 GMT 47.742020 8.229041 35,000 224 435 0
2021-09-18 07:33:44 GMT 47.745255 8.233498 35,000 224 435 0
2021-09-18 07:33:41 GMT 47.749653 8.239605 35,000 224 435 0
2021-09-18 07:33:38 GMT 47.758453 8.251859 35,000 224 435 0
2021-09-18 07:33:35 GMT 47.758453 8.251859 35,000 224 435 0
2021-09-18 07:33:33 GMT 47.760498 8.254715 35,000 224 435 0
2021-09-18 07:33:30 GMT 47.767548 8.264465 35,000 224 435 0
2021-09-18 07:33:27 GMT 47.769020 8.266508 35,000 224 434 0
2021-09-18 07:33:25 GMT 47.773407 8.272636 35,000 224 435 0
2021-09-18 07:33:23 GMT 47.776051 8.276297 35,000 224 435 0
2021-09-18 07:33:20 GMT 47.780613 8.282635 35,000 224 435 0
2021-09-18 07:33:18 GMT 47.783386 8.286507 35,000 224 435 0
2021-09-18 07:33:16 GMT 47.791878 8.298340 35,000 224 435 64
2021-09-18 07:33:13 GMT 47.791878 8.298340 35,000 224 435 -64
2021-09-18 07:33:09 GMT 47.796295 8.304428 35,000 224 435 -64
2021-09-18 07:33:07 GMT 47.801010 8.311020 35,000 224 435 0
2021-09-18 07:33:04 GMT 47.803986 8.315071 35,000 224 435 0
2021-09-18 07:33:02 GMT 47.811584 8.325714 35,000 224 435 64
2021-09-18 07:32:59 GMT 47.811584 8.325714 35,000 224 435 64
2021-09-18 07:32:56 GMT 47.820969 8.338760 35,000 224 435 0
2021-09-18 07:32:53 GMT 47.820969 8.338760 35,000 224 435 0
2021-09-18 07:32:50 GMT 47.824402 8.343567 35,000 224 435 -64
2021-09-18 07:32:47 GMT 47.828884 8.349891 35,000 224 435 0
2021-09-18 07:32:44 GMT 47.832733 8.355171 35,000 224 436 0
2021-09-18 07:32:42 GMT 47.841385 8.367325 35,000 224 435 0
2021-09-18 07:32:39 GMT 47.841385 8.367325 35,000 224 435 0
2021-09-18 07:32:36 GMT 47.845879 8.373554 35,000 224 435 0
2021-09-18 07:32:33 GMT 47.849461 8.378554 35,000 224 435 64
2021-09-18 07:32:30 GMT 47.853836 8.384697 35,000 224 435 64
2021-09-18 07:32:27 GMT 47.857910 8.390327 35,000 224 435 64
2021-09-18 07:32:24 GMT 47.861752 8.395738 35,000 224 435 0
2021-09-18 07:32:22 GMT 47.869946 8.407217 35,000 224 435 -64
2021-09-18 07:32:19 GMT 47.874344 8.413330 35,000 224 435 0
2021-09-18 07:32:16 GMT 47.874344 8.413330 35,000 224 435 0
2021-09-18 07:32:13 GMT 47.878742 8.419471 35,000 224 435 0
2021-09-18 07:32:10 GMT 47.882538 8.424797 35,000 224 435 64
2021-09-18 07:32:07 GMT 47.888706 8.433345 35,000 224 435 64
2021-09-18 07:32:04 GMT 47.893661 8.440315 35,000 224 434 64
2021-09-18 07:32:01 GMT 47.901463 8.451233 35,000 224 434 0
2021-09-18 07:31:58 GMT 47.901463 8.451233 35,000 224 434 0
2021-09-18 07:31:55 GMT 47.905045 8.456233 35,000 224 433 0
2021-09-18 07:31:52 GMT 47.909454 8.462357 35,000 224 434 0
2021-09-18 07:31:49 GMT 47.916412 8.472176 35,000 224 433 -64
2021-09-18 07:31:47 GMT 47.916412 8.472176 35,000 224 434 64
2021-09-18 07:31:45 GMT 47.921127 8.478767 35,000 224 434 0
2021-09-18 07:31:42 GMT 47.925529 8.484896 35,000 224 434 0
2021-09-18 07:31:39 GMT 47.928085 8.488518 35,000 224 434 0
2021-09-18 07:31:36 GMT 47.933117 8.495530 35,000 224 434 64
2021-09-18 07:31:33 GMT 47.937771 8.502080 35,000 224 437 -64
2021-09-18 07:31:30 GMT 47.940399 8.505753 35,000 224 434 -64
2021-09-18 07:31:27 GMT 47.946987 8.515038 35,000 224 437 -64
2021-09-18 07:31:24 GMT 47.950619 8.520109 35,000 224 434 64
2021-09-18 07:31:21 GMT 47.954910 8.526146 35,000 224 434 -64
2021-09-18 07:31:18 GMT 47.958939 8.531776 35,000 224 434 0
2021-09-18 07:31:15 GMT 47.967472 8.543772 35,000 224 434 0
2021-09-18 07:31:12 GMT 47.967472 8.543772 35,000 224 434 0
2021-09-18 07:31:09 GMT 47.972488 8.550797 35,000 224 434 0
2021-09-18 07:31:06 GMT 47.976784 8.556800 35,000 224 435 -64
2021-09-18 07:31:03 GMT 47.986931 8.571026 35,000 224 435 0
2021-09-18 07:30:59 GMT 47.986931 8.571026 35,000 224 435 64
2021-09-18 07:30:57 GMT 47.989864 8.575181 35,000 224 435 64
2021-09-18 07:30:55 GMT 47.997452 8.585886 35,000 224 437 0
2021-09-18 07:30:52 GMT 47.997452 8.585886 35,000 224 436 64
2021-09-18 07:30:49 GMT 48.001457 8.591520 35,000 224 437 0
2021-09-18 07:30:47 GMT 48.004528 8.595816 35,000 224 437 -64
2021-09-18 07:30:45 GMT 48.007462 8.599971 35,000 224 437 0
2021-09-18 07:30:42 GMT 48.016258 8.612366 35,000 224 437 -64
2021-09-18 07:30:39 GMT 48.016258 8.612366 35,000 224 437 -128
2021-09-18 07:30:36 GMT 48.020645 8.618568 35,000 224 437 -64
2021-09-18 07:30:33 GMT 48.025059 8.624761 35,000 224 437 -64
2021-09-18 07:30:30 GMT 48.030075 8.631821 35,000 224 437 128
2021-09-18 07:30:27 GMT 48.034195 8.637589 35,000 224 437 64
2021-09-18 07:30:24 GMT 48.037952 8.642930 35,000 224 437 -64
2021-09-18 07:30:21 GMT 48.043579 8.650909 35,000 224 437 -64
2021-09-18 07:30:18 GMT 48.048008 8.657086 35,000 224 439 -64
2021-09-18 07:30:15 GMT 48.051773 8.662445 35,000 224 437 64
2021-09-18 07:30:12 GMT 48.056248 8.668706 35,000 224 437 0
2021-09-18 07:30:08 GMT 48.062115 8.677016 35,000 224 437 0
2021-09-18 07:30:05 GMT 48.067978 8.685326 35,000 224 437 64
2021-09-18 07:30:02 GMT 48.069992 8.688194 35,000 224 437 0
2021-09-18 07:29:59 GMT 48.075008 8.695327 35,000 224 438 -64
2021-09-18 07:29:56 GMT 48.080612 8.703163 35,000 224 438 -128
2021-09-18 07:29:53 GMT 48.087662 8.713188 35,000 224 439 -64
2021-09-18 07:29:51 GMT 48.087662 8.713188 35,000 224 439 0
2021-09-18 07:29:48 GMT 48.091393 8.718426 35,000 224 439 64
2021-09-18 07:29:45 GMT 48.095631 8.724412 35,000 224 439 -64
2021-09-18 07:29:42 GMT 48.099426 8.729805 35,000 224 439 64
2021-09-18 07:29:39 GMT 48.105331 8.738182 35,000 224 439 0
2021-09-18 07:29:36 GMT 48.110249 8.745188 35,000 224 439 64
2021-09-18 07:29:33 GMT 48.113274 8.749413 35,000 224 439 64
2021-09-18 07:29:30 GMT 48.117691 8.755692 35,000 224 439 64
2021-09-18 07:29:27 GMT 48.122723 8.762864 35,000 224 439 0
2021-09-18 07:29:24 GMT 48.126572 8.768257 35,000 224 439 0
2021-09-18 07:29:21 GMT 48.130405 8.773710 35,000 224 439 -64
2021-09-18 07:29:18 GMT 48.136272 8.782020 35,000 224 439 -64
2021-09-18 07:29:15 GMT 48.140415 8.787936 35,000 224 439 -64
2021-09-18 07:29:12 GMT 48.144241 8.793320 35,000 224 439 64
2021-09-18 07:29:09 GMT 48.149258 8.800471 35,000 224 439 64
2021-09-18 07:29:06 GMT 48.153400 8.806317 35,000 224 439 64
2021-09-18 07:29:04 GMT 48.156334 8.810472 35,000 224 439 0
2021-09-18 07:29:01 GMT 48.160172 8.815910 35,000 224 439 -64
2021-09-18 07:28:58 GMT 48.165691 8.823828 35,000 224 439 0
2021-09-18 07:28:55 GMT 48.168671 8.828021 35,000 224 439 -64
2021-09-18 07:28:52 GMT 48.173676 8.835121 35,000 224 439 0
2021-09-18 07:28:49 GMT 48.178680 8.842259 35,000 224 439 64
2021-09-18 07:28:46 GMT 48.183105 8.848501 35,000 224 439 0
2021-09-18 07:28:44 GMT 48.186630 8.853572 35,000 224 439 -64
2021-09-18 07:28:41 GMT 48.190456 8.859028 35,000 224 440 -128
2021-09-18 07:28:38 GMT 48.194553 8.864810 35,000 224 439 64
2021-09-18 07:28:35 GMT 48.197578 8.869075 35,000 224 439 128
2021-09-18 07:28:33 GMT 48.202328 8.875797 35,000 224 440 -64
2021-09-18 07:28:30 GMT 48.205261 8.879989 35,000 224 440 -64
2021-09-18 07:28:27 GMT 48.210251 8.887165 35,000 224 439 0
2021-09-18 07:28:24 GMT 48.214108 8.892638 35,000 224 439 64
2021-09-18 07:28:21 GMT 48.219086 8.899700 35,000 224 439 0
2021-09-18 07:28:18 GMT 48.223709 8.906320 35,000 224 439 0
2021-09-18 07:28:15 GMT 48.227737 8.912095 35,000 224 437 0
2021-09-18 07:28:13 GMT 48.230713 8.916321 35,000 224 437 0
2021-09-18 07:28:10 GMT 48.235798 8.923573 35,000 224 437 64
2021-09-18 07:28:07 GMT 48.239456 8.928786 35,000 224 436 64
2021-09-18 07:28:04 GMT 48.244553 8.936077 35,000 224 436 64
2021-09-18 07:28:01 GMT 48.248932 8.942308 35,000 224 435 64
2021-09-18 07:27:58 GMT 48.252747 8.947714 35,000 224 435 0
2021-09-18 07:27:55 GMT 48.257259 8.954219 35,000 224 435 -64
2021-09-18 07:27:53 GMT 48.260010 8.958153 35,000 224 435 -192
2021-09-18 07:27:50 GMT 48.264801 8.964988 35,000 224 435 -320
2021-09-18 07:27:47 GMT 48.267876 8.969325 35,075 224 435 -576
2021-09-18 07:27:44 GMT 48.273552 8.977492 35,025 224 435 -704
2021-09-18 07:27:41 GMT 48.277744 8.983492 35,075 224 435 -1024
2021-09-18 07:27:37 GMT 48.285049 8.993859 35,175 224 435 -1024
2021-09-18 07:27:34 GMT 48.287338 8.997169 35,200 224 435 -1024
2021-09-18 07:27:32 GMT 48.290863 9.002169 35,350 224 435 -1088
2021-09-18 07:27:29 GMT 48.294891 9.008014 35,325 224 435 -1024
2021-09-18 07:27:26 GMT 48.298691 9.013415 35,375 224 434 -960
2021-09-18 07:27:23 GMT 48.303635 9.020480 35,450 224 434 -960
2021-09-18 07:27:20 GMT 48.308002 9.026714 35,475 224 434 -960
2021-09-18 07:27:17 GMT 48.312054 9.032496 35,625 224 432 -1024
2021-09-18 07:27:14 GMT 48.318146 9.041185 35,550 224 434 -1024
2021-09-18 07:27:11 GMT 48.322479 9.047458 35,600 224 433 -1024
2021-09-18 07:27:08 GMT 48.325367 9.051578 35,675 224 432 -960
2021-09-18 07:27:05 GMT 48.330582 9.059023 35,700 224 432 -960
2021-09-18 07:27:02 GMT 48.334026 9.064010 35,850 224 432 -1088
2021-09-18 07:26:59 GMT 48.339191 9.071454 35,850 224 432 -1024
2021-09-18 07:26:56 GMT 48.347710 9.083670 35,900 224 431 -960
2021-09-18 07:26:53 GMT 48.347710 9.083670 35,925 224 431 -1024
2021-09-18 07:26:50 GMT 48.351295 9.088874 35,975 224 430 -1408
2021-09-18 07:26:47 GMT 48.354786 9.093789 36,025 224 431 -1024
2021-09-18 07:26:44 GMT 48.360512 9.102028 36,075 224 430 -1024
2021-09-18 07:26:40 GMT 48.365433 9.109075 36,125 224 430 -1024
2021-09-18 07:26:37 GMT 48.370010 9.115694 36,200 224 430 -1216
2021-09-18 07:26:34 GMT 48.374496 9.122103 36,300 224 431 -1472
2021-09-18 07:26:30 GMT 48.380066 9.130145 36,375 224 432 -1536
2021-09-18 07:26:27 GMT 48.384293 9.136259 36,425 224 432 -1536
2021-09-18 07:26:24 GMT 48.388584 9.142432 36,475 224 432 -1536
2021-09-18 07:26:22 GMT 48.391296 9.146329 36,600 224 432 -1536
2021-09-18 07:26:19 GMT 48.396217 9.153346 36,625 224 432 -1472
2021-09-18 07:26:16 GMT 48.401596 9.161119 36,700 224 433 -1472
2021-09-18 07:26:13 GMT 48.405167 9.166260 36,750 224 433 -1408
2021-09-18 07:26:10 GMT 48.409195 9.172035 36,875 224 433 -1152
2021-09-18 07:26:07 GMT 48.417892 9.184500 37,000 224 428 -64
2021-09-18 07:26:04 GMT 48.417892 9.184500 36,925 224 432 -1024
2021-09-18 07:26:02 GMT 48.420776 9.188655 36,975 224 431 -576
2021-09-18 07:25:59 GMT 48.425079 9.194906 37,000 224 436 -960
2021-09-18 07:25:56 GMT 48.430805 9.203218 37,000 224 430 -64
2021-09-18 07:25:53 GMT 48.433132 9.206543 37,000 224 430 -128
2021-09-18 07:25:50 GMT 48.438812 9.214783 37,000 224 427 64
2021-09-18 07:25:47 GMT 48.443024 9.220839 37,000 224 428 -64
2021-09-18 07:25:44 GMT 48.447285 9.226998 37,000 224 425 -192
2021-09-18 07:25:41 GMT 48.450779 9.232057 37,000 224 427 64
2021-09-18 07:25:39 GMT 48.452820 9.234995 37,000 224 425 0
2021-09-18 07:25:36 GMT 48.458496 9.243164 37,000 224 425 -128
2021-09-18 07:25:33 GMT 48.463623 9.250559 37,000 224 425 -192
2021-09-18 07:25:30 GMT 48.466324 9.254503 37,125 224 427 -832
2021-09-18 07:25:27 GMT 48.470444 9.260418 37,100 224 431 -1088
2021-09-18 07:25:24 GMT 48.474930 9.266897 37,100 224 428 -1024
2021-09-18 07:25:22 GMT 48.482155 9.277376 37,150 224 430 -1088
2021-09-18 07:25:19 GMT 48.482155 9.277376 37,200 224 432 -1024
2021-09-18 07:25:16 GMT 48.485600 9.282363 37,250 224 434 -1024
2021-09-18 07:25:13 GMT 48.490673 9.289663 37,275 224 434 -1024
2021-09-18 07:25:10 GMT 48.494816 9.295735 37,325 224 434 -1024
2021-09-18 07:25:07 GMT 48.499741 9.302814 37,425 224 434 -960
2021-09-18 07:25:04 GMT 48.507843 9.314575 37,450 224 435 -1024
2021-09-18 07:25:01 GMT 48.507843 9.314575 37,500 224 435 -960
2021-09-18 07:24:58 GMT 48.512512 9.321266 37,575 224 435 -768
2021-09-18 07:24:55 GMT 48.517998 9.329272 37,600 224 435 -1024
2021-09-18 07:24:52 GMT 48.520790 9.333319 37,650 224 435 -960
2021-09-18 07:24:49 GMT 48.526337 9.341337 37,775 224 435 -960
2021-09-18 07:24:45 GMT 48.531918 9.349438 37,750 224 436 -1024
2021-09-18 07:24:42 GMT 48.540016 9.361219 37,800 224 436 -960
2021-09-18 07:24:39 GMT 48.540016 9.361219 37,875 224 435 -768
2021-09-18 07:24:36 GMT 48.544235 9.367324 37,900 224 435 -704
2021-09-18 07:24:33 GMT 48.548023 9.372783 37,925 224 434 -640
2021-09-18 07:24:30 GMT 48.552475 9.379226 37,950 224 434 -448
2021-09-18 07:24:27 GMT 48.558289 9.387677 38,000 224 434 -384
2021-09-18 07:24:24 GMT 48.561432 9.392299 38,000 224 434 -256
2021-09-18 07:24:21 GMT 48.570419 9.405283 38,000 224 434 -64
2021-09-18 07:24:18 GMT 48.570419 9.405283 38,000 224 434 -64
2021-09-18 07:24:15 GMT 48.573853 9.410283 38,000 224 434 -64
2021-09-18 07:24:12 GMT 48.580471 9.419981 38,000 224 434 0
2021-09-18 07:24:09 GMT 48.583263 9.423957 38,000 224 434 0
2021-09-18 07:24:06 GMT 48.591972 9.436678 38,000 225 435 0
2021-09-18 07:24:03 GMT 48.591972 9.436678 38,000 224 434 -64
2021-09-18 07:24:01 GMT 48.594902 9.440942 38,000 224 434 -64
2021-09-18 07:23:58 GMT 48.603287 9.453172 38,000 224 434 0
2021-09-18 07:23:55 GMT 48.603287 9.453172 38,000 224 434 64
2021-09-18 07:23:52 GMT 48.608505 9.460707 38,000 225 435 64
2021-09-18 07:23:49 GMT 48.613430 9.467902 38,000 225 435 -64
2021-09-18 07:23:46 GMT 48.616875 9.472961 38,000 225 435 -64
2021-09-18 07:23:43 GMT 48.621185 9.479159 38,000 225 435 0
2021-09-18 07:23:41 GMT 48.624115 9.483525 38,000 224 436 64
2021-09-18 07:23:38 GMT 48.628098 9.489300 38,000 225 437 0
2021-09-18 07:23:35 GMT 48.633408 9.497047 38,000 225 437 0
2021-09-18 07:23:32 GMT 48.636520 9.501584 38,000 225 437 -64
2021-09-18 07:23:29 GMT 48.642700 9.510568 38,000 224 437 0
2021-09-18 07:23:26 GMT 48.645584 9.514794 38,000 224 437 64
2021-09-18 07:23:23 GMT 48.650532 9.522039 38,000 224 437 64
2021-09-18 07:23:20 GMT 48.655190 9.528833 38,000 224 437 -64
2021-09-18 07:23:17 GMT 48.658634 9.533820 38,000 225 437 -64
2021-09-18 07:23:14 GMT 48.662125 9.538952 38,000 225 437 -64
2021-09-18 07:23:11 GMT 48.667339 9.546613 38,000 225 435 64
2021-09-18 07:23:08 GMT 48.672554 9.554202 38,000 225 434 0
2021-09-18 07:23:05 GMT 48.675949 9.559190 38,000 225 434 64
2021-09-18 07:23:02 GMT 48.679489 9.564394 38,000 225 434 64
2021-09-18 07:23:00 GMT 48.683807 9.570712 38,000 225 434 -64
2021-09-18 07:22:57 GMT 48.688053 9.576898 38,000 225 433 0
2021-09-18 07:22:54 GMT 48.692459 9.583318 38,000 225 433 0
2021-09-18 07:22:51 GMT 48.695892 9.588388 38,000 225 432 0
2021-09-18 07:22:48 GMT 48.700974 9.595783 38,000 225 432 0
2021-09-18 07:22:45 GMT 48.705093 9.601840 38,000 225 429 -64
2021-09-18 07:22:42 GMT 48.708527 9.606840 38,000 225 430 0
2021-09-18 07:22:40 GMT 48.711365 9.611065 38,000 225 430 0
2021-09-18 07:22:37 GMT 48.715569 9.617229 38,000 225 429 -64
2021-09-18 07:22:34 GMT 48.725903 9.632335 38,000 225 429 -64
2021-09-18 07:22:31 GMT 48.725903 9.632335 38,000 225 429 64
2021-09-18 07:22:28 GMT 48.728649 9.636383 38,000 225 429 64
2021-09-18 07:22:25 GMT 48.732971 9.642757 38,000 225 429 0
2021-09-18 07:22:22 GMT 48.737213 9.648960 38,000 225 429 -64
2021-09-18 07:22:20 GMT 48.739838 9.652898 38,000 225 429 -64
2021-09-18 07:22:18 GMT 48.743546 9.658283 38,000 225 429 0
2021-09-18 07:22:15 GMT 48.748108 9.664933 38,000 225 429 64
2021-09-18 07:22:12 GMT 48.751507 9.669993 38,000 225 429 64
2021-09-18 07:22:10 GMT 48.758301 9.679967 38,000 225 429 64
2021-09-18 07:22:07 GMT 48.758301 9.679967 38,000 225 429 0
2021-09-18 07:22:04 GMT 48.762863 9.686617 38,000 225 429 -64
2021-09-18 07:22:01 GMT 48.767120 9.692899 38,000 225 429 -64
2021-09-18 07:21:58 GMT 48.772797 9.701280 38,000 225 429 -64
2021-09-18 07:21:55 GMT 48.776505 9.706710 38,000 225 429 0
2021-09-18 07:21:52 GMT 48.779903 9.711697 38,000 225 429 64
2021-09-18 07:21:50 GMT 48.782742 9.715889 38,000 225 429 64
2021-09-18 07:21:47 GMT 48.786438 9.721351 38,000 225 429 0
2021-09-18 07:21:44 GMT 48.791611 9.728887 38,000 225 429 0
2021-09-18 07:21:41 GMT 48.797287 9.737267 38,000 225 429 -64
2021-09-18 07:21:38 GMT 48.800674 9.742338 38,000 225 429 0
2021-09-18 07:21:35 GMT 48.804108 9.747338 38,000 225 429 64
2021-09-18 07:21:32 GMT 48.808392 9.753619 38,000 225 429 0
2021-09-18 07:21:29 GMT 48.812576 9.759803 38,000 225 429 -64
2021-09-18 07:21:27 GMT 48.815506 9.764099 38,000 225 429 -64
2021-09-18 07:21:24 GMT 48.823708 9.776242 38,000 225 429 64
2021-09-18 07:21:21 GMT 48.823708 9.776242 38,000 225 429 64
2021-09-18 07:21:18 GMT 48.829147 9.784241 38,000 225 429 -64
2021-09-18 07:21:15 GMT 48.831985 9.788466 38,000 225 429 -64
2021-09-18 07:21:12 GMT 48.842422 9.803780 38,000 225 429 0
2021-09-18 07:21:09 GMT 48.842422 9.803780 38,000 225 428 0
2021-09-18 07:21:06 GMT 48.845356 9.808189 38,000 225 429 64
2021-09-18 07:21:03 GMT 48.854992 9.822428 38,000 225 429 -64
2021-09-18 07:21:00 GMT 48.854992 9.822428 38,000 225 429 -64
2021-09-18 07:20:57 GMT 48.858032 9.826918 38,000 225 429 -128
2021-09-18 07:20:54 GMT 48.861511 9.832059 38,000 225 428 -64
2021-09-18 07:20:51 GMT 48.869144 9.843389 38,000 225 428 0
2021-09-18 07:20:49 GMT 48.869144 9.843389 38,000 225 428 0
2021-09-18 07:20:46 GMT 48.874821 9.851773 38,000 225 427 64
2021-09-18 07:20:43 GMT 48.877945 9.856356 38,000 225 427 128
2021-09-18 07:20:40 GMT 48.881618 9.861820 38,000 225 427 64
2021-09-18 07:20:37 GMT 48.886368 9.868821 38,000 225 427 -128
2021-09-18 07:20:34 GMT 48.890045 9.874324 38,000 225 427 -128
2021-09-18 07:20:31 GMT 48.894882 9.881427 38,000 225 427 -64
2021-09-18 07:20:28 GMT 48.903545 9.894273 38,000 225 428 64
2021-09-18 07:20:25 GMT 48.903545 9.894273 38,000 225 429 128
2021-09-18 07:20:21 GMT 48.909924 9.903741 38,000 225 429 64
2021-09-18 07:20:17 GMT 48.915554 9.912125 38,000 225 428 0
2021-09-18 07:20:14 GMT 48.918953 9.917113 38,000 225 429 0
2021-09-18 07:20:11 GMT 48.923080 9.923260 38,000 225 429 0
2021-09-18 07:20:09 GMT 48.925751 9.927232 38,000 225 428 64
2021-09-18 07:20:06 GMT 48.929993 9.933542 38,000 225 428 64
2021-09-18 07:20:03 GMT 48.935944 9.942338 38,000 225 428 64
2021-09-18 07:20:00 GMT 48.938370 9.946007 38,000 225 428 -64
2021-09-18 07:19:57 GMT 48.944138 9.954529 38,000 225 427 64
2021-09-18 07:19:54 GMT 48.947163 9.959034 38,000 225 427 128
2021-09-18 07:19:51 GMT 48.951370 9.965304 38,000 225 427 64
2021-09-18 07:19:49 GMT 48.953449 9.968358 38,000 225 427 -64
2021-09-18 07:19:46 GMT 48.959930 9.977980 38,000 225 427 -64
2021-09-18 07:19:43 GMT 48.962677 9.982065 38,000 225 427 -64
2021-09-18 07:19:40 GMT 48.966904 9.988379 38,000 225 428 0
2021-09-18 07:19:37 GMT 48.971237 9.994812 38,000 225 428 0
2021-09-18 07:19:34 GMT 48.976913 10.003263 38,000 225 428 0
2021-09-18 07:19:31 GMT 48.980301 10.008334 38,000 225 428 64
2021-09-18 07:19:28 GMT 48.983940 10.013749 38,000 225 429 0
2021-09-18 07:19:25 GMT 48.993576 10.028132 38,000 225 429 0
2021-09-18 07:19:22 GMT 48.993576 10.028132 38,000 225 429 -64
2021-09-18 07:19:19 GMT 48.996597 10.032630 38,000 225 429 -64
2021-09-18 07:19:16 GMT 49.000980 10.039119 38,000 225 429 0
2021-09-18 07:19:13 GMT 49.005753 10.046293 38,000 225 429 -64
2021-09-18 07:19:10 GMT 49.008755 10.050756 38,000 225 429 -64
2021-09-18 07:19:08 GMT 49.016464 10.062209 38,000 225 429 64
2021-09-18 07:19:05 GMT 49.016464 10.062209 38,000 225 429 64
2021-09-18 07:19:02 GMT 49.020809 10.068681 38,000 225 429 64
2021-09-18 07:18:59 GMT 49.025326 10.075403 38,000 225 429 64
2021-09-18 07:18:55 GMT 49.031517 10.084726 38,000 225 429 0
2021-09-18 07:18:52 GMT 49.035473 10.090653 38,000 225 429 -64
2021-09-18 07:18:49 GMT 49.038872 10.095713 38,000 225 428 -64
2021-09-18 07:18:46 GMT 49.044506 10.104097 38,000 225 428 64
2021-09-18 07:18:43 GMT 49.047344 10.108361 38,000 225 428 64
2021-09-18 07:18:40 GMT 49.054096 10.118480 38,000 225 429 -64
2021-09-18 07:18:35 GMT 49.059216 10.126070 38,000 225 429 -64
2021-09-18 07:18:32 GMT 49.067963 10.139184 38,000 225 429 -64
2021-09-18 07:18:29 GMT 49.067963 10.139184 38,000 225 429 64
2021-09-18 07:18:26 GMT 49.071350 10.144254 38,000 225 430 0
2021-09-18 07:18:23 GMT 49.076431 10.151860 38,000 225 429 64
2021-09-18 07:18:20 GMT 49.080631 10.158234 38,000 225 429 -64
2021-09-18 07:18:16 GMT 49.085705 10.165823 38,000 225 429 -64
2021-09-18 07:18:13 GMT 49.089386 10.171368 38,000 225 430 0
2021-09-18 07:18:10 GMT 49.094223 10.178544 38,000 225 430 -64
2021-09-18 07:18:08 GMT 49.097015 10.182808 38,000 225 430 0
2021-09-18 07:18:04 GMT 49.103672 10.192783 38,000 225 430 0
2021-09-18 07:18:01 GMT 49.106651 10.197264 38,000 225 430 0
2021-09-18 07:17:58 GMT 49.111076 10.203841 38,000 225 430 -64
2021-09-18 07:17:55 GMT 49.115433 10.210383 38,000 225 431 0
2021-09-18 07:17:52 GMT 49.118866 10.215525 38,000 225 431 0
2021-09-18 07:17:49 GMT 49.125366 10.225308 38,000 225 431 0
2021-09-18 07:17:46 GMT 49.128765 10.230440 38,000 225 431 0
2021-09-18 07:17:43 GMT 49.132462 10.235948 38,000 225 431 64
2021-09-18 07:17:40 GMT 49.136856 10.242568 38,000 225 432 64
2021-09-18 07:17:38 GMT 49.140591 10.248148 38,000 225 432 0
2021-09-18 07:17:35 GMT 49.144547 10.254147 38,000 225 432 -64
2021-09-18 07:17:32 GMT 49.149490 10.261583 38,000 225 432 -64
2021-09-18 07:17:29 GMT 49.152924 10.266724 38,000 225 434 64
2021-09-18 07:17:26 GMT 49.155212 10.270174 38,000 225 433 -64
2021-09-18 07:17:23 GMT 49.161118 10.279011 38,000 225 434 64
2021-09-18 07:17:20 GMT 49.165466 10.285598 38,000 225 434 0
2021-09-18 07:17:17 GMT 49.170242 10.292744 38,000 225 434 64
2021-09-18 07:17:13 GMT 49.175766 10.301091 38,000 225 434 64
2021-09-18 07:17:10 GMT 49.179504 10.306694 38,000 225 434 64
2021-09-18 07:17:08 GMT 49.182346 10.311030 38,000 225 434 -64
2021-09-18 07:17:05 GMT 49.187759 10.319190 38,000 225 434 -128
2021-09-18 07:17:02 GMT 49.190598 10.323486 38,000 225 434 0
2021-09-18 07:16:59 GMT 49.195427 10.330690 38,000 225 434 0
2021-09-18 07:16:56 GMT 49.199478 10.336834 38,000 225 434 64
2021-09-18 07:16:53 GMT 49.203735 10.343276 38,000 225 434 64
2021-09-18 07:16:49 GMT 49.209412 10.351868 38,000 225 434 64
2021-09-18 07:16:46 GMT 49.212296 10.356164 38,000 225 434 64
2021-09-18 07:16:43 GMT 49.217926 10.364755 38,000 225 434 64
2021-09-18 07:16:40 GMT 49.227081 10.378559 38,000 225 434 64
2021-09-18 07:16:37 GMT 49.227081 10.378559 38,000 225 434 -64
2021-09-18 07:16:34 GMT 49.230713 10.384032 38,000 225 434 -64
2021-09-18 07:16:31 GMT 49.235928 10.391910 38,000 225 434 0
2021-09-18 07:16:28 GMT 49.242817 10.402318 38,000 225 434 -128
2021-09-18 07:16:26 GMT 49.242817 10.402318 38,000 225 434 -128
2021-09-18 07:16:22 GMT 49.248779 10.411377 38,000 225 435 128
2021-09-18 07:16:19 GMT 49.251385 10.415256 38,000 225 435 128
2021-09-18 07:16:17 GMT 49.255096 10.420884 38,000 225 436 -128
2021-09-18 07:16:14 GMT 49.263062 10.432997 38,000 225 436 -128
2021-09-18 07:16:11 GMT 49.263062 10.432997 38,000 225 436 -128
2021-09-18 07:16:08 GMT 49.267910 10.440337 38,000 225 436 -128
2021-09-18 07:16:05 GMT 49.272472 10.447203 38,000 225 436 -128
2021-09-18 07:16:01 GMT 49.279129 10.457294 38,000 225 437 64
2021-09-18 07:15:58 GMT 49.282562 10.462576 38,000 225 437 0
2021-09-18 07:15:55 GMT 49.285446 10.466872 38,000 225 437 0
2021-09-18 07:15:52 GMT 49.291466 10.476042 38,000 225 438 64
2021-09-18 07:15:49 GMT 49.295792 10.482577 38,000 225 437 64
2021-09-18 07:15:46 GMT 49.299423 10.488113 38,000 225 438 64
2021-09-18 07:15:42 GMT 49.304947 10.496451 38,000 225 437 64
2021-09-18 07:15:39 GMT 49.313206 10.509001 38,000 225 438 -64
2021-09-18 07:15:37 GMT 49.313206 10.509001 38,000 225 438 -64
2021-09-18 07:15:34 GMT 49.317303 10.515217 38,000 225 438 0
2021-09-18 07:15:31 GMT 49.320374 10.519902 38,000 225 438 0
2021-09-18 07:15:28 GMT 49.326187 10.528705 38,000 225 438 64
2021-09-18 07:15:25 GMT 49.328239 10.531769 38,000 225 438 64
2021-09-18 07:15:22 GMT 49.333920 10.540442 38,000 225 438 0
2021-09-18 07:15:19 GMT 49.338318 10.547157 38,000 225 438 -64
2021-09-18 07:15:16 GMT 49.343697 10.555332 38,000 225 438 -64
2021-09-18 07:15:13 GMT 49.346676 10.559813 38,000 225 438 0
2021-09-18 07:15:10 GMT 49.352692 10.569059 38,000 225 438 64
2021-09-18 07:15:07 GMT 49.355438 10.573214 38,000 225 438 64
2021-09-18 07:15:04 GMT 49.359852 10.579979 38,000 225 438 64
2021-09-18 07:15:01 GMT 49.363449 10.585398 38,000 225 438 -64
2021-09-18 07:14:58 GMT 49.368507 10.593133 38,000 225 438 -64
2021-09-18 07:14:55 GMT 49.372101 10.598638 38,000 225 438 -128
2021-09-18 07:14:52 GMT 49.378006 10.607511 38,000 225 438 -128
2021-09-18 07:14:49 GMT 49.381439 10.612793 38,000 225 438 -64
2021-09-18 07:14:46 GMT 49.385128 10.618358 38,000 225 438 -64
2021-09-18 07:14:43 GMT 49.389999 10.625822 38,000 225 438 -64
2021-09-18 07:14:40 GMT 49.394073 10.632019 38,000 225 438 64
2021-09-18 07:14:37 GMT 49.399841 10.640822 38,000 225 438 64
2021-09-18 07:14:34 GMT 49.404121 10.647342 38,000 225 438 0
2021-09-18 07:14:31 GMT 49.407303 10.652161 38,000 225 438 -64
2021-09-18 07:14:28 GMT 49.412476 10.660048 38,000 225 438 -64
2021-09-18 07:14:25 GMT 49.416458 10.666175 38,000 225 438 -64
2021-09-18 07:14:21 GMT 49.421539 10.673852 38,000 225 436 0
2021-09-18 07:14:18 GMT 49.425659 10.680119 38,000 225 436 64
2021-09-18 07:14:15 GMT 49.429958 10.686654 38,000 225 436 64
2021-09-18 07:14:12 GMT 49.434174 10.693094 38,000 225 436 64
2021-09-18 07:14:09 GMT 49.440151 10.702168 38,000 225 436 -64
2021-09-18 07:14:06 GMT 49.442780 10.706177 38,000 225 437 -64
2021-09-18 07:14:03 GMT 49.448547 10.714995 38,000 225 437 0
2021-09-18 07:14:00 GMT 49.452862 10.721543 38,000 225 437 0
2021-09-18 07:13:57 GMT 49.455460 10.725403 38,000 225 437 0
2021-09-18 07:13:54 GMT 49.459751 10.731935 38,000 225 437 64
2021-09-18 07:13:51 GMT 49.463802 10.738022 38,000 228 436 -64
2021-09-18 07:13:48 GMT 49.468410 10.745000 38,000 225 437 -64
2021-09-18 07:13:46 GMT 49.472973 10.751904 38,000 225 437 -64
2021-09-18 07:13:43 GMT 49.475006 10.755037 38,000 226 437 -64
2021-09-18 07:13:40 GMT 49.479862 10.762519 38,000 227 437 0
2021-09-18 07:13:37 GMT 49.484890 10.770536 38,000 227 436 64
2021-09-18 07:13:34 GMT 49.488194 10.775955 38,000 228 436 0
2021-09-18 07:13:31 GMT 49.493958 10.785466 38,000 228 436 -64
2021-09-18 07:13:28 GMT 49.501228 10.797556 38,000 228 436 -64
2021-09-18 07:13:25 GMT 49.501228 10.797556 38,000 228 436 0
2021-09-18 07:13:22 GMT 49.504349 10.802741 38,000 229 436 64
2021-09-18 07:13:19 GMT 49.510399 10.813145 38,000 229 436 64
2021-09-18 07:13:16 GMT 49.512909 10.817486 38,000 229 440 64
2021-09-18 07:13:13 GMT 49.518265 10.826810 38,000 229 435 64
2021-09-18 07:13:10 GMT 49.521198 10.831926 38,000 229 436 64
2021-09-18 07:13:07 GMT 49.524673 10.838013 38,000 229 436 64
2021-09-18 07:13:04 GMT 49.528091 10.844100 38,000 229 437 -64
2021-09-18 07:13:01 GMT 49.537586 10.860728 38,000 229 437 -64
2021-09-18 07:12:58 GMT 49.537586 10.860728 38,000 229 438 -128
2021-09-18 07:12:55 GMT 49.542206 10.868876 38,000 229 439 -64
2021-09-18 07:12:52 GMT 49.544861 10.873574 38,000 229 439 -64
2021-09-18 07:12:49 GMT 49.549026 10.880946 38,000 229 439 64
2021-09-18 07:12:46 GMT 49.552872 10.887668 38,000 229 439 64
2021-09-18 07:12:43 GMT 49.556767 10.894503 38,000 229 439 0
2021-09-18 07:12:40 GMT 49.560745 10.901545 38,000 229 440 64
2021-09-18 07:12:37 GMT 49.565937 10.910686 38,000 229 440 64
2021-09-18 07:12:34 GMT 49.568638 10.915362 38,000 229 440 64
2021-09-18 07:12:31 GMT 49.572361 10.921969 38,000 229 440 64
2021-09-18 07:12:28 GMT 49.575714 10.927927 38,000 229 441 64
2021-09-18 07:12:25 GMT 49.581436 10.938003 38,000 230 440 64
2021-09-18 07:12:22 GMT 49.584652 10.943719 38,000 229 442 64
2021-09-18 07:12:19 GMT 49.588669 10.950767 38,000 229 441 0
2021-09-18 07:12:16 GMT 49.592789 10.958140 38,000 230 442 -64
2021-09-18 07:12:13 GMT 49.596680 10.965006 38,000 230 442 -64
2021-09-18 07:12:10 GMT 49.606339 10.982064 38,000 230 442 -128
2021-09-18 07:12:06 GMT 49.606339 10.982064 38,000 229 442 128
2021-09-18 07:12:03 GMT 49.609909 10.988424 38,000 229 442 128
2021-09-18 07:12:00 GMT 49.614491 10.996572 38,000 229 442 128
2021-09-18 07:11:57 GMT 49.618149 11.002952 38,000 230 443 64
2021-09-18 07:11:54 GMT 49.622684 11.011047 38,000 230 444 -64
2021-09-18 07:11:51 GMT 49.629959 11.023913 38,000 230 445 -64
2021-09-18 07:11:48 GMT 49.629959 11.023913 38,000 230 445 0
2021-09-18 07:11:45 GMT 49.635487 11.033688 38,000 230 445 -64
2021-09-18 07:11:42 GMT 49.637512 11.037284 38,000 230 445 -64
2021-09-18 07:11:39 GMT 49.643967 11.048777 38,000 230 445 0
2021-09-18 07:11:36 GMT 49.647217 11.054487 38,000 230 444 64
2021-09-18 07:11:33 GMT 49.650707 11.060709 38,000 230 444 64
2021-09-18 07:11:29 GMT 49.655037 11.068354 38,000 230 450 0
2021-09-18 07:11:26 GMT 49.659027 11.075520 38,000 230 444 0
2021-09-18 07:11:23 GMT 49.663879 11.084121 38,000 230 444 0
2021-09-18 07:11:20 GMT 49.669514 11.094113 38,000 230 446 0
2021-09-18 07:11:17 GMT 49.671703 11.097973 38,000 230 445 0
2021-09-18 07:11:14 GMT 49.677055 11.107549 38,000 230 445 0
2021-09-18 07:11:11 GMT 49.680828 11.114230 38,000 230 445 64
2021-09-18 07:11:08 GMT 49.684040 11.119946 38,000 230 446 0
2021-09-18 07:11:05 GMT 49.689442 11.129596 38,000 230 447 -64
2021-09-18 07:11:02 GMT 49.692444 11.134860 38,000 230 448 -64
2021-09-18 07:10:59 GMT 49.695957 11.141176 38,000 230 448 64
2021-09-18 07:10:56 GMT 49.699997 11.148376 38,000 230 450 -64
2021-09-18 07:10:53 GMT 49.704056 11.155651 38,000 230 449 -64
2021-09-18 07:10:50 GMT 49.710060 11.166266 38,000 230 450 0
2021-09-18 07:10:47 GMT 49.712204 11.170126 38,000 230 451 0
2021-09-18 07:10:44 GMT 49.720551 11.184949 38,000 230 451 -64
2021-09-18 07:10:41 GMT 49.720551 11.184949 38,000 230 451 -64
2021-09-18 07:10:38 GMT 49.725037 11.192972 38,000 230 450 0
2021-09-18 07:10:35 GMT 49.728745 11.199477 38,000 230 450 0
2021-09-18 07:10:32 GMT 49.733780 11.208512 38,000 230 450 64
2021-09-18 07:10:29 GMT 49.737579 11.215306 38,000 230 450 64
2021-09-18 07:10:25 GMT 49.743027 11.224992 38,000 230 450 64
2021-09-18 07:10:22 GMT 49.746277 11.230846 38,000 230 450 -64
2021-09-18 07:10:19 GMT 49.751770 11.240604 38,000 230 449 -64
2021-09-18 07:10:16 GMT 49.755524 11.247398 38,000 230 450 -64
2021-09-18 07:10:13 GMT 49.759640 11.254677 38,000 230 450 -64
2021-09-18 07:10:10 GMT 49.764221 11.262938 38,000 230 449 0
2021-09-18 07:10:07 GMT 49.766159 11.266331 38,000 230 449 0
2021-09-18 07:10:04 GMT 49.775070 11.282308 38,000 230 449 0
2021-09-18 07:10:01 GMT 49.775070 11.282308 38,000 230 449 0
2021-09-18 07:09:58 GMT 49.780773 11.292535 38,000 230 449 0
2021-09-18 07:09:55 GMT 49.784271 11.298788 38,000 230 449 -64
2021-09-18 07:09:51 GMT 49.788921 11.307084 38,000 230 449 -64
2021-09-18 07:09:48 GMT 49.792969 11.314400 38,000 230 452 0
2021-09-18 07:09:45 GMT 49.802467 11.331358 38,000 230 450 0
2021-09-18 07:09:42 GMT 49.802467 11.331358 38,000 230 450 0
2021-09-18 07:09:39 GMT 49.806015 11.337674 38,000 230 450 0
2021-09-18 07:09:36 GMT 49.809963 11.344794 38,000 230 450 0
2021-09-18 07:09:33 GMT 49.814117 11.352274 38,000 230 450 0
2021-09-18 07:09:30 GMT 49.817413 11.358201 38,000 230 450 0
2021-09-18 07:09:26 GMT 49.827713 11.376704 38,000 230 450 0
2021-09-18 07:09:22 GMT 49.833160 11.386462 38,000 230 450 64
2021-09-18 07:09:19 GMT 49.833160 11.386462 38,000 230 451 64
2021-09-18 07:09:16 GMT 49.837509 11.394268 38,000 230 452 0
2021-09-18 07:09:13 GMT 49.841572 11.401656 38,000 230 452 -64
2021-09-18 07:09:10 GMT 49.848694 11.414350 38,000 230 452 0
2021-09-18 07:09:07 GMT 49.853584 11.423183 38,000 230 452 -64
2021-09-18 07:09:03 GMT 49.853584 11.423183 38,000 230 452 0
2021-09-18 07:09:00 GMT 49.857651 11.430552 38,000 230 452 0
2021-09-18 07:08:57 GMT 49.868500 11.450067 38,000 230 452 0
2021-09-18 07:08:54 GMT 49.868500 11.450067 38,000 230 452 64
2021-09-18 07:08:50 GMT 49.872017 11.456439 38,000 230 452 0
2021-09-18 07:08:47 GMT 49.879990 11.470738 38,000 230 451 64
2021-09-18 07:08:43 GMT 49.879990 11.470738 38,000 230 451 64
2021-09-18 07:08:40 GMT 49.885895 11.481436 38,000 230 451 0
2021-09-18 07:08:36 GMT 49.890591 11.489843 38,000 230 451 0
2021-09-18 07:08:32 GMT 49.897064 11.501572 38,000 230 451 64
2021-09-18 07:08:29 GMT 49.899296 11.505581 38,000 230 450 0
2021-09-18 07:08:26 GMT 49.903885 11.513889 38,000 230 450 -64
2021-09-18 07:08:23 GMT 49.907955 11.521169 38,000 230 450 -64
2021-09-18 07:08:20 GMT 49.912491 11.529429 38,000 230 450 -64
2021-09-18 07:08:17 GMT 49.917480 11.538463 38,000 230 450 0
2021-09-18 07:08:14 GMT 49.920990 11.544775 38,000 230 448 64
2021-09-18 07:08:11 GMT 49.924942 11.551907 38,000 230 448 0
2021-09-18 07:08:08 GMT 49.927509 11.556504 38,000 230 448 64
2021-09-18 07:08:04 GMT 49.933685 11.567736 38,000 230 448 0
2021-09-18 07:08:01 GMT 49.937748 11.575062 38,000 230 448 0
2021-09-18 07:07:58 GMT 49.947388 11.592506 38,000 230 448 0
2021-09-18 07:07:55 GMT 49.947388 11.592506 38,000 230 448 -64
2021-09-18 07:07:52 GMT 49.951447 11.599900 38,000 230 448 0
2021-09-18 07:07:49 GMT 49.954651 11.605682 38,000 230 448 0
2021-09-18 07:07:44 GMT 49.962517 11.619898 38,000 230 448 0
2021-09-18 07:07:41 GMT 49.968613 11.630980 38,000 230 448 0
2021-09-18 07:07:38 GMT 49.968613 11.630980 38,000 230 448 -64
2021-09-18 07:07:35 GMT 49.973007 11.639003 38,000 230 448 -64
2021-09-18 07:07:32 GMT 49.976528 11.645359 38,000 230 448 -64
2021-09-18 07:07:29 GMT 49.980808 11.653154 38,000 230 449 64
2021-09-18 07:07:26 GMT 49.985413 11.661481 38,000 230 449 64
2021-09-18 07:07:23 GMT 49.988113 11.666396 38,000 230 449 64
2021-09-18 07:07:20 GMT 49.992966 11.675142 38,000 230 452 64
2021-09-18 07:07:17 GMT 50.002411 11.692348 38,000 230 451 -64
2021-09-18 07:07:14 GMT 50.002411 11.692348 38,000 230 451 -64
2021-09-18 07:07:10 GMT 50.008575 11.703475 38,000 230 452 64
2021-09-18 07:07:07 GMT 50.010464 11.706898 38,000 230 451 64
2021-09-18 07:07:04 GMT 50.014526 11.714245 38,000 230 452 64
2021-09-18 07:07:01 GMT 50.019032 11.722412 38,000 230 452 64
2021-09-18 07:06:58 GMT 50.023773 11.731086 38,000 230 452 0
2021-09-18 07:06:54 GMT 50.028214 11.739181 38,000 230 453 -64
2021-09-18 07:06:51 GMT 50.032295 11.746537 38,000 230 453 -64
2021-09-18 07:06:48 GMT 50.036362 11.753998 38,000 230 453 0
2021-09-18 07:06:45 GMT 50.040443 11.761384 38,000 230 453 -64
2021-09-18 07:06:42 GMT 50.045609 11.770766 38,000 230 453 0
2021-09-18 07:06:38 GMT 50.050777 11.780239 38,000 230 453 -64
2021-09-18 07:06:35 GMT 50.054306 11.786668 38,000 230 454 64
2021-09-18 07:06:32 GMT 50.058926 11.795085 38,000 230 454 64
2021-09-18 07:06:29 GMT 50.063671 11.803770 38,000 230 454 64
2021-09-18 07:06:26 GMT 50.065613 11.807267 38,000 230 454 64
2021-09-18 07:06:23 GMT 50.071152 11.817386 38,000 230 454 64
2021-09-18 07:06:20 GMT 50.075500 11.825337 38,000 230 454 64
2021-09-18 07:06:17 GMT 50.079300 11.832275 38,000 230 455 64
2021-09-18 07:06:14 GMT 50.083366 11.839699 38,000 230 455 -64
2021-09-18 07:06:11 GMT 50.086807 11.846008 38,000 230 456 -64
2021-09-18 07:06:08 GMT 50.090744 11.853164 38,000 230 456 0
2021-09-18 07:06:05 GMT 50.094818 11.860632 38,000 230 456 -64
2021-09-18 07:06:02 GMT 50.099194 11.868649 38,000 230 456 64
2021-09-18 07:05:59 GMT 50.103195 11.876004 38,000 230 456 -128
2021-09-18 07:05:56 GMT 50.107388 11.883644 38,000 230 457 64
2021-09-18 07:05:52 GMT 50.112442 11.892989 38,000 230 457 0
2021-09-18 07:05:49 GMT 50.121025 11.908660 38,000 230 457 0
2021-09-18 07:05:46 GMT 50.121025 11.908660 38,000 230 456 64
2021-09-18 07:05:43 GMT 50.125122 11.916191 38,000 230 456 0
2021-09-18 07:05:40 GMT 50.129219 11.923729 38,000 230 456 64
2021-09-18 07:05:37 GMT 50.137665 11.939248 38,000 230 456 -64
2021-09-18 07:05:34 GMT 50.137665 11.939248 38,000 230 455 0
2021-09-18 07:05:31 GMT 50.142975 11.949005 38,000 230 454 0
2021-09-18 07:05:28 GMT 50.146317 11.955221 38,000 230 454 0
2021-09-18 07:05:24 GMT 50.154465 11.970183 38,000 230 454 0
2021-09-18 07:05:21 GMT 50.154465 11.970183 38,000 230 453 -64
2021-09-18 07:05:18 GMT 50.159618 11.979626 38,000 230 453 0
2021-09-18 07:05:14 GMT 50.165066 11.989647 38,000 230 451 -64
2021-09-18 07:05:11 GMT 50.169113 11.997070 38,000 230 451 0
2021-09-18 07:05:08 GMT 50.171814 12.002058 38,000 230 450 0
2021-09-18 07:05:05 GMT 50.176331 12.010358 38,000 230 450 0
2021-09-18 07:05:02 GMT 50.181217 12.019414 38,000 230 449 0
2021-09-18 07:04:59 GMT 50.185406 12.027134 38,000 230 449 -64
2021-09-18 07:04:56 GMT 50.188713 12.033221 38,000 230 448 0
2021-09-18 07:04:53 GMT 50.192436 12.040125 38,000 230 447 -64
2021-09-18 07:04:50 GMT 50.196720 12.047993 38,000 230 446 64
2021-09-18 07:04:47 GMT 50.200443 12.054897 38,000 230 446 64
2021-09-18 07:04:44 GMT 50.204956 12.063205 38,000 230 446 0
2021-09-18 07:04:41 GMT 50.208710 12.070072 38,000 230 446 0
2021-09-18 07:04:38 GMT 50.213928 12.079757 38,000 230 444 64
2021-09-18 07:04:35 GMT 50.216675 12.084816 38,000 230 444 -64
2021-09-18 07:04:32 GMT 50.220795 12.092406 38,000 230 444 64
2021-09-18 07:04:29 GMT 50.224838 12.099882 38,000 230 444 0
2021-09-18 07:04:26 GMT 50.228561 12.106785 38,000 230 444 0
2021-09-18 07:04:23 GMT 50.232559 12.114161 38,000 230 444 0
2021-09-18 07:04:20 GMT 50.235916 12.120370 38,000 230 444 -64
2021-09-18 07:04:17 GMT 50.240479 12.128834 38,000 230 444 -64
2021-09-18 07:04:14 GMT 50.244995 12.137146 38,000 230 444 0
2021-09-18 07:04:11 GMT 50.248947 12.144518 38,000 230 444 -64
2021-09-18 07:04:08 GMT 50.253754 12.153336 38,000 230 444 -64
2021-09-18 07:04:05 GMT 50.256317 12.158107 38,000 230 444 0
2021-09-18 07:04:02 GMT 50.260357 12.165577 38,000 230 444 64
2021-09-18 07:03:59 GMT 50.263943 12.172183 38,000 230 444 64
2021-09-18 07:03:56 GMT 50.268036 12.179718 38,000 230 444 64
2021-09-18 07:03:53 GMT 50.272926 12.188811 38,000 230 444 0
2021-09-18 07:03:50 GMT 50.276745 12.195863 38,000 230 444 -64
2021-09-18 07:03:47 GMT 50.280121 12.202124 38,000 230 444 -64
2021-09-18 07:03:44 GMT 50.283325 12.208123 38,000 230 444 -64
2021-09-18 07:03:41 GMT 50.294815 12.229518 38,000 230 444 0
2021-09-18 07:03:37 GMT 50.294815 12.229518 38,000 230 444 0
2021-09-18 07:03:33 GMT 50.298615 12.236601 38,000 231 443 0
2021-09-18 07:03:30 GMT 50.301773 12.242456 38,000 231 443 128
2021-09-18 07:03:27 GMT 50.306992 12.252141 38,000 230 444 64
2021-09-18 07:03:24 GMT 50.310959 12.259480 38,000 230 444 64
2021-09-18 07:03:21 GMT 50.315243 12.267423 37,975 230 444 64
2021-09-18 07:03:18 GMT 50.318619 12.273752 38,000 231 445 -64
2021-09-18 07:03:15 GMT 50.321823 12.279679 38,000 230 445 -64
2021-09-18 07:03:12 GMT 50.326538 12.288425 38,000 230 445 -64
2021-09-18 07:03:08 GMT 50.337204 12.308301 38,000 230 449 0
2021-09-18 07:03:05 GMT 50.337204 12.308301 38,000 230 449 0
2021-09-18 07:03:02 GMT 50.339077 12.311740 38,000 230 447 -64
2021-09-18 07:02:59 GMT 50.343311 12.319682 38,000 231 448 0
2021-09-18 07:02:56 GMT 50.347038 12.326586 38,000 230 449 64
2021-09-18 07:02:53 GMT 50.351028 12.334033 38,000 230 449 0
2021-09-18 07:02:50 GMT 50.355286 12.341983 38,000 230 449 0
2021-09-18 07:02:47 GMT 50.359543 12.349934 38,000 231 448 0
2021-09-18 07:02:44 GMT 50.363297 12.356945 38,000 231 448 0
2021-09-18 07:02:41 GMT 50.371857 12.372846 38,000 231 448 64
2021-09-18 07:02:38 GMT 50.371857 12.372846 38,000 231 448 0
2021-09-18 07:02:35 GMT 50.376022 12.380580 38,000 231 448 -64
2021-09-18 07:02:32 GMT 50.379482 12.387011 38,000 231 448 0
2021-09-18 07:02:29 GMT 50.384125 12.395686 38,000 231 448 0
2021-09-18 07:02:26 GMT 50.387444 12.401931 38,000 231 448 -64
2021-09-18 07:02:23 GMT 50.391403 12.409347 38,000 231 448 -64
2021-09-18 07:02:20 GMT 50.396103 12.418114 38,000 231 448 64
2021-09-18 07:02:16 GMT 50.400757 12.426873 38,000 231 448 0
2021-09-18 07:02:13 GMT 50.406067 12.436746 38,000 231 448 -64
2021-09-18 07:02:10 GMT 50.409927 12.443947 38,000 231 448 0
2021-09-18 07:02:07 GMT 50.412827 12.449389 38,000 230 449 -64
2021-09-18 07:02:04 GMT 50.420544 12.463841 38,000 231 450 0
2021-09-18 07:02:01 GMT 50.420544 12.463841 38,000 231 450 0
2021-09-18 07:01:58 GMT 50.424267 12.470744 38,000 231 450 0
2021-09-18 07:01:55 GMT 50.428299 12.478300 38,000 231 449 64
2021-09-18 07:01:52 GMT 50.433609 12.488275 38,000 231 449 64
2021-09-18 07:01:49 GMT 50.437069 12.494796 38,000 231 449 64
2021-09-18 07:01:46 GMT 50.439629 12.499621 38,000 231 448 0
2021-09-18 07:01:43 GMT 50.444378 12.508454 38,000 231 448 0
2021-09-18 07:01:40 GMT 50.448147 12.515580 38,000 231 447 -64
2021-09-18 07:01:37 GMT 50.453503 12.525602 38,000 231 446 0
2021-09-18 07:01:34 GMT 50.456062 12.530427 38,000 231 446 64
2021-09-18 07:01:31 GMT 50.460022 12.537930 38,000 231 445 64
2021-09-18 07:01:28 GMT 50.465046 12.547352 38,000 231 445 64
2021-09-18 07:01:25 GMT 50.469284 12.555295 38,000 231 445 64
2021-09-18 07:01:22 GMT 50.472702 12.561637 38,000 231 444 64
2021-09-18 07:01:19 GMT 50.477966 12.571540 38,000 231 443 64
2021-09-18 07:01:16 GMT 50.480072 12.575515 38,000 231 442 0
2021-09-18 07:01:13 GMT 50.483826 12.582598 38,000 231 442 -64
2021-09-18 07:01:10 GMT 50.487762 12.589961 38,000 231 440 -64
2021-09-18 07:01:07 GMT 50.491653 12.597343 38,000 231 440 -64
2021-09-18 07:01:04 GMT 50.496231 12.605944 38,000 231 439 -64
2021-09-18 07:01:01 GMT 50.500240 12.613492 38,000 231 440 64
2021-09-18 07:00:57 GMT 50.504292 12.621138 38,000 231 439 -64
2021-09-18 07:00:54 GMT 50.508572 12.629155 38,000 231 439 -64
2021-09-18 07:00:51 GMT 50.513229 12.637989 38,000 231 439 0
2021-09-18 07:00:48 GMT 50.517654 12.646276 38,000 231 439 64
2021-09-18 07:00:45 GMT 50.520767 12.652202 38,000 231 438 0
2021-09-18 07:00:42 GMT 50.528503 12.666803 38,000 231 438 64
2021-09-18 07:00:39 GMT 50.528503 12.666803 38,000 231 438 -64
2021-09-18 07:00:36 GMT 50.532871 12.675105 38,000 231 438 -64
2021-09-18 07:00:32 GMT 50.538300 12.685378 38,000 231 438 64
2021-09-18 07:00:29 GMT 50.541916 12.692172 38,000 231 437 64
2021-09-18 07:00:26 GMT 50.546036 12.699978 38,000 231 436 64
2021-09-18 07:00:23 GMT 50.552628 12.712483 38,000 231 436 64
2021-09-18 07:00:20 GMT 50.557590 12.721797 38,000 231 436 64
2021-09-18 07:00:17 GMT 50.557590 12.721797 38,000 231 436 0
2021-09-18 07:00:14 GMT 50.560757 12.727810 38,000 231 436 -64
2021-09-18 07:00:11 GMT 50.565273 12.736346 38,000 231 437 0
2021-09-18 07:00:08 GMT 50.569042 12.743473 38,000 231 437 -64
2021-09-18 07:00:05 GMT 50.572117 12.749337 38,000 231 437 -64
2021-09-18 07:00:02 GMT 50.577286 12.759061 38,000 231 436 0
2021-09-18 06:59:59 GMT 50.578773 12.761882 38,000 231 436 64
2021-09-18 06:59:56 GMT 50.584122 12.772112 38,000 231 436 64
2021-09-18 06:59:53 GMT 50.587326 12.778112 38,000 231 436 0
2021-09-18 06:59:50 GMT 50.592453 12.787869 38,000 231 436 0
2021-09-18 06:59:47 GMT 50.595520 12.793724 38,000 231 436 64
2021-09-18 06:59:44 GMT 50.603493 12.808797 38,000 231 436 0
2021-09-18 06:59:41 GMT 50.603493 12.808797 38,000 231 436 0
2021-09-18 06:59:38 GMT 50.606564 12.814661 38,000 231 437 -128
2021-09-18 06:59:35 GMT 50.611687 12.824385 38,000 231 436 64
2021-09-18 06:59:31 GMT 50.616074 12.832682 38,000 231 437 -64
2021-09-18 06:59:28 GMT 50.624489 12.848659 38,000 231 438 -192
2021-09-18 06:59:25 GMT 50.624489 12.848659 38,000 231 438 -64
2021-09-18 06:59:22 GMT 50.626831 12.853137 38,000 231 438 128
2021-09-18 06:59:19 GMT 50.631912 12.862894 38,000 231 438 128
2021-09-18 06:59:16 GMT 50.634613 12.867954 38,000 231 438 0
2021-09-18 06:59:13 GMT 50.639740 12.877784 38,000 231 438 0
2021-09-18 06:59:10 GMT 50.643063 12.884068 38,000 231 438 -64
2021-09-18 06:59:07 GMT 50.646179 12.890006 38,000 231 438 -64
2021-09-18 06:59:04 GMT 50.649582 12.896431 38,000 231 438 -64
2021-09-18 06:59:01 GMT 50.654068 12.905105 38,000 231 438 -64
2021-09-18 06:58:58 GMT 50.658005 12.912573 38,000 231 438 64
2021-09-18 06:58:55 GMT 50.662949 12.921946 38,000 231 438 64
2021-09-18 06:58:52 GMT 50.665779 12.927419 38,000 231 438 64
2021-09-18 06:58:49 GMT 50.669411 12.934249 38,000 231 438 64
2021-09-18 06:58:46 GMT 50.673927 12.942963 38,000 231 438 64
2021-09-18 06:58:43 GMT 50.677559 12.949829 38,000 231 439 -64
2021-09-18 06:58:40 GMT 50.682259 12.958755 38,000 231 439 0
2021-09-18 06:58:37 GMT 50.685608 12.965203 38,000 231 439 0
2021-09-18 06:58:34 GMT 50.689224 12.972181 38,000 231 439 0
2021-09-18 06:58:31 GMT 50.692593 12.978592 38,000 231 441 64
2021-09-18 06:58:28 GMT 50.697762 12.988434 38,000 231 442 0
2021-09-18 06:58:25 GMT 50.700531 12.993708 38,000 231 443 64
2021-09-18 06:58:22 GMT 50.704193 13.000686 38,000 231 444 64
2021-09-18 06:58:19 GMT 50.712067 13.015681 38,000 231 449 0
2021-09-18 06:58:16 GMT 50.712067 13.015681 38,000 231 446 -64
2021-09-18 06:58:13 GMT 50.715961 13.023071 38,000 231 446 -64
2021-09-18 06:58:10 GMT 50.720245 13.031311 38,000 231 449 0
2021-09-18 06:58:07 GMT 50.724995 13.040390 38,000 231 450 64
2021-09-18 06:58:04 GMT 50.727905 13.045968 38,000 231 449 0
2021-09-18 06:58:02 GMT 50.731232 13.052368 38,000 231 450 0
2021-09-18 06:57:59 GMT 50.736328 13.062150 38,000 231 450 64
2021-09-18 06:57:56 GMT 50.738480 13.066159 38,000 231 450 -64
2021-09-18 06:57:53 GMT 50.742870 13.074646 38,000 231 450 64
2021-09-18 06:57:50 GMT 50.750565 13.089468 38,000 231 450 64
2021-09-18 06:57:47 GMT 50.750565 13.089468 38,000 231 450 64
2021-09-18 06:57:44 GMT 50.754601 13.097153 38,000 231 450 64
2021-09-18 06:57:41 GMT 50.758484 13.104611 38,000 231 450 0
2021-09-18 06:57:38 GMT 50.763538 13.114395 38,000 231 450 0
2021-09-18 06:57:35 GMT 50.766705 13.120422 38,000 231 450 64
2021-09-18 06:57:32 GMT 50.770660 13.128068 38,000 231 450 64
2021-09-18 06:57:29 GMT 50.773727 13.133858 38,000 231 449 0
2021-09-18 06:57:26 GMT 50.778992 13.144028 38,000 231 449 -64
2021-09-18 06:57:23 GMT 50.782196 13.150189 38,000 231 449 -64
2021-09-18 06:57:20 GMT 50.787235 13.159866 38,000 231 449 -64
2021-09-18 06:57:16 GMT 50.791260 13.167560 38,000 231 449 -64
2021-09-18 06:57:13 GMT 50.800453 13.185349 38,000 231 449 -64
2021-09-18 06:57:10 GMT 50.800453 13.185349 38,000 231 449 0
2021-09-18 06:57:07 GMT 50.804398 13.192947 38,000 231 452 -64
2021-09-18 06:57:04 GMT 50.811535 13.206635 38,000 231 451 0
2021-09-18 06:57:01 GMT 50.811535 13.206635 38,000 231 449 64
2021-09-18 06:56:58 GMT 50.814926 13.213212 38,000 231 452 -64
2021-09-18 06:56:55 GMT 50.819401 13.221893 38,000 231 456 0
2021-09-18 06:56:52 GMT 50.823349 13.229543 38,000 231 451 0
2021-09-18 06:56:49 GMT 50.831818 13.245800 38,000 231 451 -64
2021-09-18 06:56:46 GMT 50.831818 13.245800 38,000 231 452 -64
2021-09-18 06:56:43 GMT 50.834717 13.251419 38,000 231 452 -64
2021-09-18 06:56:40 GMT 50.839233 13.260127 38,000 231 453 64
2021-09-18 06:56:37 GMT 50.843903 13.269109 38,000 231 453 64
2021-09-18 06:56:34 GMT 50.847473 13.275986 38,000 231 453 64
2021-09-18 06:56:31 GMT 50.852921 13.286553 38,000 231 454 0
2021-09-18 06:56:28 GMT 50.855389 13.291321 38,000 231 456 64
2021-09-18 06:56:24 GMT 50.860741 13.301620 38,000 231 454 0
2021-09-18 06:56:21 GMT 50.863396 13.306732 38,000 231 454 64
2021-09-18 06:56:18 GMT 50.868942 13.317582 38,000 231 454 64
2021-09-18 06:56:15 GMT 50.872101 13.323744 38,000 231 454 0
2021-09-18 06:56:12 GMT 50.876358 13.331909 38,000 231 454 64
2021-09-18 06:56:09 GMT 50.880615 13.340149 38,000 231 454 -64
2021-09-18 06:56:05 GMT 50.884575 13.347855 38,000 231 454 64
2021-09-18 06:56:02 GMT 50.889790 13.357925 38,000 231 454 64
2021-09-18 06:55:59 GMT 50.894302 13.366650 38,000 231 455 0
2021-09-18 06:55:56 GMT 50.896957 13.371846 38,000 231 455 -64
2021-09-18 06:55:53 GMT 50.905197 13.387833 38,000 231 455 -64
2021-09-18 06:55:50 GMT 50.905197 13.387833 38,000 231 455 -64
2021-09-18 06:55:47 GMT 50.910503 13.398132 38,000 231 456 0
2021-09-18 06:55:44 GMT 50.913715 13.404388 38,000 231 456 64
2021-09-18 06:55:41 GMT 50.917236 13.411189 38,000 231 456 64
2021-09-18 06:55:37 GMT 50.922283 13.421021 38,000 231 456 64
2021-09-18 06:55:34 GMT 50.926758 13.429747 38,000 231 456 -64
2021-09-18 06:55:31 GMT 50.930756 13.437424 38,000 231 456 -64
2021-09-18 06:55:28 GMT 50.935867 13.447414 38,000 231 456 0
2021-09-18 06:55:25 GMT 50.939785 13.454971 38,000 231 456 0
2021-09-18 06:55:22 GMT 50.942276 13.459811 38,000 231 455 0
2021-09-18 06:55:19 GMT 50.946487 13.468051 38,000 231 455 64
2021-09-18 06:55:16 GMT 50.950241 13.475325 38,000 231 455 0
2021-09-18 06:55:13 GMT 50.954216 13.483047 38,000 231 454 0
2021-09-18 06:55:10 GMT 50.958363 13.491211 38,000 231 454 0
2021-09-18 06:55:07 GMT 50.963203 13.500671 38,000 231 454 64
2021-09-18 06:55:04 GMT 50.966370 13.506851 38,000 231 454 -64
2021-09-18 06:55:01 GMT 50.971848 13.517563 38,000 231 454 -64
2021-09-18 06:54:57 GMT 50.975601 13.524838 38,000 231 453 -64
2021-09-18 06:54:54 GMT 50.983685 13.540649 38,000 231 453 0
2021-09-18 06:54:51 GMT 50.988281 13.549557 38,000 232 452 -64
2021-09-18 06:54:47 GMT 50.988281 13.549557 38,000 232 452 0
2021-09-18 06:54:44 GMT 50.992718 13.558350 38,000 231 453 64
2021-09-18 06:54:41 GMT 50.997208 13.567076 38,000 232 452 64
2021-09-18 06:54:38 GMT 51.000629 13.573761 38,000 231 453 64
2021-09-18 06:54:35 GMT 51.004532 13.581403 38,000 231 454 -64
2021-09-18 06:54:32 GMT 51.009102 13.590393 38,000 231 455 64
2021-09-18 06:54:29 GMT 51.012405 13.596843 38,000 231 454 -64
2021-09-18 06:54:26 GMT 51.017017 13.605881 38,000 232 455 0
2021-09-18 06:54:23 GMT 51.019577 13.610840 38,000 232 455 64
2021-09-18 06:54:20 GMT 51.024979 13.621368 38,000 231 455 128
2021-09-18 06:54:17 GMT 51.028141 13.627625 38,000 232 456 0
2021-09-18 06:54:14 GMT 51.033867 13.638840 38,000 232 456 0
2021-09-18 06:54:11 GMT 51.037128 13.645248 38,000 232 456 0
2021-09-18 06:54:08 GMT 51.039780 13.650436 38,000 232 456 0
2021-09-18 06:54:05 GMT 51.044312 13.659272 38,000 232 456 0
2021-09-18 06:54:02 GMT 51.048019 13.666547 38,000 232 456 0
2021-09-18 06:53:59 GMT 51.053329 13.677014 38,000 232 457 -64
2021-09-18 06:53:56 GMT 51.056770 13.683777 38,000 232 457 -64
2021-09-18 06:53:53 GMT 51.059189 13.688445 38,000 232 458 -64
2021-09-18 06:53:50 GMT 51.064777 13.699417 38,000 232 458 -64
2021-09-18 06:53:47 GMT 51.068207 13.706187 38,000 232 458 -64
2021-09-18 06:53:44 GMT 51.076721 13.722963 38,000 232 458 0
2021-09-18 06:53:41 GMT 51.076721 13.722963 38,000 232 458 64
2021-09-18 06:53:38 GMT 51.081528 13.732391 38,000 232 458 64
2021-09-18 06:53:35 GMT 51.084045 13.737290 38,000 232 458 128
2021-09-18 06:53:32 GMT 51.088943 13.747014 38,000 232 458 64
2021-09-18 06:53:29 GMT 51.091599 13.752210 38,000 232 458 -64
2021-09-18 06:53:26 GMT 51.097412 13.763716 38,000 232 459 -64
2021-09-18 06:53:23 GMT 51.100067 13.768987 38,000 232 458 -64
2021-09-18 06:53:20 GMT 51.104069 13.776779 38,000 232 457 64
2021-09-18 06:53:17 GMT 51.108536 13.785689 38,000 232 457 0
2021-09-18 06:53:14 GMT 51.111889 13.792267 38,000 232 457 64
2021-09-18 06:53:11 GMT 51.116219 13.800812 38,000 232 457 0
2021-09-18 06:53:08 GMT 51.120209 13.808627 38,000 232 457 0
2021-09-18 06:53:05 GMT 51.124737 13.817520 38,000 232 458 0
2021-09-18 06:53:02 GMT 51.127392 13.822784 38,000 232 458 0
2021-09-18 06:52:59 GMT 51.132980 13.833791 38,000 232 458 0
2021-09-18 06:52:55 GMT 51.141998 13.851607 38,000 232 459 0
2021-09-18 06:52:52 GMT 51.141998 13.851607 38,000 232 459 -64
2021-09-18 06:52:49 GMT 51.145454 13.858490 38,000 232 460 -64
2021-09-18 06:52:46 GMT 51.149323 13.866082 38,000 232 460 0
2021-09-18 06:52:43 GMT 51.154770 13.876920 38,000 232 460 0
2021-09-18 06:52:40 GMT 51.157974 13.883230 38,000 232 460 0
2021-09-18 06:52:37 GMT 51.162277 13.891618 38,000 232 460 64
2021-09-18 06:52:34 GMT 51.165703 13.898468 38,000 232 460 128
2021-09-18 06:52:31 GMT 51.168358 13.903732 38,000 232 460 128
2021-09-18 06:52:28 GMT 51.173447 13.913739 38,000 232 460 0
2021-09-18 06:52:25 GMT 51.179016 13.924866 38,000 232 458 -64
2021-09-18 06:52:22 GMT 51.181160 13.929138 38,000 232 458 -64
2021-09-18 06:52:19 GMT 51.185165 13.936974 38,000 232 458 -64
2021-09-18 06:52:16 GMT 51.189632 13.945923 38,000 232 458 64
2021-09-18 06:52:13 GMT 51.198349 13.963178 38,000 232 458 64
2021-09-18 06:52:10 GMT 51.198349 13.963178 38,000 232 458 0
2021-09-18 06:52:07 GMT 51.201004 13.968448 38,000 232 458 0
2021-09-18 06:52:04 GMT 51.206360 13.979063 38,000 232 458 0
2021-09-18 06:52:01 GMT 51.208160 13.982697 38,000 232 458 -64
2021-09-18 06:51:58 GMT 51.212677 13.991608 38,000 232 458 -64
2021-09-18 06:51:55 GMT 51.216633 13.999557 38,000 232 458 0
2021-09-18 06:51:52 GMT 51.220596 14.007420 38,000 232 458 64
2021-09-18 06:51:49 GMT 51.225105 14.016342 38,000 232 458 0
2021-09-18 06:51:46 GMT 51.229614 14.025310 38,000 232 458 0
2021-09-18 06:51:43 GMT 51.233578 14.033203 38,000 232 458 0
2021-09-18 06:51:40 GMT 51.237030 14.040082 38,000 232 458 64
2021-09-18 06:51:37 GMT 51.239910 14.045792 38,000 232 458 -64
2021-09-18 06:51:34 GMT 51.246002 14.057972 38,000 232 458 0
2021-09-18 06:51:31 GMT 51.248383 14.062729 38,000 232 458 64
2021-09-18 06:51:28 GMT 51.252365 14.070591 38,000 232 458 0
2021-09-18 06:51:25 GMT 51.257366 14.080658 38,000 232 458 0
2021-09-18 06:51:22 GMT 51.259415 14.084702 38,000 232 458 -64
2021-09-18 06:51:19 GMT 51.269516 14.104843 38,000 232 458 -64
2021-09-18 06:51:16 GMT 51.269516 14.104843 38,000 232 457 64
2021-09-18 06:51:13 GMT 51.272919 14.111642 38,000 232 457 64
2021-09-18 06:51:10 GMT 51.276825 14.119492 38,000 232 457 64
2021-09-18 06:51:07 GMT 51.281155 14.128113 38,000 232 457 64
2021-09-18 06:51:03 GMT 51.285343 14.136429 38,000 232 457 0
2021-09-18 06:51:00 GMT 51.290047 14.145813 38,000 232 457 -64
2021-09-18 06:50:57 GMT 51.293861 14.153519 38,000 232 457 0
2021-09-18 06:50:54 GMT 51.297272 14.160338 38,000 232 457 -64
2021-09-18 06:50:51 GMT 51.301731 14.169312 38,000 232 457 -64
2021-09-18 06:50:48 GMT 51.310715 14.187241 38,000 232 457 -64
2021-09-18 06:50:45 GMT 51.310715 14.187241 38,000 232 457 0
2021-09-18 06:50:42 GMT 51.312809 14.191437 38,000 232 458 0
2021-09-18 06:50:39 GMT 51.316998 14.199753 38,000 232 458 0
2021-09-18 06:50:36 GMT 51.322308 14.210434 38,000 232 458 64
2021-09-18 06:50:33 GMT 51.326202 14.218164 38,000 232 458 -64
2021-09-18 06:50:30 GMT 51.332733 14.231339 38,000 232 458 64
2021-09-18 06:50:27 GMT 51.332733 14.231339 38,000 232 458 0
2021-09-18 06:50:24 GMT 51.336685 14.239246 38,000 232 458 -64
2021-09-18 06:50:21 GMT 51.341206 14.248352 38,000 232 458 0
2021-09-18 06:50:18 GMT 51.344193 14.254241 38,000 232 458 -64
2021-09-18 06:50:15 GMT 51.348907 14.263817 38,000 232 458 -64
2021-09-18 06:50:12 GMT 51.353867 14.273758 38,000 232 458 -64
2021-09-18 06:50:08 GMT 51.362389 14.290771 38,000 232 458 64
2021-09-18 06:50:05 GMT 51.362389 14.290771 38,000 232 458 64
2021-09-18 06:50:01 GMT 51.366806 14.299671 38,000 232 458 64
2021-09-18 06:49:58 GMT 51.371613 14.309395 38,000 232 458 64
2021-09-18 06:49:55 GMT 51.375050 14.316254 38,000 232 458 0
2021-09-18 06:49:52 GMT 51.380219 14.326630 38,000 232 457 -64
2021-09-18 06:49:49 GMT 51.383476 14.333191 38,000 232 457 128
2021-09-18 06:49:46 GMT 51.386597 14.339523 38,000 232 457 64
2021-09-18 06:49:43 GMT 51.390270 14.346924 38,000 232 458 -64
2021-09-18 06:49:40 GMT 51.395020 14.356461 38,000 232 458 -64
2021-09-18 06:49:37 GMT 51.399353 14.365218 38,000 232 458 -64
2021-09-18 06:49:34 GMT 51.402603 14.371825 38,000 232 458 -64
2021-09-18 06:49:31 GMT 51.405762 14.378208 38,000 232 457 -64
2021-09-18 06:49:28 GMT 51.410244 14.387207 38,000 232 458 64
2021-09-18 06:49:25 GMT 51.414852 14.396515 38,000 232 458 -128
2021-09-18 06:49:22 GMT 51.418259 14.403447 38,000 232 458 -64
2021-09-18 06:49:19 GMT 51.422298 14.411621 38,000 232 457 -64
2021-09-18 06:49:16 GMT 51.427422 14.421997 38,000 232 457 -64
2021-09-18 06:49:13 GMT 51.429932 14.426979 38,000 232 457 0
2021-09-18 06:49:10 GMT 51.434509 14.436332 38,000 232 457 64
2021-09-18 06:49:06 GMT 51.439106 14.445572 38,000 232 457 64
2021-09-18 06:49:03 GMT 51.443024 14.453554 38,000 232 457 0
2021-09-18 06:49:00 GMT 51.447647 14.462833 38,000 232 457 -64
2021-09-18 06:48:57 GMT 51.451904 14.471518 38,000 232 456 0
2021-09-18 06:48:54 GMT 51.455353 14.478455 38,000 232 456 0
2021-09-18 06:48:51 GMT 51.459541 14.486923 38,000 232 457 0
2021-09-18 06:48:48 GMT 51.463219 14.494324 38,000 232 457 64
2021-09-18 06:48:45 GMT 51.466644 14.501211 38,000 232 457 64
2021-09-18 06:48:42 GMT 51.470573 14.509125 38,000 232 457 0
2021-09-18 06:48:39 GMT 51.474518 14.517022 38,000 232 458 0
2021-09-18 06:48:36 GMT 51.479420 14.526901 38,000 232 457 0
2021-09-18 06:48:33 GMT 51.483994 14.536174 38,000 232 458 -64
2021-09-18 06:48:30 GMT 51.486511 14.541222 38,000 232 458 0
2021-09-18 06:48:27 GMT 51.491058 14.550552 38,000 232 458 -64
2021-09-18 06:48:24 GMT 51.493710 14.555893 38,000 232 458 -64
2021-09-18 06:48:21 GMT 51.498688 14.565941 38,000 232 458 -64
2021-09-18 06:48:18 GMT 51.502090 14.572906 38,000 232 458 -64
2021-09-18 06:48:15 GMT 51.505630 14.580078 38,000 232 458 64
2021-09-18 06:48:12 GMT 51.509956 14.588852 38,000 232 457 64
2021-09-18 06:48:09 GMT 51.513885 14.596896 38,000 232 457 64
2021-09-18 06:48:06 GMT 51.518600 14.606397 38,000 232 457 0
2021-09-18 06:48:03 GMT 51.522526 14.614410 38,000 232 457 0
2021-09-18 06:48:00 GMT 51.525925 14.621318 38,000 232 457 64
2021-09-18 06:47:57 GMT 51.529835 14.629288 38,000 232 457 64
2021-09-18 06:47:54 GMT 51.533512 14.636765 38,000 234 456 0
2021-09-18 06:47:50 GMT 51.539474 14.648932 38,000 240 452 64
2021-09-18 06:47:47 GMT 51.546707 14.663630 38,000 232 457 -64
2021-09-18 06:47:44 GMT 51.546707 14.663630 38,000 233 456 -64
2021-09-18 06:47:41 GMT 51.551422 14.673355 38,000 234 456 0
2021-09-18 06:47:38 GMT 51.554443 14.679664 38,000 235 455 0
2021-09-18 06:47:35 GMT 51.557968 14.687385 38,000 239 452 64
2021-09-18 06:47:32 GMT 51.566147 14.707108 38,000 238 453 64
2021-09-18 06:47:29 GMT 51.566147 14.707108 38,000 240 452 64
2021-09-18 06:47:26 GMT 51.568497 14.713440 38,000 241 451 0
2021-09-18 06:47:23 GMT 51.571175 14.720993 38,000 244 449 -64
2021-09-18 06:47:20 GMT 51.574860 14.732146 38,000 245 449 -128
2021-09-18 06:47:17 GMT 51.578430 14.744098 38,000 246 448 -128
2021-09-18 06:47:14 GMT 51.580078 14.750111 38,000 247 448 -128
2021-09-18 06:47:11 GMT 51.582161 14.758072 38,025 251 444 128
2021-09-18 06:47:08 GMT 51.584579 14.768066 38,000 250 446 128
2021-09-18 06:47:05 GMT 51.586956 14.779282 38,000 254 444 128
2021-09-18 06:47:02 GMT 51.588120 14.785538 38,000 256 442 128
2021-09-18 06:46:59 GMT 51.590027 14.796982 38,000 258 441 64
2021-09-18 06:46:56 GMT 51.591202 14.805265 38,000 259 440 -64
2021-09-18 06:46:53 GMT 51.592728 14.817429 38,000 260 439 -64
2021-09-18 06:46:50 GMT 51.593517 14.823837 38,000 259 440 -64
2021-09-18 06:46:47 GMT 51.596191 14.846241 38,000 260 439 0
2021-09-18 06:46:44 GMT 51.596191 14.846241 38,000 260 438 0
2021-09-18 06:46:41 GMT 51.596970 14.852551 38,000 260 438 0
2021-09-18 06:46:38 GMT 51.598343 14.864131 38,000 260 438 0
2021-09-18 06:46:35 GMT 51.599258 14.871777 38,000 260 438 64
2021-09-18 06:46:32 GMT 51.600494 14.881872 38,000 260 438 0
2021-09-18 06:46:29 GMT 51.601410 14.889741 38,000 260 438 0
2021-09-18 06:46:26 GMT 51.603157 14.904175 38,000 260 438 0
2021-09-18 06:46:23 GMT 51.604111 14.912456 38,000 260 438 -64
2021-09-18 06:46:20 GMT 51.606182 14.929733 38,000 260 438 0
2021-09-18 06:46:17 GMT 51.606182 14.929733 38,000 260 439 64
2021-09-18 06:46:14 GMT 51.607113 14.937439 38,000 260 439 64
2021-09-18 06:46:11 GMT 51.608414 14.948458 38,000 260 439 64
2021-09-18 06:46:08 GMT 51.609394 14.956665 38,000 260 439 64
2021-09-18 06:46:05 GMT 51.611023 14.970282 38,000 260 439 -64
2021-09-18 06:46:02 GMT 51.612991 14.986985 38,000 260 439 -64
2021-09-18 06:45:59 GMT 51.612991 14.986985 38,000 260 439 -64
2021-09-18 06:45:56 GMT 51.614002 14.995346 38,000 260 440 0
2021-09-18 06:45:53 GMT 51.615677 15.009460 38,000 260 440 -64
2021-09-18 06:45:50 GMT 51.616470 15.016306 38,000 260 440 0
2021-09-18 06:45:47 GMT 51.617958 15.028610 38,000 260 440 64
2021-09-18 06:45:44 GMT 51.618706 15.035095 38,000 260 440 0
2021-09-18 06:45:41 GMT 51.619995 15.045999 38,000 260 440 0
2021-09-18 06:45:38 GMT 51.621094 15.054981 38,000 260 440 0
2021-09-18 06:45:35 GMT 51.622196 15.064621 38,000 260 440 -64
2021-09-18 06:45:32 GMT 51.624252 15.081927 38,000 260 440 64
2021-09-18 06:45:29 GMT 51.624252 15.081927 38,000 260 440 0
2021-09-18 06:45:26 GMT 51.625732 15.094147 38,000 260 439 0
2021-09-18 06:45:23 GMT 51.627827 15.112000 38,000 260 440 0
2021-09-18 06:45:20 GMT 51.627827 15.112000 38,000 260 440 -64
2021-09-18 06:45:17 GMT 51.628967 15.121790 38,000 260 440 0
2021-09-18 06:45:15 GMT 51.629925 15.130081 38,000 260 440 0
2021-09-18 06:45:12 GMT 51.630669 15.136490 38,000 260 439 0
2021-09-18 06:45:09 GMT 51.632126 15.148662 38,000 260 439 0
2021-09-18 06:45:06 GMT 51.633041 15.156860 38,000 260 439 0
2021-09-18 06:45:03 GMT 51.634579 15.169907 38,000 260 439 64
2021-09-18 06:45:00 GMT 51.635742 15.179542 38,000 260 439 64
2021-09-18 06:44:57 GMT 51.636536 15.186310 38,000 260 438 64
2021-09-18 06:44:55 GMT 51.637207 15.192310 38,000 260 438 0
2021-09-18 06:44:52 GMT 51.638302 15.201645 38,000 260 438 -64
2021-09-18 06:44:49 GMT 51.639450 15.211314 38,000 260 438 -64
2021-09-18 06:44:46 GMT 51.641098 15.225640 38,000 260 438 -64
2021-09-18 06:44:42 GMT 51.642151 15.234622 38,000 260 438 -64
2021-09-18 06:44:39 GMT 51.643238 15.244217 38,000 260 438 0
2021-09-18 06:44:36 GMT 51.644260 15.252914 38,000 260 438 -128
2021-09-18 06:44:33 GMT 51.645145 15.260849 38,000 260 438 0
2021-09-18 06:44:30 GMT 51.646450 15.271988 38,000 260 438 64
2021-09-18 06:44:27 GMT 51.647781 15.283170 38,000 260 438 0
2021-09-18 06:44:24 GMT 51.649197 15.295334 38,000 260 437 64
2021-09-18 06:44:21 GMT 51.650162 15.303584 38,000 260 437 64
2021-09-18 06:44:17 GMT 51.651291 15.313187 38,000 260 438 64
2021-09-18 06:44:14 GMT 51.652542 15.324072 38,000 260 439 -64
2021-09-18 06:44:11 GMT 51.653805 15.334930 38,000 260 438 0
2021-09-18 06:44:08 GMT 51.654739 15.343224 38,000 260 438 -64
2021-09-18 06:44:05 GMT 51.656067 15.354730 38,000 260 439 -64
2021-09-18 06:44:02 GMT 51.658264 15.374030 38,000 260 439 -64
2021-09-18 06:43:59 GMT 51.658264 15.374030 38,000 260 439 0
2021-09-18 06:43:56 GMT 51.658859 15.379152 38,000 260 439 0
2021-09-18 06:43:53 GMT 51.660324 15.391846 38,000 260 439 0
2021-09-18 06:43:50 GMT 51.661438 15.401535 38,000 260 439 0
2021-09-18 06:43:47 GMT 51.662704 15.412482 38,000 260 439 0
2021-09-18 06:43:44 GMT 51.663574 15.420202 38,000 260 438 -64
2021-09-18 06:43:41 GMT 51.664581 15.429110 38,000 260 439 0
2021-09-18 06:43:38 GMT 51.666824 15.448410 38,000 260 438 -64
2021-09-18 06:43:35 GMT 51.666824 15.448410 38,000 260 438 0
2021-09-18 06:43:32 GMT 51.668049 15.459137 38,000 260 438 64
2021-09-18 06:43:29 GMT 51.668976 15.467340 38,000 260 438 0
2021-09-18 06:43:26 GMT 51.670097 15.476913 38,000 260 438 0
2021-09-18 06:43:23 GMT 51.670982 15.484695 38,000 260 438 0
2021-09-18 06:43:20 GMT 51.672546 15.498294 38,000 260 438 0
2021-09-18 06:43:17 GMT 51.673309 15.505066 38,000 260 438 -64
2021-09-18 06:43:14 GMT 51.674660 15.516891 38,000 260 438 -64
2021-09-18 06:43:10 GMT 51.675888 15.527764 38,000 260 438 64
2021-09-18 06:43:07 GMT 51.677078 15.538008 38,000 260 438 64
2021-09-18 06:43:04 GMT 51.678085 15.546990 38,000 260 439 64
2021-09-18 06:43:01 GMT 51.679138 15.555973 38,000 260 439 -64
2021-09-18 06:42:58 GMT 51.680199 15.565643 38,000 260 439 -64
2021-09-18 06:42:55 GMT 51.681885 15.580395 38,000 260 439 0
2021-09-18 06:42:52 GMT 51.683487 15.594276 38,000 260 440 0
2021-09-18 06:42:49 GMT 51.683487 15.594276 38,000 260 440 -64
2021-09-18 06:42:46 GMT 51.684814 15.606079 38,000 260 438 0
2021-09-18 06:42:42 GMT 51.687561 15.630501 38,000 260 439 -64
2021-09-18 06:42:38 GMT 51.687561 15.630501 38,000 260 439 -64
2021-09-18 06:42:35 GMT 51.688950 15.642700 38,000 260 439 64
2021-09-18 06:42:31 GMT 51.690254 15.654297 38,000 260 438 64
2021-09-18 06:42:28 GMT 51.691589 15.666207 38,000 260 438 64
2021-09-18 06:42:25 GMT 51.692257 15.672302 38,000 260 438 64
2021-09-18 06:42:22 GMT 51.693329 15.681870 38,000 260 438 64
2021-09-18 06:42:19 GMT 51.694473 15.691965 38,000 260 438 0
2021-09-18 06:42:15 GMT 51.696167 15.706863 38,000 260 438 0
2021-09-18 06:42:12 GMT 51.696945 15.713938 38,000 260 438 -64
2021-09-18 06:42:09 GMT 51.697983 15.723343 38,000 260 440 0
2021-09-18 06:42:06 GMT 51.699234 15.734500 38,000 260 440 0
2021-09-18 06:42:02 GMT 51.700638 15.746765 38,000 260 441 0
2021-09-18 06:41:59 GMT 51.701843 15.757438 38,000 260 441 -64
2021-09-18 06:41:55 GMT 51.702915 15.767212 38,000 260 441 64
2021-09-18 06:41:52 GMT 51.704315 15.779633 38,000 260 441 0
2021-09-18 06:41:49 GMT 51.705433 15.789413 38,000 260 441 64
2021-09-18 06:41:45 GMT 51.707062 15.804278 38,000 260 442 0
2021-09-18 06:41:41 GMT 51.708176 15.814056 38,000 260 442 64
2021-09-18 06:41:37 GMT 51.709946 15.830111 38,000 260 443 0
2021-09-18 06:41:34 GMT 51.710678 15.836718 38,000 260 443 -64
2021-09-18 06:41:31 GMT 51.711761 15.846329 38,000 260 443 0
2021-09-18 06:41:28 GMT 51.712925 15.856857 38,000 260 444 0
2021-09-18 06:41:25 GMT 51.713974 15.866633 38,000 260 444 -64
2021-09-18 06:41:22 GMT 51.715164 15.877026 38,000 260 444 -64
2021-09-18 06:41:19 GMT 51.716232 15.886765 38,000 260 445 64
2021-09-18 06:41:16 GMT 51.717487 15.898438 38,000 260 445 0
2021-09-18 06:41:12 GMT 51.718735 15.909614 38,000 260 445 0
2021-09-18 06:41:09 GMT 51.719814 15.919266 38,000 260 445 64
2021-09-18 06:41:06 GMT 51.721119 15.931168 38,000 260 446 64
2021-09-18 06:41:03 GMT 51.721817 15.937653 38,000 260 446 64
2021-09-18 06:41:00 GMT 51.722763 15.946210 38,000 260 446 -64
2021-09-18 06:40:57 GMT 51.724007 15.957413 38,000 260 446 -64
2021-09-18 06:40:54 GMT 51.725590 15.971756 38,000 260 446 0
2021-09-18 06:40:51 GMT 51.726471 15.979614 38,000 260 446 64
2021-09-18 06:40:47 GMT 51.727707 15.990823 38,000 260 446 64
2021-09-18 06:40:44 GMT 51.728939 16.002045 38,000 260 446 -64
2021-09-18 06:40:41 GMT 51.730801 16.019135 38,000 260 446 -64
2021-09-18 06:40:38 GMT 51.730801 16.019135 38,000 260 446 -64
2021-09-18 06:40:35 GMT 51.732285 16.032541 38,000 260 446 0
2021-09-18 06:40:31 GMT 51.733688 16.045303 38,000 260 446 64
2021-09-18 06:40:28 GMT 51.734386 16.051788 38,000 261 445 -64
2021-09-18 06:40:25 GMT 51.735828 16.064835 38,000 261 445 64
2021-09-18 06:40:22 GMT 51.736633 16.072033 38,000 261 445 0
2021-09-18 06:40:18 GMT 51.738392 16.088181 38,000 261 445 -64
2021-09-18 06:40:15 GMT 51.739014 16.094229 38,000 261 445 0
2021-09-18 06:40:12 GMT 51.740295 16.105883 38,000 261 445 0
2021-09-18 06:40:09 GMT 51.741508 16.117096 38,000 261 444 0
2021-09-18 06:40:06 GMT 51.742348 16.124725 38,000 261 444 0
2021-09-18 06:40:03 GMT 51.744553 16.145151 38,000 261 443 0
2021-09-18 06:39:59 GMT 51.744553 16.145151 38,000 261 444 64
2021-09-18 06:39:56 GMT 51.746109 16.159477 38,000 261 444 64
2021-09-18 06:39:53 GMT 51.747002 16.167831 38,000 261 443 -64
2021-09-18 06:39:48 GMT 51.748539 16.182098 38,000 261 443 0
2021-09-18 06:39:45 GMT 51.749794 16.193924 38,000 261 443 0
2021-09-18 06:39:41 GMT 51.751190 16.206894 38,000 261 443 64
2021-09-18 06:39:38 GMT 51.751888 16.213379 38,000 261 442 64
2021-09-18 06:39:35 GMT 51.753288 16.226196 38,000 261 442 0
2021-09-18 06:39:32 GMT 51.754124 16.234055 38,000 261 442 64
2021-09-18 06:39:29 GMT 51.755383 16.245728 38,000 261 442 -64
2021-09-18 06:39:25 GMT 51.757004 16.260880 38,000 261 442 64
2021-09-18 06:39:22 GMT 51.757614 16.266708 38,000 261 442 0
2021-09-18 06:39:18 GMT 51.759850 16.287460 38,000 261 442 -64
2021-09-18 06:39:15 GMT 51.759850 16.287460 38,000 261 442 -64
2021-09-18 06:39:12 GMT 51.761246 16.300430 38,000 261 442 0
2021-09-18 06:39:09 GMT 51.762405 16.311209 38,000 261 442 0
2021-09-18 06:39:06 GMT 51.763092 16.317741 38,000 261 442 64
2021-09-18 06:39:02 GMT 51.764603 16.331844 38,000 261 441 0
2021-09-18 06:38:59 GMT 51.765671 16.341629 38,000 261 441 64
2021-09-18 06:38:56 GMT 51.766708 16.351591 38,000 261 442 0
2021-09-18 06:38:53 GMT 51.767532 16.359161 38,000 261 442 0
2021-09-18 06:38:50 GMT 51.769043 16.373636 38,000 261 442 0
2021-09-18 06:38:47 GMT 51.769592 16.378536 38,000 261 442 0
2021-09-18 06:38:44 GMT 51.771103 16.393085 38,000 261 442 0
2021-09-18 06:38:41 GMT 51.772247 16.403479 38,000 261 442 0
2021-09-18 06:38:38 GMT 51.773163 16.412312 38,000 261 442 0
2021-09-18 06:38:35 GMT 51.773712 16.417583 38,000 261 442 0
2021-09-18 06:38:32 GMT 51.774933 16.428833 38,000 261 442 0
2021-09-18 06:38:29 GMT 51.776093 16.439852 38,000 261 442 64
2021-09-18 06:38:26 GMT 51.776981 16.448288 38,000 261 442 64
2021-09-18 06:38:23 GMT 51.778152 16.459375 38,000 261 442 64
2021-09-18 06:38:20 GMT 51.778843 16.466217 38,000 261 442 -64
2021-09-18 06:38:17 GMT 51.780167 16.478825 38,000 261 442 -64
2021-09-18 06:38:14 GMT 51.781078 16.487198 38,000 261 442 64
2021-09-18 06:38:11 GMT 51.783463 16.509853 38,000 261 441 -64
2021-09-18 06:38:08 GMT 51.783463 16.509853 38,000 261 441 -64
2021-09-18 06:38:05 GMT 51.785828 16.532440 38,000 261 441 64
2021-09-18 06:38:01 GMT 51.785828 16.532440 38,000 261 441 64
2021-09-18 06:37:58 GMT 51.786850 16.542145 38,000 261 441 64
2021-09-18 06:37:55 GMT 51.787537 16.548676 38,000 261 441 -64
2021-09-18 06:37:51 GMT 51.789047 16.563078 38,000 261 441 -64
2021-09-18 06:37:48 GMT 51.789963 16.572134 38,000 261 441 0
2021-09-18 06:37:45 GMT 51.790993 16.581802 38,000 261 441 64
2021-09-18 06:37:41 GMT 51.792484 16.595993 38,000 261 440 -64
2021-09-18 06:37:38 GMT 51.793324 16.603851 38,000 261 440 0
2021-09-18 06:37:35 GMT 51.794670 16.616821 38,000 261 440 -64
2021-09-18 06:37:31 GMT 51.796673 16.636124 38,000 261 439 -64
2021-09-18 06:37:27 GMT 51.797325 16.642380 38,000 261 439 64
2021-09-18 06:37:23 GMT 51.798477 16.653566 38,000 261 438 64
2021-09-18 06:37:20 GMT 51.799576 16.663960 38,000 261 437 0
2021-09-18 06:37:16 GMT 51.800629 16.674276 38,000 261 437 64
2021-09-18 06:37:13 GMT 51.802029 16.687393 38,000 261 437 -64
2021-09-18 06:37:10 GMT 51.803192 16.698700 38,000 261 437 -64
2021-09-18 06:37:07 GMT 51.804169 16.708298 38,000 261 435 0
2021-09-18 06:37:04 GMT 51.804520 16.711468 38,000 261 435 64
2021-09-18 06:37:01 GMT 51.805847 16.724310 38,000 261 435 64
2021-09-18 06:36:58 GMT 51.806728 16.732635 38,000 261 435 0
2021-09-18 06:36:55 GMT 51.807678 16.742273 38,000 261 436 -64
2021-09-18 06:36:52 GMT 51.808498 16.750412 38,000 261 436 -64
2021-09-18 06:36:49 GMT 51.809616 16.762009 38,000 261 437 64
2021-09-18 06:36:46 GMT 51.810608 16.771744 38,000 261 437 64
2021-09-18 06:36:43 GMT 51.811756 16.782684 37,975 261 439 64
2021-09-18 06:36:40 GMT 51.812943 16.793716 38,000 260 441 -64
2021-09-18 06:36:37 GMT 51.813850 16.801987 38,000 260 443 0
2021-09-18 06:36:34 GMT 51.815945 16.820221 38,000 258 445 0
2021-09-18 06:36:31 GMT 51.815945 16.820221 38,000 260 443 0
2021-09-18 06:36:28 GMT 51.816971 16.828678 38,000 259 445 -64
2021-09-18 06:36:25 GMT 51.819530 16.848984 38,000 259 445 -64
2021-09-18 06:36:22 GMT 51.819530 16.848984 38,000 259 445 -64
2021-09-18 06:36:19 GMT 51.821136 16.861267 38,000 258 445 0
2021-09-18 06:36:15 GMT 51.822556 16.871660 38,000 258 444 -64
2021-09-18 06:36:11 GMT 51.824883 16.887741 38,000 257 443 -64
2021-09-18 06:36:07 GMT 51.826839 16.900330 38,000 256 442 192
2021-09-18 06:36:04 GMT 51.828094 16.908264 38,000 255 443 256
2021-09-18 06:36:00 GMT 51.829742 16.917831 37,975 255 442 576
2021-09-18 06:35:57 GMT 51.831356 16.927338 37,950 255 443 704
2021-09-18 06:35:54 GMT 51.833588 16.940695 37,900 255 443 704
2021-09-18 06:35:51 GMT 51.836430 16.957932 37,900 256 443 704
2021-09-18 06:35:48 GMT 51.836430 16.957932 37,775 256 443 640
2021-09-18 06:35:45 GMT 51.838478 16.970444 36,500 255 445 896
2021-09-18 06:35:42 GMT 51.839218 16.975140 37,750 256 443 640
2021-09-18 06:35:38 GMT 51.841965 16.991768 37,725 256 443 704
2021-09-18 06:35:35 GMT 51.845459 17.012863 37,700 255 444 704
2021-09-18 06:35:32 GMT 51.845459 17.012863 37,650 255 444 704
2021-09-18 06:35:29 GMT 51.846405 17.018713 37,625 255 444 704
2021-09-18 06:35:26 GMT 51.848557 17.031481 37,600 255 444 640
2021-09-18 06:35:22 GMT 51.850163 17.041092 37,550 255 444 704
2021-09-18 06:35:19 GMT 51.851990 17.051970 37,500 255 444 704
2021-09-18 06:35:16 GMT 51.853271 17.059465 37,475 255 444 704
2021-09-18 06:35:13 GMT 51.856979 17.081217 37,400 255 445 640
2021-09-18 06:35:10 GMT 51.856979 17.081217 37,400 255 445 640
2021-09-18 06:35:07 GMT 51.858307 17.089159 37,400 255 445 704
2021-09-18 06:35:04 GMT 51.859940 17.098541 37,350 255 445 704
2021-09-18 06:35:01 GMT 51.862221 17.111511 37,275 255 446 704
2021-09-18 06:34:57 GMT 51.863804 17.120361 37,275 254 445 704
2021-09-18 06:34:54 GMT 51.865894 17.131958 37,250 254 445 768
2021-09-18 06:34:51 GMT 51.867016 17.138290 37,225 254 445 768
2021-09-18 06:34:48 GMT 51.870739 17.158737 37,150 254 446 704
2021-09-18 06:34:45 GMT 51.870739 17.158737 37,125 254 446 704
2021-09-18 06:34:42 GMT 51.873066 17.171555 37,100 254 446 704
2021-09-18 06:34:38 GMT 51.874786 17.180984 37,050 254 446 512
2021-09-18 06:34:35 GMT 51.876789 17.191772 36,950 254 445 448
2021-09-18 06:34:31 GMT 51.879227 17.205332 37,000 254 445 512
2021-09-18 06:34:27 GMT 51.881516 17.218100 36,975 254 445 576
2021-09-18 06:34:24 GMT 51.882660 17.224337 36,950 254 445 576
2021-09-18 06:34:21 GMT 51.886612 17.246857 36,750 255 446 896
2021-09-18 06:34:18 GMT 51.886612 17.246857 36,850 255 445 896
2021-09-18 06:34:15 GMT 51.888245 17.256182 36,800 255 445 960
2021-09-18 06:34:12 GMT 51.889389 17.262638 36,775 255 445 960
2021-09-18 06:34:09 GMT 51.891266 17.273560 36,725 255 446 896
2021-09-18 06:34:06 GMT 51.893501 17.286594 36,675 255 445 768
2021-09-18 06:34:03 GMT 51.894882 17.294922 36,650 255 445 704
2021-09-18 06:33:59 GMT 51.897491 17.310333 36,600 255 445 576
2021-09-18 06:33:55 GMT 51.899414 17.321854 36,575 255 445 384
2021-09-18 06:33:52 GMT 51.900467 17.328262 36,550 255 443 256
2021-09-18 06:33:49 GMT 51.902618 17.341080 36,550 255 444 320
2021-09-18 06:33:45 GMT 51.904675 17.353218 36,525 255 443 256
2021-09-18 06:33:42 GMT 51.906399 17.363264 36,500 255 443 256
2021-09-18 06:33:39 GMT 51.907791 17.371521 36,500 255 443 256
2021-09-18 06:33:36 GMT 51.909470 17.381313 36,475 255 441 320
2021-09-18 06:33:33 GMT 51.911362 17.392120 36,400 255 440 384
2021-09-18 06:33:29 GMT 51.912773 17.400303 36,450 255 440 448
2021-09-18 06:33:26 GMT 51.914543 17.410427 36,425 255 439 512
2021-09-18 06:33:23 GMT 51.916397 17.421188 36,375 255 439 576
2021-09-18 06:33:20 GMT 51.918266 17.431929 36,350 255 439 640
2021-09-18 06:33:17 GMT 51.919922 17.441406 36,325 258 441 960
2021-09-18 06:33:14 GMT 51.921574 17.450918 36,275 255 439 1024
2021-09-18 06:33:11 GMT 51.923061 17.459473 36,200 260 442 1024
2021-09-18 06:33:08 GMT 51.925064 17.471087 36,175 255 439 1216
2021-09-18 06:33:05 GMT 51.928436 17.490845 36,100 255 440 1280
2021-09-18 06:33:01 GMT 51.928436 17.490845 36,075 255 440 1280
2021-09-18 06:32:58 GMT 51.929672 17.498474 35,975 256 440 1280
2021-09-18 06:32:55 GMT 51.931503 17.509995 35,925 257 440 1216
2021-09-18 06:32:52 GMT 51.932793 17.518328 35,875 257 441 1088
2021-09-18 06:32:49 GMT 51.934841 17.532454 35,750 258 441 1024
2021-09-18 06:32:46 GMT 51.935726 17.538889 35,775 258 441 960
2021-09-18 06:32:43 GMT 51.936996 17.548523 35,700 259 441 960
2021-09-18 06:32:40 GMT 51.938190 17.558271 35,675 260 442 960
2021-09-18 06:32:36 GMT 51.939926 17.573166 35,600 260 442 1024
2021-09-18 06:32:33 GMT 51.941032 17.582912 35,550 260 442 896
2021-09-18 06:32:30 GMT 51.941917 17.590681 35,525 260 442 896
2021-09-18 06:32:26 GMT 51.943501 17.604963 35,450 260 442 448
2021-09-18 06:32:23 GMT 51.945545 17.622934 35,450 260 441 256
2021-09-18 06:32:20 GMT 51.945545 17.622934 35,325 260 439 768
2021-09-18 06:32:17 GMT 51.946430 17.630938 35,400 260 440 320
2021-09-18 06:32:14 GMT 51.948757 17.651575 35,325 260 439 1280
2021-09-18 06:32:11 GMT 51.948757 17.651575 35,325 260 439 1728
2021-09-18 06:32:08 GMT 51.949722 17.659988 35,225 260 439 1664
2021-09-18 06:32:05 GMT 51.950867 17.670135 35,050 260 445 2688
2021-09-18 06:32:02 GMT 51.952393 17.683908 35,100 260 440 2176
2021-09-18 06:31:58 GMT 51.954578 17.703369 34,875 260 444 2624
2021-09-18 06:31:54 GMT 51.955463 17.711218 34,675 260 450 2688
2021-09-18 06:31:51 GMT 51.956066 17.716475 34,625 260 448 2752
2021-09-18 06:31:48 GMT 51.957092 17.725657 34,525 260 455 1920
2021-09-18 06:31:44 GMT 51.958862 17.741587 34,325 260 454 2176
2021-09-18 06:31:41 GMT 51.959976 17.751617 34,150 260 457 1408
2021-09-18 06:31:38 GMT 51.960846 17.759628 34,100 260 458 960
2021-09-18 06:31:33 GMT 51.962727 17.776272 34,000 260 458 1088
2021-09-18 06:31:30 GMT 51.964005 17.787857 33,875 260 458 832
2021-09-18 06:31:27 GMT 51.964737 17.794571 33,875 260 458 832
2021-09-18 06:31:24 GMT 51.966030 17.806091 33,875 260 457 960
2021-09-18 06:31:21 GMT 51.967575 17.820206 33,850 260 457 1024
2021-09-18 06:31:18 GMT 51.968403 17.827593 33,800 260 458 1664
2021-09-18 06:31:15 GMT 51.969616 17.838345 33,725 260 458 1536
2021-09-18 06:31:12 GMT 51.970497 17.846428 33,525 260 460 1600
2021-09-18 06:31:08 GMT 51.972408 17.863926 33,525 260 460 1536
2021-09-18 06:31:03 GMT 51.974178 17.880249 33,425 261 460 1408
2021-09-18 06:30:59 GMT 51.975666 17.893747 33,325 260 461 1280
2021-09-18 06:30:56 GMT 51.976505 17.901201 33,200 260 462 960
2021-09-18 06:30:53 GMT 51.977760 17.912815 33,250 260 462 1024
2021-09-18 06:30:49 GMT 51.979389 17.927727 33,150 261 461 896
2021-09-18 06:30:46 GMT 51.980209 17.935104 33,050 260 459 64
2021-09-18 06:30:42 GMT 51.981674 17.948837 33,075 261 460 640
2021-09-18 06:30:39 GMT 51.983185 17.962418 33,050 260 461 576
2021-09-18 06:30:36 GMT 51.983917 17.969208 33,025 260 459 64
2021-09-18 06:30:33 GMT 51.985382 17.982712 33,000 260 459 64
2021-09-18 06:30:29 GMT 51.986511 17.992781 33,000 260 459 64
2021-09-18 06:30:26 GMT 51.988083 18.007126 33,000 260 459 0
2021-09-18 06:30:22 GMT 51.990601 18.030167 33,000 260 459 0
2021-09-18 06:30:19 GMT 51.990601 18.030167 33,000 260 459 -64
2021-09-18 06:30:16 GMT 51.991333 18.036957 33,000 260 459 -64
2021-09-18 06:30:13 GMT 51.993668 18.058624 33,000 260 460 0
2021-09-18 06:30:10 GMT 51.993668 18.058624 33,000 260 460 0
2021-09-18 06:30:06 GMT 51.994995 18.070755 33,000 260 460 0
2021-09-18 06:30:02 GMT 51.996460 18.084335 33,000 261 460 64
2021-09-18 06:29:59 GMT 51.997730 18.095896 33,000 261 460 64
2021-09-18 06:29:56 GMT 52.000076 18.117905 33,000 261 461 0
2021-09-18 06:29:53 GMT 52.000076 18.117905 33,000 261 461 -64
2021-09-18 06:29:50 GMT 52.000664 18.123047 33,000 261 461 0
2021-09-18 06:29:47 GMT 52.001923 18.134975 33,000 261 461 64
2021-09-18 06:29:44 GMT 52.002777 18.142776 33,000 261 462 64
2021-09-18 06:29:40 GMT 52.004436 18.158047 33,000 261 462 -64
2021-09-18 06:29:36 GMT 52.007229 18.184336 33,000 261 462 -64
2021-09-18 06:29:30 GMT 52.008179 18.193207 33,000 261 463 0
2021-09-18 06:29:27 GMT 52.009232 18.202820 33,000 261 463 64
2021-09-18 06:29:24 GMT 52.010376 18.213730 33,000 261 464 0
2021-09-18 06:29:20 GMT 52.012253 18.231277 33,000 261 463 0
2021-09-18 06:29:17 GMT 52.013123 18.239365 33,000 261 464 0
2021-09-18 06:29:14 GMT 52.013840 18.245857 33,000 261 464 -64
2021-09-18 06:29:11 GMT 52.015282 18.259590 33,000 261 464 0
2021-09-18 06:29:08 GMT 52.016373 18.269882 33,000 261 464 64
2021-09-18 06:29:05 GMT 52.017563 18.280869 33,000 261 465 -64
2021-09-18 06:29:00 GMT 52.020767 18.311081 33,000 261 466 64
2021-09-18 06:28:56 GMT 52.022049 18.323135 33,000 261 463 0
2021-09-18 06:28:53 GMT 52.022049 18.323135 33,000 261 466 -64
2021-09-18 06:28:50 GMT 52.022827 18.330307 33,000 261 465 -64
2021-09-18 06:28:47 GMT 52.024361 18.344814 33,000 261 465 64
2021-09-18 06:28:44 GMT 52.025383 18.354387 33,000 261 464 64
2021-09-18 06:28:39 GMT 52.026993 18.369904 33,000 261 464 0
2021-09-18 06:28:36 GMT 52.028271 18.381618 33,000 261 463 0
2021-09-18 06:28:33 GMT 52.028969 18.388445 33,000 261 460 -64
2021-09-18 06:28:29 GMT 52.030876 18.406416 33,000 261 460 -64
2021-09-18 06:28:26 GMT 52.032459 18.421247 33,000 261 458 -64
2021-09-18 06:28:23 GMT 52.032459 18.421247 33,000 261 458 0
2021-09-18 06:28:19 GMT 52.033859 18.434219 32,950 261 454 576
2021-09-18 06:28:16 GMT 52.035141 18.446350 32,850 261 454 384
2021-09-18 06:28:13 GMT 52.036560 18.459778 32,950 261 454 576
2021-09-18 06:28:10 GMT 52.037628 18.469822 32,925 261 453 1024
2021-09-18 06:28:05 GMT 52.038979 18.483086 32,825 261 453 1024
2021-09-18 06:28:02 GMT 52.039818 18.491089 32,725 261 453 960
2021-09-18 06:27:59 GMT 52.040932 18.501682 32,725 261 453 960
2021-09-18 06:27:56 GMT 52.041958 18.511335 32,675 261 453 1024
2021-09-18 06:27:53 GMT 52.044388 18.534775 32,600 261 452 1024
2021-09-18 06:27:50 GMT 52.044388 18.534775 32,575 261 452 1024
2021-09-18 06:27:47 GMT 52.046242 18.552769 32,550 261 452 1024
2021-09-18 06:27:44 GMT 52.046242 18.552769 32,475 261 452 1024
2021-09-18 06:27:41 GMT 52.047775 18.567444 32,425 261 447 832
2021-09-18 06:27:38 GMT 52.048645 18.576126 32,400 261 452 1024
2021-09-18 06:27:34 GMT 52.050102 18.590044 32,325 261 451 960
2021-09-18 06:27:31 GMT 52.050663 18.595224 32,200 261 451 1024
2021-09-18 06:27:28 GMT 52.052059 18.608721 32,200 261 451 960
2021-09-18 06:27:25 GMT 52.052898 18.616726 32,125 261 451 1088
2021-09-18 06:27:22 GMT 52.054249 18.629988 32,125 261 451 1024
2021-09-18 06:27:17 GMT 52.055782 18.644741 32,025 261 450 1024
2021-09-18 06:27:14 GMT 52.056900 18.655491 31,975 261 450 1216
2021-09-18 06:27:11 GMT 52.057800 18.664017 31,950 261 451 1280
2021-09-18 06:27:08 GMT 52.059090 18.676758 31,850 261 451 1280
2021-09-18 06:27:05 GMT 52.059925 18.684761 31,800 261 451 1280
2021-09-18 06:27:02 GMT 52.060913 18.694687 31,750 261 451 1344
2021-09-18 06:26:58 GMT 52.062332 18.708191 31,650 261 451 1280
2021-09-18 06:26:54 GMT 52.063568 18.720245 31,550 261 451 960
2021-09-18 06:26:51 GMT 52.064720 18.731611 31,525 261 451 960
2021-09-18 06:26:46 GMT 52.066544 18.749542 31,375 261 449 960
2021-09-18 06:26:43 GMT 52.067562 18.759548 31,400 261 449 960
2021-09-18 06:26:40 GMT 52.068260 18.766138 31,375 261 449 960
2021-09-18 06:26:36 GMT 52.069794 18.781433 31,300 261 447 832
2021-09-18 06:26:33 GMT 52.071030 18.793411 31,250 261 447 832
2021-09-18 06:26:30 GMT 52.071609 18.799334 31,225 261 447 832
2021-09-18 06:26:27 GMT 52.072495 18.807907 31,150 261 446 1024
2021-09-18 06:26:24 GMT 52.073868 18.821106 31,125 261 446 1088
2021-09-18 06:26:21 GMT 52.074821 18.830723 31,050 261 445 1216
2021-09-18 06:26:17 GMT 52.075939 18.841475 30,925 261 445 1280
2021-09-18 06:26:13 GMT 52.077347 18.855362 30,900 261 445 1408
2021-09-18 06:26:10 GMT 52.078594 18.867842 30,825 261 444 1472
2021-09-18 06:26:06 GMT 52.079590 18.877716 30,700 261 444 1408
2021-09-18 06:26:03 GMT 52.080780 18.889236 30,650 261 444 1280
2021-09-18 06:26:00 GMT 52.081619 18.897818 30,600 261 444 1216
2021-09-18 06:25:57 GMT 52.082737 18.908648 30,500 261 443 960
2021-09-18 06:25:54 GMT 52.083622 18.917515 30,425 261 443 896
2021-09-18 06:25:51 GMT 52.084972 18.930935 30,450 261 443 896
2021-09-18 06:25:48 GMT 52.085449 18.935547 30,425 261 442 896
2021-09-18 06:25:45 GMT 52.086601 18.946709 30,375 261 441 896
2021-09-18 06:25:42 GMT 52.087906 18.959734 30,250 261 440 1216
2021-09-18 06:25:39 GMT 52.088882 18.969574 30,150 261 439 1344
2021-09-18 06:25:34 GMT 52.091492 18.995667 30,150 261 440 1344
2021-09-18 06:25:30 GMT 52.091492 18.995667 30,100 261 440 1280
2021-09-18 06:25:27 GMT 52.092747 19.008074 30,000 261 439 1280
2021-09-18 06:25:24 GMT 52.093395 19.014353 29,975 261 439 1280
2021-09-18 06:25:21 GMT 52.094654 19.027456 29,875 262 439 1344
2021-09-18 06:25:17 GMT 52.096050 19.041739 29,775 262 439 1280
2021-09-18 06:25:14 GMT 52.096657 19.048410 29,725 262 439 1280
2021-09-18 06:25:10 GMT 52.099121 19.072971 29,625 261 438 1280
2021-09-18 06:25:07 GMT 52.099121 19.072971 29,450 260 437 1216
2021-09-18 06:25:04 GMT 52.099819 19.079563 29,475 260 437 1216
2021-09-18 06:25:01 GMT 52.100967 19.090424 29,475 260 437 1216
2021-09-18 06:24:58 GMT 52.101871 19.098789 29,400 260 437 1216
2021-09-18 06:24:55 GMT 52.103302 19.111176 29,325 259 435 896
2021-09-18 06:24:52 GMT 52.104309 19.119949 29,250 259 435 896
2021-09-18 06:24:49 GMT 52.105728 19.131775 29,225 257 424 1472
2021-09-18 06:24:46 GMT 52.106712 19.139910 29,200 259 434 832
2021-09-18 06:24:43 GMT 52.107689 19.147522 29,175 259 434 832
2021-09-18 06:24:40 GMT 52.109177 19.159216 29,125 258 432 1152
2021-09-18 06:24:36 GMT 52.110992 19.172592 29,025 258 432 1344
2021-09-18 06:24:33 GMT 52.112183 19.181137 28,925 257 431 1344
2021-09-18 06:24:29 GMT 52.113876 19.192581 28,900 257 431 1280
2021-09-18 06:24:25 GMT 52.115883 19.205984 28,800 257 430 1344
2021-09-18 06:24:22 GMT 52.117279 19.215715 28,725 257 429 1280
2021-09-18 06:24:19 GMT 52.118443 19.223562 28,625 257 429 1152
2021-09-18 06:24:16 GMT 52.120010 19.234238 28,600 257 427 1088
2021-09-18 06:24:13 GMT 52.121292 19.242935 28,550 257 427 1088
2021-09-18 06:24:10 GMT 52.122681 19.252363 28,325 257 427 1216
2021-09-18 06:24:07 GMT 52.124359 19.263916 28,425 257 426 1280
2021-09-18 06:24:04 GMT 52.125641 19.272614 28,325 257 426 1280
2021-09-18 06:24:00 GMT 52.126961 19.281948 28,275 257 425 1280
2021-09-18 06:23:57 GMT 52.128571 19.292831 28,150 257 425 1344
2021-09-18 06:23:54 GMT 52.129623 19.300308 28,175 257 425 1344
2021-09-18 06:23:51 GMT 52.131336 19.312080 28,050 257 424 1472
2021-09-18 06:23:48 GMT 52.132507 19.320145 28,025 258 423 1536
2021-09-18 06:23:44 GMT 52.135574 19.342270 27,900 258 424 1536
2021-09-18 06:23:41 GMT 52.135574 19.342270 27,825 258 423 1536
2021-09-18 06:23:38 GMT 52.136829 19.351789 27,750 259 423 1472
2021-09-18 06:23:35 GMT 52.138184 19.362411 27,425 260 422 1664
2021-09-18 06:23:30 GMT 52.139671 19.375254 27,400 261 421 1600
2021-09-18 06:23:27 GMT 52.141113 19.388580 27,375 262 417 1728
2021-09-18 06:23:24 GMT 52.141754 19.394836 27,375 261 420 1600
2021-09-18 06:23:19 GMT 52.143585 19.413605 27,225 261 420 1600
2021-09-18 06:23:16 GMT 52.144226 19.419785 27,200 261 420 1600
2021-09-18 06:23:13 GMT 52.145119 19.429165 27,125 261 419 1600
2021-09-18 06:23:10 GMT 52.146095 19.438894 27,000 261 419 1664
2021-09-18 06:23:07 GMT 52.147018 19.448395 26,900 261 418 1856
2021-09-18 06:23:04 GMT 52.148190 19.460239 26,850 261 418 1984
2021-09-18 06:23:00 GMT 52.149216 19.470749 26,725 261 418 1984
2021-09-18 06:22:56 GMT 52.150543 19.484406 26,525 261 418 1984
2021-09-18 06:22:53 GMT 52.151413 19.493103 26,300 261 418 1984
2021-09-18 06:22:48 GMT 52.153172 19.511011 26,100 261 418 1984
2021-09-18 06:22:45 GMT 52.153610 19.515381 26,200 261 418 1920
2021-09-18 06:22:42 GMT 52.154938 19.529037 26,125 262 417 1856
2021-09-18 06:22:39 GMT 52.155533 19.535217 26,050 262 417 1792
2021-09-18 06:22:35 GMT 52.156895 19.549229 25,825 261 415 1600
2021-09-18 06:22:32 GMT 52.157780 19.558098 25,825 261 415 1600
2021-09-18 06:22:29 GMT 52.159222 19.572927 25,775 261 415 1600
2021-09-18 06:22:26 GMT 52.159222 19.572927 25,725 261 414 1664
2021-09-18 06:22:23 GMT 52.160339 19.584656 25,625 261 413 1728
2021-09-18 06:22:19 GMT 52.161530 19.596863 25,500 262 412 1728
2021-09-18 06:22:16 GMT 52.162582 19.607620 25,375 262 411 1792
2021-09-18 06:22:13 GMT 52.163597 19.618286 25,150 262 410 1856
2021-09-18 06:22:08 GMT 52.164688 19.629822 25,150 262 410 1792
2021-09-18 06:22:05 GMT 52.166389 19.647478 25,075 262 409 1664
2021-09-18 06:22:02 GMT 52.166389 19.647478 24,750 262 407 1664
2021-09-18 06:21:58 GMT 52.167557 19.659563 24,925 262 407 1664
2021-09-18 06:21:54 GMT 52.168900 19.673538 24,725 262 405 1664
2021-09-18 06:21:50 GMT 52.170021 19.684910 24,675 262 404 1600
2021-09-18 06:21:47 GMT 52.171097 19.696350 24,600 262 403 1728
2021-09-18 06:21:43 GMT 52.171837 19.704136 24,525 262 402 1728
2021-09-18 06:21:39 GMT 52.173187 19.718418 24,200 262 400 1856
2021-09-18 06:21:36 GMT 52.174305 19.730268 24,275 262 400 1856
2021-09-18 06:21:33 GMT 52.174713 19.734573 24,275 262 400 1856
2021-09-18 06:21:30 GMT 52.175514 19.743452 24,125 262 397 1920
2021-09-18 06:21:26 GMT 52.176819 19.757080 23,925 262 398 1984
2021-09-18 06:21:23 GMT 52.177750 19.767151 23,850 262 397 1920
2021-09-18 06:21:19 GMT 52.178787 19.778442 23,700 262 396 1856
2021-09-18 06:21:16 GMT 52.179474 19.786062 23,700 262 396 1856
2021-09-18 06:21:13 GMT 52.180435 19.796066 23,525 262 394 1664
2021-09-18 06:21:10 GMT 52.180984 19.801941 23,500 261 393 1600
2021-09-18 06:21:07 GMT 52.182079 19.813059 23,375 261 391 1216
2021-09-18 06:21:04 GMT 52.182861 19.820557 23,100 262 386 704
2021-09-18 06:21:01 GMT 52.183941 19.831343 23,250 262 386 704
2021-09-18 06:20:57 GMT 52.184734 19.839661 23,150 264 379 576
2021-09-18 06:20:54 GMT 52.185524 19.848843 23,200 264 381 640
2021-09-18 06:20:50 GMT 52.186501 19.862341 23,175 265 377 576
2021-09-18 06:20:47 GMT 52.186920 19.869246 23,150 266 375 576
2021-09-18 06:20:43 GMT 52.187485 19.881058 23,075 268 370 512
2021-09-18 06:20:40 GMT 52.187805 19.889679 23,100 269 368 448
2021-09-18 06:20:37 GMT 52.187946 19.900398 23,075 271 363 320
2021-09-18 06:20:34 GMT 52.187943 19.906464 23,050 272 360 320
2021-09-18 06:20:31 GMT 52.187851 19.912949 23,050 272 360 320
2021-09-18 06:20:26 GMT 52.187576 19.927750 23,000 272 350 576
2021-09-18 06:20:23 GMT 52.187431 19.935869 22,900 272 347 704
2021-09-18 06:20:20 GMT 52.187256 19.944687 22,950 272 345 832
2021-09-18 06:20:17 GMT 52.187153 19.952427 22,900 272 340 1408
2021-09-18 06:20:12 GMT 52.186935 19.964066 22,550 272 336 2496
2021-09-18 06:20:09 GMT 52.186798 19.971390 22,550 272 336 2368
2021-09-18 06:20:06 GMT 52.186642 19.977774 22,600 272 336 2496
2021-09-18 06:20:02 GMT 52.186409 19.991116 22,300 272 335 2624
2021-09-18 06:19:59 GMT 52.186317 19.996216 22,275 272 335 2624
2021-09-18 06:19:55 GMT 52.186131 20.006182 22,175 272 335 2624
2021-09-18 06:19:52 GMT 52.185974 20.013809 21,950 272 334 2688
2021-09-18 06:19:49 GMT 52.185802 20.023369 21,250 272 331 2240
2021-09-18 06:19:44 GMT 52.185524 20.041416 21,550 272 334 2624
2021-09-18 06:19:41 GMT 52.185524 20.041416 20,700 272 328 2176
2021-09-18 06:19:36 GMT 52.185337 20.054285 21,300 272 333 2496
2021-09-18 06:19:33 GMT 52.185246 20.061350 21,175 272 332 2432
2021-09-18 06:19:30 GMT 52.185150 20.067902 21,075 272 332 2368
2021-09-18 06:19:26 GMT 52.184967 20.078888 20,650 272 328 2240
2021-09-18 06:19:23 GMT 52.184738 20.093689 20,700 272 328 2176
2021-09-18 06:19:20 GMT 52.184738 20.093689 20,700 272 324 2304
2021-09-18 06:19:16 GMT 52.184593 20.104980 20,525 272 326 2240
2021-09-18 06:19:13 GMT 52.184452 20.113691 20,375 272 324 2240
2021-09-18 06:19:09 GMT 52.184326 20.121078 20,125 272 323 2304
2021-09-18 06:19:04 GMT 52.184143 20.132828 20,025 272 321 2240
2021-09-18 06:19:01 GMT 52.183987 20.142019 19,325 272 315 2304
2021-09-18 06:18:58 GMT 52.183914 20.148239 19,325 272 315 2304
2021-09-18 06:18:55 GMT 52.183823 20.154953 19,725 272 317 2240
2021-09-18 06:18:52 GMT 52.183708 20.163052 19,575 272 315 2304
2021-09-18 06:18:49 GMT 52.183571 20.173489 19,450 272 313 2304
2021-09-18 06:18:45 GMT 52.183502 20.178604 19,375 272 313 2304
2021-09-18 06:18:41 GMT 52.183430 20.186357 19,250 271 311 2496
2021-09-18 06:18:38 GMT 52.183334 20.193186 18,975 271 310 2624
2021-09-18 06:18:35 GMT 52.183273 20.202713 18,875 271 309 2880
2021-09-18 06:18:32 GMT 52.183243 20.210842 18,750 270 309 2944
2021-09-18 06:18:29 GMT 52.183411 20.227051 17,700 269 308 3008
2021-09-18 06:18:24 GMT 52.183411 20.227051 18,350 269 308 2944
2021-09-18 06:18:21 GMT 52.183521 20.233992 18,250 269 308 3008
2021-09-18 06:18:17 GMT 52.183685 20.245514 18,025 269 307 2880
2021-09-18 06:18:14 GMT 52.183823 20.256577 17,875 269 307 2880
2021-09-18 06:18:11 GMT 52.183823 20.256577 17,700 269 306 2816
2021-09-18 06:18:08 GMT 52.184006 20.266724 17,600 269 305 2752
2021-09-18 06:18:05 GMT 52.184052 20.272217 17,425 269 305 2752
2021-09-18 06:18:02 GMT 52.184143 20.278625 17,300 269 304 2752
2021-09-18 06:17:59 GMT 52.184235 20.284119 17,175 269 303 2752
2021-09-18 06:17:56 GMT 52.184326 20.290451 16,950 269 302 2688
2021-09-18 06:17:53 GMT 52.184502 20.300774 16,900 269 301 2560
2021-09-18 06:17:50 GMT 52.184509 20.304108 16,850 269 301 2560
2021-09-18 06:17:47 GMT 52.184647 20.313110 16,625 269 298 2688
2021-09-18 06:17:44 GMT 52.184734 20.319607 16,550 269 298 2816
2021-09-18 06:17:41 GMT 52.184830 20.326538 16,400 269 297 2880
2021-09-18 06:17:37 GMT 52.184963 20.335930 16,200 269 295 3008
2021-09-18 06:17:34 GMT 52.185059 20.341187 16,050 269 295 3008
2021-09-18 06:17:31 GMT 52.185150 20.348740 15,875 269 295 3008
2021-09-18 06:17:28 GMT 52.185196 20.353165 15,800 269 294 2880
2021-09-18 06:17:23 GMT 52.185471 20.371704 15,350 269 293 2944
2021-09-18 06:17:20 GMT 52.185471 20.371704 15,400 269 292 3072
2021-09-18 06:17:15 GMT 52.185654 20.384674 15,100 269 291 3008
2021-09-18 06:17:12 GMT 52.185699 20.387497 15,000 269 291 2880
2021-09-18 06:17:09 GMT 52.185791 20.395355 14,875 269 290 2688
2021-09-18 06:17:06 GMT 52.185898 20.402710 14,550 269 289 2624
2021-09-18 06:17:03 GMT 52.185944 20.407969 14,525 269 284 2944
2021-09-18 06:17:00 GMT 52.186085 20.416521 14,450 269 285 2816
2021-09-18 06:16:56 GMT 52.186176 20.425781 14,250 269 283 3008
2021-09-18 06:16:53 GMT 52.186249 20.431519 14,100 269 283 3136
2021-09-18 06:16:49 GMT 52.186386 20.438995 13,900 269 282 3136
2021-09-18 06:16:45 GMT 52.186455 20.446262 13,700 269 280 3136
2021-09-18 06:16:42 GMT 52.186523 20.452576 13,225 269 280 3264
2021-09-18 06:16:39 GMT 52.186642 20.459839 13,400 269 280 3264
2021-09-18 06:16:36 GMT 52.186707 20.464478 13,125 269 279 3520
2021-09-18 06:16:32 GMT 52.186844 20.474548 12,850 269 281 0
2021-09-18 06:16:29 GMT 52.186920 20.480869 12,800 269 280 3904
2021-09-18 06:16:22 GMT 52.187119 20.495605 12,125 269 283 4224
2021-09-18 06:16:19 GMT 52.187199 20.502842 12,075 269 284 4096
2021-09-18 06:16:11 GMT 52.187340 20.517439 11,500 269 288 3328
2021-09-18 06:16:08 GMT 52.187439 20.525665 11,450 269 289 3136
2021-09-18 06:16:02 GMT 52.187618 20.539804 11,150 269 288 2688
2021-09-18 06:15:58 GMT 52.187714 20.546865 11,000 269 287 2752
2021-09-18 06:15:51 GMT 52.187897 20.561541 10,575 269 285 2944
2021-09-18 06:15:48 GMT 52.187988 20.568771 10,450 269 283 2944
2021-09-18 06:15:44 GMT 52.188080 20.577393 10,275 269 283 2944
2021-09-18 06:15:41 GMT 52.188179 20.583826 10,175 269 283 2880
2021-09-18 06:15:38 GMT 52.188263 20.592728 9,975 269 282 2752
2021-09-18 06:15:34 GMT 52.188354 20.601120 9,800 269 281 2688
2021-09-18 06:15:31 GMT 52.188503 20.612627 9,650 269 280 2752
2021-09-18 06:15:27 GMT 52.188503 20.612627 9,550 269 279 2880
2021-09-18 06:15:21 GMT 52.188644 20.625811 9,225 269 277 3072
2021-09-18 06:15:17 GMT 52.188766 20.633926 9,025 269 277 3072
2021-09-18 06:15:10 GMT 52.188904 20.647812 8,700 269 276 3072
2021-09-18 06:15:07 GMT 52.189014 20.655083 8,075 269 273 3072
2021-09-18 06:15:01 GMT 52.189156 20.668344 8,200 269 273 3328
2021-09-18 06:14:56 GMT 52.189316 20.687408 7,900 270 273 3072
2021-09-18 06:14:52 GMT 52.189316 20.687408 7,725 270 272 2880
2021-09-18 06:14:48 GMT 52.189407 20.694885 7,550 270 271 3264
2021-09-18 06:14:44 GMT 52.189453 20.702286 7,350 270 270 3392
2021-09-18 06:14:41 GMT 52.189480 20.707581 7,150 270 270 3520
2021-09-18 06:14:38 GMT 52.189545 20.713654 6,825 269 270 3456
2021-09-18 06:14:34 GMT 52.189590 20.720978 6,825 269 270 3072
2021-09-18 06:14:30 GMT 52.189758 20.731123 6,575 269 269 2880
2021-09-18 06:14:25 GMT 52.189854 20.741638 6,325 271 268 2496
2021-09-18 06:14:19 GMT 52.189636 20.752335 6,125 274 262 1920
2021-09-18 06:14:16 GMT 52.188271 20.771067 5,950 280 247 960
2021-09-18 06:14:09 GMT 52.188271 20.771067 5,900 282 243 960
2021-09-18 06:14:06 GMT 52.187386 20.778284 5,850 283 238 1152
2021-09-18 06:14:01 GMT 52.186066 20.787582 5,700 283 228 2432
2021-09-18 06:13:58 GMT 52.185608 20.790939 5,575 283 226 2752
2021-09-18 06:13:55 GMT 52.184967 20.795593 5,500 283 225 2880
2021-09-18 06:13:51 GMT 52.183804 20.803789 5,250 283 223 3072
2021-09-18 06:13:48 GMT 52.183228 20.808105 5,125 283 223 2944
2021-09-18 06:13:45 GMT 52.182587 20.812531 5,000 283 222 2816
2021-09-18 06:13:40 GMT 52.181614 20.819485 4,750 281 218 2496
2021-09-18 06:13:37 GMT 52.180962 20.824663 4,600 279 217 2112
2021-09-18 06:13:34 GMT 52.180496 20.829214 4,575 278 217 2048
2021-09-18 06:13:30 GMT 52.180077 20.837534 4,425 272 212 1216
2021-09-18 06:13:25 GMT 52.180206 20.845261 4,375 266 202 512
2021-09-18 06:13:18 GMT 52.180870 20.855581 4,325 264 185 768
2021-09-18 06:13:14 GMT 52.181122 20.859680 4,275 264 179 960
2021-09-18 06:13:10 GMT 52.181534 20.865479 4,175 264 169 1344
2021-09-18 06:13:07 GMT 52.181801 20.869314 4,125 264 166 1600
2021-09-18 06:13:04 GMT 52.182037 20.873032 4,050 264 163 2048
2021-09-18 06:13:00 GMT 52.182449 20.878830 3,850 264 160 2752
2021-09-18 06:12:57 GMT 52.182632 20.881195 3,750 264 160 2880
2021-09-18 06:12:53 GMT 52.182919 20.885796 3,575 264 161 3008
2021-09-18 06:12:47 GMT 52.183430 20.893562 3,250 266 162 3200
2021-09-18 06:12:44 GMT 52.183571 20.897879 3,050 271 164 3200
2021-09-18 06:12:37 GMT 52.182777 20.905727 2,725 289 164 2944
2021-09-18 06:12:33 GMT 52.181705 20.910200 2,525 295 163 3008
2021-09-18 06:12:29 GMT 52.180389 20.914993 2,225 296 163 2816
2021-09-18 06:12:26 GMT 52.179520 20.917891 2,200 296 163 2880
2021-09-18 06:12:23 GMT 52.178493 20.921421 2,050 296 163 2816
2021-09-18 06:12:19 GMT 52.176361 20.928802 1,575 296 162 2816
2021-09-18 06:12:16 GMT 52.176361 20.928802 1,750 296 162 2752
2021-09-18 06:12:12 GMT 52.175144 20.932878 1,575 295 162 2880
2021-09-18 06:12:08 GMT 52.173706 20.938110 1,325 295 162 2816
2021-09-18 06:12:03 GMT 52.172024 20.944180 1,075 295 162 2624

Making use of Plane Finder data

You are free to use the raw flight data, aircraft information and images provided in this report for your own purposes provided the data is correctly attributed to Plane Finder. We ask that you please credit Plane Finder and link to planefinder.net in close proximity to the content.

Optionally one of the following logos (no smaller then 150x24px) can be used and must link to planefinder.net

Embedding the Plane Finder map

You are welcome to embed the Plane Finder playback map on your website to offer visitors a more interactive experience. We suggest using the following HTML code:

<iframe src="//planefinder.net/data/report/LO417-SP-LDI-7700-squawk-2021-09-18/map" width="800" height="600" seamless="seamless"></iframe>

Where our data comes from

Plane Finder has a global network of data feeds and antenna radars that receive data broadcast directly from aircraft. The primary technologies used are ADS-B and MLAT. We also show feeds from the FAA and a FLARM glider feed.

Click here to find out more about the Plane Finder network.

How we collect our data